<?xml version="1.0" encoding="UTF-8" standalone="no" ?>
<gpx xmlns="http://www.topografix.com/GPX/1/1" xmlns:xsi="http://www.w3.org/2001/XMLSchema-instance" xsi:schemaLocation="http://www.topografix.com/GPX/1/1 http://www.topografix.com/GPX/1/1/gpx.xsd" version="1.1" creator="VisuGPX - https://www.visugpx.com">
  <metadata>
    <name>Tour de la Vallée</name>
  </metadata>
  <trk>
    <name><![CDATA[Tour de la Vallée]]></name>
    <trkseg>
      <trkpt lat="48.0371" lon="7.20218">
        <ele>335.486203</ele>
        <time>2022-05-15T19:44:22.828Z</time>
      </trkpt>
      <trkpt lat="48.03711" lon="7.20171">
        <ele>335.486203</ele>
        <time>2022-05-15T19:44:28.858Z</time>
      </trkpt>
      <trkpt lat="48.0371" lon="7.20124">
        <ele>335.486203</ele>
        <time>2022-05-15T19:44:35.722Z</time>
      </trkpt>
      <trkpt lat="48.03712" lon="7.20078">
        <ele>335.530859</ele>
        <time>2022-05-15T19:44:42.780Z</time>
      </trkpt>
      <trkpt lat="48.03689" lon="7.19952">
        <ele>336.722354</ele>
        <time>2022-05-15T19:45:04.467Z</time>
      </trkpt>
      <trkpt lat="48.03682" lon="7.19935">
        <ele>336.899585</ele>
        <time>2022-05-15T19:45:08.185Z</time>
      </trkpt>
      <trkpt lat="48.03653" lon="7.19931">
        <ele>337.290037</ele>
        <time>2022-05-15T19:45:19.758Z</time>
      </trkpt>
      <trkpt lat="48.0363" lon="7.19935">
        <ele>337.604506</ele>
        <time>2022-05-15T19:45:29.305Z</time>
      </trkpt>
      <trkpt lat="48.03527" lon="7.19934">
        <ele>339.683383</ele>
        <time>2022-05-15T19:46:14.204Z</time>
      </trkpt>
      <trkpt lat="48.03495" lon="7.19927">
        <ele>340.417488</ele>
        <time>2022-05-15T19:46:28.222Z</time>
      </trkpt>
      <trkpt lat="48.03426" lon="7.199">
        <ele>342.010791</ele>
        <time>2022-05-15T19:46:58.053Z</time>
      </trkpt>
      <trkpt lat="48.03352" lon="7.19855">
        <ele>344.36923</ele>
        <time>2022-05-15T19:47:33.146Z</time>
      </trkpt>
      <trkpt lat="48.03285" lon="7.19841">
        <ele>346.375499</ele>
        <time>2022-05-15T19:48:05.656Z</time>
      </trkpt>
      <trkpt lat="48.03231" lon="7.19817">
        <ele>348.301072</ele>
        <time>2022-05-15T19:48:33.881Z</time>
      </trkpt>
      <trkpt lat="48.03192" lon="7.19812">
        <ele>349.812479</ele>
        <time>2022-05-15T19:48:54.844Z</time>
      </trkpt>
      <trkpt lat="48.03093" lon="7.1979">
        <ele>353.652183</ele>
        <time>2022-05-15T19:49:47.148Z</time>
      </trkpt>
      <trkpt lat="48.03068" lon="7.19779">
        <ele>354.498642</ele>
        <time>2022-05-15T19:50:00.543Z</time>
      </trkpt>
      <trkpt lat="48.02987" lon="7.19745">
        <ele>356.723627</ele>
        <time>2022-05-15T19:50:38.047Z</time>
      </trkpt>
      <trkpt lat="48.02935" lon="7.19731">
        <ele>358.119444</ele>
        <time>2022-05-15T19:51:00.638Z</time>
      </trkpt>
      <trkpt lat="48.02911" lon="7.19716">
        <ele>358.793798</ele>
        <time>2022-05-15T19:51:11.047Z</time>
      </trkpt>
      <trkpt lat="48.02791" lon="7.1961">
        <ele>362.423268</ele>
        <time>2022-05-15T19:52:12.779Z</time>
      </trkpt>
      <trkpt lat="48.02758" lon="7.19589">
        <ele>363.352665</ele>
        <time>2022-05-15T19:52:29.454Z</time>
      </trkpt>
      <trkpt lat="48.0273" lon="7.19546">
        <ele>364.52383</ele>
        <time>2022-05-15T19:52:48.975Z</time>
      </trkpt>
      <trkpt lat="48.02629" lon="7.19486">
        <ele>367.72553</ele>
        <time>2022-05-15T19:53:41.387Z</time>
      </trkpt>
      <trkpt lat="48.02603" lon="7.19444">
        <ele>368.850578</ele>
        <time>2022-05-15T19:53:57.732Z</time>
      </trkpt>
      <trkpt lat="48.02595" lon="7.19444">
        <ele>369.054969</ele>
        <time>2022-05-15T19:54:01.325Z</time>
      </trkpt>
      <trkpt lat="48.0259" lon="7.19452">
        <ele>369.227662</ele>
        <time>2022-05-15T19:54:04.491Z</time>
      </trkpt>
      <trkpt lat="48.02585" lon="7.19455">
        <ele>369.354601</ele>
        <time>2022-05-15T19:54:06.297Z</time>
      </trkpt>
      <trkpt lat="48.02568" lon="7.19457">
        <ele>369.749506</ele>
        <time>2022-05-15T19:54:13.739Z</time>
      </trkpt>
      <trkpt lat="48.02509" lon="7.19439">
        <ele>371.184768</ele>
        <time>2022-05-15T19:54:39.222Z</time>
      </trkpt>
      <trkpt lat="48.02479" lon="7.19432">
        <ele>371.914148</ele>
        <time>2022-05-15T19:54:52.093Z</time>
      </trkpt>
      <trkpt lat="48.02481" lon="7.19416">
        <ele>372.165733</ele>
        <time>2022-05-15T19:54:57.058Z</time>
      </trkpt>
      <trkpt lat="48.02424" lon="7.19397">
        <ele>373.822678</ele>
        <time>2022-05-15T19:55:22.287Z</time>
      </trkpt>
      <trkpt lat="48.02331" lon="7.19313">
        <ele>378.105571</ele>
        <time>2022-05-15T19:56:17.554Z</time>
      </trkpt>
      <trkpt lat="48.0222" lon="7.1919">
        <ele>384.317832</ele>
        <time>2022-05-15T19:57:36.212Z</time>
      </trkpt>
      <trkpt lat="48.02179" lon="7.1911">
        <ele>387.617655</ele>
        <time>2022-05-15T19:58:15.119Z</time>
      </trkpt>
      <trkpt lat="48.0211" lon="7.19043">
        <ele>391.053127</ele>
        <time>2022-05-15T19:58:58.902Z</time>
      </trkpt>
      <trkpt lat="48.02041" lon="7.19014">
        <ele>393.818179</ele>
        <time>2022-05-15T19:59:33.770Z</time>
      </trkpt>
      <trkpt lat="48.01993" lon="7.18982">
        <ele>395.853391</ele>
        <time>2022-05-15T19:59:59.752Z</time>
      </trkpt>
      <trkpt lat="48.01967" lon="7.18979">
        <ele>397.079262</ele>
        <time>2022-05-15T20:00:13.731Z</time>
      </trkpt>
      <trkpt lat="48.0195" lon="7.1895">
        <ele>398.308452</ele>
        <time>2022-05-15T20:00:26.527Z</time>
      </trkpt>
      <trkpt lat="48.01917" lon="7.18888">
        <ele>400.808205</ele>
        <time>2022-05-15T20:00:56.070Z</time>
      </trkpt>
      <trkpt lat="48.0191" lon="7.18857">
        <ele>401.872535</ele>
        <time>2022-05-15T20:01:09.256Z</time>
      </trkpt>
      <trkpt lat="48.01901" lon="7.1884">
        <ele>402.579117</ele>
        <time>2022-05-15T20:01:18.231Z</time>
      </trkpt>
      <trkpt lat="48.01777" lon="7.18685">
        <ele>409.722712</ele>
        <time>2022-05-15T20:02:52.323Z</time>
      </trkpt>
      <trkpt lat="48.01588" lon="7.18391">
        <ele>417.720986</ele>
        <time>2022-05-15T20:04:52.066Z</time>
      </trkpt>
      <trkpt lat="48.01553" lon="7.18362">
        <ele>418.850487</ele>
        <time>2022-05-15T20:05:10.126Z</time>
      </trkpt>
      <trkpt lat="48.01523" lon="7.18361">
        <ele>419.673505</ele>
        <time>2022-05-15T20:05:23.783Z</time>
      </trkpt>
      <trkpt lat="48.01451" lon="7.18331">
        <ele>421.771082</ele>
        <time>2022-05-15T20:05:58.259Z</time>
      </trkpt>
      <trkpt lat="48.01392" lon="7.18281">
        <ele>426.229288</ele>
        <time>2022-05-15T20:06:30.768Z</time>
      </trkpt>
      <trkpt lat="48.01305" lon="7.18225">
        <ele>432.556625</ele>
        <time>2022-05-15T20:07:36.381Z</time>
      </trkpt>
      <trkpt lat="48.01284" lon="7.18199">
        <ele>434.799677</ele>
        <time>2022-05-15T20:08:01.225Z</time>
      </trkpt>
      <trkpt lat="48.01242" lon="7.18265">
        <ele>442.017829</ele>
        <time>2022-05-15T20:08:57.894Z</time>
      </trkpt>
      <trkpt lat="48.01244" lon="7.18289">
        <ele>443.986782</ele>
        <time>2022-05-15T20:09:12.778Z</time>
      </trkpt>
      <trkpt lat="48.01252" lon="7.18303">
        <ele>445.447706</ele>
        <time>2022-05-15T20:09:22.352Z</time>
      </trkpt>
      <trkpt lat="48.01264" lon="7.18343">
        <ele>448.900798</ele>
        <time>2022-05-15T20:09:50.122Z</time>
      </trkpt>
      <trkpt lat="48.01293" lon="7.18378">
        <ele>453.323888</ele>
        <time>2022-05-15T20:10:25.683Z</time>
      </trkpt>
      <trkpt lat="48.01165" lon="7.18341">
        <ele>465.978142</ele>
        <time>2022-05-15T20:12:22.799Z</time>
      </trkpt>
      <trkpt lat="48.01129" lon="7.18303">
        <ele>470.22726</ele>
        <time>2022-05-15T20:12:50.099Z</time>
      </trkpt>
      <trkpt lat="48.01106" lon="7.18293">
        <ele>472.392084</ele>
        <time>2022-05-15T20:13:03.209Z</time>
      </trkpt>
      <trkpt lat="48.01063" lon="7.18295">
        <ele>475.49493</ele>
        <time>2022-05-15T20:13:28.022Z</time>
      </trkpt>
      <trkpt lat="48.01025" lon="7.18308">
        <ele>478.332586</ele>
        <time>2022-05-15T20:13:53.110Z</time>
      </trkpt>
      <trkpt lat="48.01015" lon="7.18298">
        <ele>479.24213</ele>
        <time>2022-05-15T20:14:02.421Z</time>
      </trkpt>
      <trkpt lat="48.01012" lon="7.18282">
        <ele>480.05067</ele>
        <time>2022-05-15T20:14:09.908Z</time>
      </trkpt>
      <trkpt lat="48.01017" lon="7.18248">
        <ele>481.80283</ele>
        <time>2022-05-15T20:14:28.235Z</time>
      </trkpt>
      <trkpt lat="48.01014" lon="7.18223">
        <ele>483.043524</ele>
        <time>2022-05-15T20:14:40.241Z</time>
      </trkpt>
      <trkpt lat="48.01006" lon="7.18211">
        <ele>483.836204</ele>
        <time>2022-05-15T20:14:48.884Z</time>
      </trkpt>
      <trkpt lat="48.00958" lon="7.18177">
        <ele>488.443911</ele>
        <time>2022-05-15T20:15:28.526Z</time>
      </trkpt>
      <trkpt lat="48.00932" lon="7.18149">
        <ele>491.434697</ele>
        <time>2022-05-15T20:15:54.023Z</time>
      </trkpt>
      <trkpt lat="48.00873" lon="7.18112">
        <ele>497.472183</ele>
        <time>2022-05-15T20:16:46.754Z</time>
      </trkpt>
      <trkpt lat="48.00813" lon="7.18055">
        <ele>504.1237</ele>
        <time>2022-05-15T20:17:44.175Z</time>
      </trkpt>
      <trkpt lat="48.00795" lon="7.18044">
        <ele>505.89773</ele>
        <time>2022-05-15T20:17:58.226Z</time>
      </trkpt>
      <trkpt lat="48.00746" lon="7.18031">
        <ele>510.329013</ele>
        <time>2022-05-15T20:18:33.684Z</time>
      </trkpt>
      <trkpt lat="48.00734" lon="7.18021">
        <ele>511.610389</ele>
        <time>2022-05-15T20:18:44.533Z</time>
      </trkpt>
      <trkpt lat="48.00703" lon="7.17965">
        <ele>515.97849</ele>
        <time>2022-05-15T20:19:21.084Z</time>
      </trkpt>
      <trkpt lat="48.00664" lon="7.17925">
        <ele>520.642953</ele>
        <time>2022-05-15T20:19:58.407Z</time>
      </trkpt>
      <trkpt lat="48.00655" lon="7.17926">
        <ele>521.612535</ele>
        <time>2022-05-15T20:20:06.315Z</time>
      </trkpt>
      <trkpt lat="48.00638" lon="7.1792">
        <ele>523.629444</ele>
        <time>2022-05-15T20:20:21.395Z</time>
      </trkpt>
      <trkpt lat="48.00464" lon="7.17987">
        <ele>541.046903</ele>
        <time>2022-05-15T20:23:05.123Z</time>
      </trkpt>
      <trkpt lat="48.00418" lon="7.18012">
        <ele>543.802084</ele>
        <time>2022-05-15T20:23:37.989Z</time>
      </trkpt>
      <trkpt lat="48.00396" lon="7.18009">
        <ele>545.054693</ele>
        <time>2022-05-15T20:23:50.472Z</time>
      </trkpt>
      <trkpt lat="48.00394" lon="7.17979">
        <ele>546.173547</ele>
        <time>2022-05-15T20:23:59.462Z</time>
      </trkpt>
      <trkpt lat="48.00407" lon="7.17925">
        <ele>548.352797</ele>
        <time>2022-05-15T20:24:13.053Z</time>
      </trkpt>
      <trkpt lat="48.00423" lon="7.17898">
        <ele>548.145871</ele>
        <time>2022-05-15T20:24:19.570Z</time>
      </trkpt>
      <trkpt lat="48.00472" lon="7.17839">
        <ele>546.7253</ele>
        <time>2022-05-15T20:24:36.117Z</time>
      </trkpt>
      <trkpt lat="48.00513" lon="7.17765">
        <ele>545.292757</ele>
        <time>2022-05-15T20:24:52.402Z</time>
      </trkpt>
      <trkpt lat="48.00514" lon="7.17724">
        <ele>544.686772</ele>
        <time>2022-05-15T20:24:59.469Z</time>
      </trkpt>
      <trkpt lat="48.00503" lon="7.17691">
        <ele>544.723442</ele>
        <time>2022-05-15T20:25:06.345Z</time>
      </trkpt>
      <trkpt lat="48.00472" lon="7.17662">
        <ele>545.055155</ele>
        <time>2022-05-15T20:25:17.237Z</time>
      </trkpt>
      <trkpt lat="48.00446" lon="7.17654">
        <ele>545.299198</ele>
        <time>2022-05-15T20:25:26.070Z</time>
      </trkpt>
      <trkpt lat="48.00341" lon="7.1765">
        <ele>546.438152</ele>
        <time>2022-05-15T20:26:12.769Z</time>
      </trkpt>
      <trkpt lat="48.00284" lon="7.17658">
        <ele>548.354249</ele>
        <time>2022-05-15T20:26:40.569Z</time>
      </trkpt>
      <trkpt lat="48.00235" lon="7.1764">
        <ele>550.063806</ele>
        <time>2022-05-15T20:27:05.268Z</time>
      </trkpt>
      <trkpt lat="48.00162" lon="7.17635">
        <ele>552.554837</ele>
        <time>2022-05-15T20:27:40.796Z</time>
      </trkpt>
      <trkpt lat="48.00128" lon="7.17622">
        <ele>553.882851</ele>
        <time>2022-05-15T20:27:58.593Z</time>
      </trkpt>
      <trkpt lat="48.00109" lon="7.17604">
        <ele>554.734948</ele>
        <time>2022-05-15T20:28:12.295Z</time>
      </trkpt>
      <trkpt lat="48.00105" lon="7.17594">
        <ele>555.016165</ele>
        <time>2022-05-15T20:28:16.007Z</time>
      </trkpt>
      <trkpt lat="48.00109" lon="7.17573">
        <ele>555.576199</ele>
        <time>2022-05-15T20:28:25.448Z</time>
      </trkpt>
      <trkpt lat="48.00169" lon="7.17455">
        <ele>559.14025</ele>
        <time>2022-05-15T20:29:13.133Z</time>
      </trkpt>
      <trkpt lat="48.00166" lon="7.17441">
        <ele>559.260169</ele>
        <time>2022-05-15T20:29:19.621Z</time>
      </trkpt>
      <trkpt lat="48.00187" lon="7.17283">
        <ele>560.633187</ele>
        <time>2022-05-15T20:30:01.252Z</time>
      </trkpt>
      <trkpt lat="48.00193" lon="7.17273">
        <ele>560.743855</ele>
        <time>2022-05-15T20:30:03.425Z</time>
      </trkpt>
      <trkpt lat="48.00255" lon="7.17227">
        <ele>561.589071</ele>
        <time>2022-05-15T20:30:25.800Z</time>
      </trkpt>
      <trkpt lat="48.00267" lon="7.17182">
        <ele>561.956585</ele>
        <time>2022-05-15T20:30:36.741Z</time>
      </trkpt>
      <trkpt lat="48.00272" lon="7.17137">
        <ele>562.299701</ele>
        <time>2022-05-15T20:30:47.537Z</time>
      </trkpt>
      <trkpt lat="48.0027" lon="7.1711">
        <ele>562.504183</ele>
        <time>2022-05-15T20:30:53.948Z</time>
      </trkpt>
      <trkpt lat="48.00264" lon="7.17101">
        <ele>562.59903</ele>
        <time>2022-05-15T20:30:56.901Z</time>
      </trkpt>
      <trkpt lat="48.00238" lon="7.17058">
        <ele>563.041232</ele>
        <time>2022-05-15T20:31:15.490Z</time>
      </trkpt>
      <trkpt lat="48.00173" lon="7.16977">
        <ele>561.849833</ele>
        <time>2022-05-15T20:31:49.927Z</time>
      </trkpt>
      <trkpt lat="48.00157" lon="7.16938">
        <ele>561.022313</ele>
        <time>2022-05-15T20:31:59.158Z</time>
      </trkpt>
      <trkpt lat="48.0013" lon="7.16896">
        <ele>559.976762</ele>
        <time>2022-05-15T20:32:09.822Z</time>
      </trkpt>
      <trkpt lat="48.00069" lon="7.16611">
        <ele>547.455409</ele>
        <time>2022-05-15T20:32:53.611Z</time>
      </trkpt>
      <trkpt lat="48.00018" lon="7.16447">
        <ele>545.746235</ele>
        <time>2022-05-15T20:33:24.150Z</time>
      </trkpt>
      <trkpt lat="48.00012" lon="7.16435">
        <ele>545.842877</ele>
        <time>2022-05-15T20:33:25.906Z</time>
      </trkpt>
      <trkpt lat="47.99959" lon="7.16442">
        <ele>546.353518</ele>
        <time>2022-05-15T20:33:45.500Z</time>
      </trkpt>
      <trkpt lat="47.9994" lon="7.16451">
        <ele>546.547245</ele>
        <time>2022-05-15T20:33:55.576Z</time>
      </trkpt>
      <trkpt lat="47.99933" lon="7.16458">
        <ele>546.626137</ele>
        <time>2022-05-15T20:34:01.201Z</time>
      </trkpt>
      <trkpt lat="47.99923" lon="7.16468">
        <ele>548.054647</ele>
        <time>2022-05-15T20:34:12.711Z</time>
      </trkpt>
      <trkpt lat="47.99831" lon="7.16491">
        <ele>559.938453</ele>
        <time>2022-05-15T20:35:48.519Z</time>
      </trkpt>
      <trkpt lat="47.9974" lon="7.16544">
        <ele>572.021419</ele>
        <time>2022-05-15T20:37:26.650Z</time>
      </trkpt>
      <trkpt lat="47.99697" lon="7.16562">
        <ele>577.142702</ele>
        <time>2022-05-15T20:38:08.731Z</time>
      </trkpt>
      <trkpt lat="47.99618" lon="7.16543">
        <ele>586.446186</ele>
        <time>2022-05-15T20:39:22.061Z</time>
      </trkpt>
      <trkpt lat="47.9958" lon="7.16549">
        <ele>590.678427</ele>
        <time>2022-05-15T20:39:50.930Z</time>
      </trkpt>
      <trkpt lat="47.99566" lon="7.16536">
        <ele>592.292915</ele>
        <time>2022-05-15T20:40:03.361Z</time>
      </trkpt>
      <trkpt lat="47.99553" lon="7.16512">
        <ele>594.298522</ele>
        <time>2022-05-15T20:40:17.096Z</time>
      </trkpt>
      <trkpt lat="47.99494" lon="7.16453">
        <ele>601.002664</ele>
        <time>2022-05-15T20:41:07.992Z</time>
      </trkpt>
      <trkpt lat="47.99485" lon="7.16449">
        <ele>601.934997</ele>
        <time>2022-05-15T20:41:16.659Z</time>
      </trkpt>
      <trkpt lat="47.99454" lon="7.16465">
        <ele>605.04507</ele>
        <time>2022-05-15T20:41:44.562Z</time>
      </trkpt>
      <trkpt lat="47.99442" lon="7.16462">
        <ele>606.236126</ele>
        <time>2022-05-15T20:41:55.627Z</time>
      </trkpt>
      <trkpt lat="47.9942" lon="7.16413">
        <ele>610.803559</ele>
        <time>2022-05-15T20:42:32.464Z</time>
      </trkpt>
      <trkpt lat="47.99382" lon="7.1637">
        <ele>616.682609</ele>
        <time>2022-05-15T20:43:15.963Z</time>
      </trkpt>
      <trkpt lat="47.99313" lon="7.16307">
        <ele>626.71997</ele>
        <time>2022-05-15T20:44:33.779Z</time>
      </trkpt>
      <trkpt lat="47.99297" lon="7.16304">
        <ele>628.688409</ele>
        <time>2022-05-15T20:44:49.680Z</time>
      </trkpt>
      <trkpt lat="47.99254" lon="7.16321">
        <ele>635.048657</ele>
        <time>2022-05-15T20:45:31.274Z</time>
      </trkpt>
      <trkpt lat="47.99206" lon="7.16258">
        <ele>644.45131</ele>
        <time>2022-05-15T20:46:34.375Z</time>
      </trkpt>
      <trkpt lat="47.99105" lon="7.16206">
        <ele>661.095673</ele>
        <time>2022-05-15T20:48:35.359Z</time>
      </trkpt>
      <trkpt lat="47.99096" lon="7.16215">
        <ele>663.038378</ele>
        <time>2022-05-15T20:48:51.108Z</time>
      </trkpt>
      <trkpt lat="47.99087" lon="7.1621">
        <ele>664.905873</ele>
        <time>2022-05-15T20:49:02.404Z</time>
      </trkpt>
      <trkpt lat="47.98996" lon="7.16155">
        <ele>682.665895</ele>
        <time>2022-05-15T20:51:06.525Z</time>
      </trkpt>
      <trkpt lat="47.98951" lon="7.16114">
        <ele>691.733727</ele>
        <time>2022-05-15T20:52:12.570Z</time>
      </trkpt>
      <trkpt lat="47.98888" lon="7.16042">
        <ele>703.839448</ele>
        <time>2022-05-15T20:53:39.691Z</time>
      </trkpt>
      <trkpt lat="47.98817" lon="7.15932">
        <ele>719.103544</ele>
        <time>2022-05-15T20:55:22.845Z</time>
      </trkpt>
      <trkpt lat="47.98741" lon="7.15835">
        <ele>732.475595</ele>
        <time>2022-05-15T20:57:02.784Z</time>
      </trkpt>
      <trkpt lat="47.98663" lon="7.15778">
        <ele>744.051536</ele>
        <time>2022-05-15T20:58:26.665Z</time>
      </trkpt>
      <trkpt lat="47.9863" lon="7.15743">
        <ele>749.363997</ele>
        <time>2022-05-15T20:59:05.183Z</time>
      </trkpt>
      <trkpt lat="47.98571" lon="7.15632">
        <ele>761.87315</ele>
        <time>2022-05-15T21:00:36.996Z</time>
      </trkpt>
      <trkpt lat="47.98435" lon="7.15522">
        <ele>784.146362</ele>
        <time>2022-05-15T21:03:18.906Z</time>
      </trkpt>
      <trkpt lat="47.98319" lon="7.15457">
        <ele>800.895385</ele>
        <time>2022-05-15T21:05:31.511Z</time>
      </trkpt>
      <trkpt lat="47.98284" lon="7.15428">
        <ele>806.08266</ele>
        <time>2022-05-15T21:06:07.776Z</time>
      </trkpt>
      <trkpt lat="47.98269" lon="7.15426">
        <ele>808.076751</ele>
        <time>2022-05-15T21:06:22.581Z</time>
      </trkpt>
      <trkpt lat="47.98255" lon="7.15417">
        <ele>810.08141</ele>
        <time>2022-05-15T21:06:36.856Z</time>
      </trkpt>
      <trkpt lat="47.98165" lon="7.15318">
        <ele>821.565223</ele>
        <time>2022-05-15T21:08:10.324Z</time>
      </trkpt>
      <trkpt lat="47.98133" lon="7.15294">
        <ele>824.943469</ele>
        <time>2022-05-15T21:08:38.360Z</time>
      </trkpt>
      <trkpt lat="47.98056" lon="7.15254">
        <ele>832.112578</ele>
        <time>2022-05-15T21:09:36.831Z</time>
      </trkpt>
      <trkpt lat="47.98001" lon="7.15217">
        <ele>836.479659</ele>
        <time>2022-05-15T21:10:17.897Z</time>
      </trkpt>
      <trkpt lat="47.97954" lon="7.15198">
        <ele>840.012538</ele>
        <time>2022-05-15T21:10:48.371Z</time>
      </trkpt>
      <trkpt lat="47.9792" lon="7.15182">
        <ele>842.594431</ele>
        <time>2022-05-15T21:11:11.716Z</time>
      </trkpt>
      <trkpt lat="47.97864" lon="7.15169">
        <ele>847.498831</ele>
        <time>2022-05-15T21:11:51.986Z</time>
      </trkpt>
      <trkpt lat="47.97823" lon="7.15141">
        <ele>851.61274</ele>
        <time>2022-05-15T21:12:27.308Z</time>
      </trkpt>
      <trkpt lat="47.97803" lon="7.15113">
        <ele>854.077391</ele>
        <time>2022-05-15T21:12:48.407Z</time>
      </trkpt>
      <trkpt lat="47.9778" lon="7.15067">
        <ele>857.625054</ele>
        <time>2022-05-15T21:13:20.352Z</time>
      </trkpt>
      <trkpt lat="47.97696" lon="7.1485">
        <ele>871.65466</ele>
        <time>2022-05-15T21:15:40.371Z</time>
      </trkpt>
      <trkpt lat="47.9768" lon="7.14829">
        <ele>873.437147</ele>
        <time>2022-05-15T21:15:51.129Z</time>
      </trkpt>
      <trkpt lat="47.97635" lon="7.14801">
        <ele>874.486041</ele>
        <time>2022-05-15T21:16:12.153Z</time>
      </trkpt>
      <trkpt lat="47.97619" lon="7.14769">
        <ele>874.255304</ele>
        <time>2022-05-15T21:16:20.685Z</time>
      </trkpt>
      <trkpt lat="47.97557" lon="7.14674">
        <ele>873.498548</ele>
        <time>2022-05-15T21:16:44.615Z</time>
      </trkpt>
      <trkpt lat="47.97543" lon="7.14639">
        <ele>873.264446</ele>
        <time>2022-05-15T21:16:51.561Z</time>
      </trkpt>
      <trkpt lat="47.97519" lon="7.14528">
        <ele>874.165668</ele>
        <time>2022-05-15T21:17:11.600Z</time>
      </trkpt>
      <trkpt lat="47.97462" lon="7.14495">
        <ele>874.951117</ele>
        <time>2022-05-15T21:17:34.962Z</time>
      </trkpt>
      <trkpt lat="47.97367" lon="7.1434">
        <ele>884.33585</ele>
        <time>2022-05-15T21:19:15.389Z</time>
      </trkpt>
      <trkpt lat="47.97364" lon="7.14306">
        <ele>886.459894</ele>
        <time>2022-05-15T21:19:36.263Z</time>
      </trkpt>
      <trkpt lat="47.97371" lon="7.14265">
        <ele>889.075959</ele>
        <time>2022-05-15T21:20:01.149Z</time>
      </trkpt>
      <trkpt lat="47.97417" lon="7.14174">
        <ele>896.693397</ele>
        <time>2022-05-15T21:21:06.395Z</time>
      </trkpt>
      <trkpt lat="47.97424" lon="7.14147">
        <ele>898.692829</ele>
        <time>2022-05-15T21:21:22.971Z</time>
      </trkpt>
      <trkpt lat="47.97427" lon="7.14091">
        <ele>902.646299</ele>
        <time>2022-05-15T21:21:56.370Z</time>
      </trkpt>
      <trkpt lat="47.9742" lon="7.14067">
        <ele>904.500984</ele>
        <time>2022-05-15T21:22:11.098Z</time>
      </trkpt>
      <trkpt lat="47.97391" lon="7.14053">
        <ele>907.680908</ele>
        <time>2022-05-15T21:22:36.527Z</time>
      </trkpt>
      <trkpt lat="47.97259" lon="7.14026">
        <ele>921.179127</ele>
        <time>2022-05-15T21:24:21.931Z</time>
      </trkpt>
      <trkpt lat="47.97249" lon="7.14006">
        <ele>922.799457</ele>
        <time>2022-05-15T21:24:36.803Z</time>
      </trkpt>
      <trkpt lat="47.97246" lon="7.13968">
        <ele>925.343279</ele>
        <time>2022-05-15T21:24:59.117Z</time>
      </trkpt>
      <trkpt lat="47.97235" lon="7.13952">
        <ele>926.821462</ele>
        <time>2022-05-15T21:25:12.516Z</time>
      </trkpt>
      <trkpt lat="47.97158" lon="7.13948">
        <ele>933.225432</ele>
        <time>2022-05-15T21:26:14.603Z</time>
      </trkpt>
      <trkpt lat="47.97109" lon="7.1393">
        <ele>937.107811</ele>
        <time>2022-05-15T21:26:49.213Z</time>
      </trkpt>
      <trkpt lat="47.9706" lon="7.1393">
        <ele>940.88848</ele>
        <time>2022-05-15T21:27:19.082Z</time>
      </trkpt>
      <trkpt lat="47.97015" lon="7.13951">
        <ele>944.132172</ele>
        <time>2022-05-15T21:27:48.483Z</time>
      </trkpt>
      <trkpt lat="47.96976" lon="7.13983">
        <ele>946.814555</ele>
        <time>2022-05-15T21:28:17.206Z</time>
      </trkpt>
      <trkpt lat="47.96933" lon="7.1395">
        <ele>949.74313</ele>
        <time>2022-05-15T21:28:44.827Z</time>
      </trkpt>
      <trkpt lat="47.96909" lon="7.13917">
        <ele>951.737739</ele>
        <time>2022-05-15T21:29:03.803Z</time>
      </trkpt>
      <trkpt lat="47.96882" lon="7.13863">
        <ele>954.985675</ele>
        <time>2022-05-15T21:29:32.845Z</time>
      </trkpt>
      <trkpt lat="47.96867" lon="7.13791">
        <ele>959.762919</ele>
        <time>2022-05-15T21:30:09.605Z</time>
      </trkpt>
      <trkpt lat="47.96864" lon="7.13746">
        <ele>962.676264</ele>
        <time>2022-05-15T21:30:34.899Z</time>
      </trkpt>
      <trkpt lat="47.96866" lon="7.13642">
        <ele>969.301437</ele>
        <time>2022-05-15T21:31:36.019Z</time>
      </trkpt>
      <trkpt lat="47.96846" lon="7.13492">
        <ele>979.60189</ele>
        <time>2022-05-15T21:33:04.495Z</time>
      </trkpt>
      <trkpt lat="47.96831" lon="7.13415">
        <ele>985.058294</ele>
        <time>2022-05-15T21:33:49.586Z</time>
      </trkpt>
      <trkpt lat="47.96824" lon="7.13395">
        <ele>986.604241</ele>
        <time>2022-05-15T21:34:01.997Z</time>
      </trkpt>
      <trkpt lat="47.96803" lon="7.13369">
        <ele>989.170939</ele>
        <time>2022-05-15T21:34:23.544Z</time>
      </trkpt>
      <trkpt lat="47.96744" lon="7.1333">
        <ele>991.08776</ele>
        <time>2022-05-15T21:35:07.273Z</time>
      </trkpt>
      <trkpt lat="47.96707" lon="7.13315">
        <ele>992.197687</ele>
        <time>2022-05-15T21:35:25.100Z</time>
      </trkpt>
      <trkpt lat="47.96637" lon="7.13298">
        <ele>994.309803</ele>
        <time>2022-05-15T21:35:46.922Z</time>
      </trkpt>
      <trkpt lat="47.96626" lon="7.13284">
        <ele>993.603043</ele>
        <time>2022-05-15T21:35:50.388Z</time>
      </trkpt>
      <trkpt lat="47.9662" lon="7.13255">
        <ele>992.110942</ele>
        <time>2022-05-15T21:35:55.773Z</time>
      </trkpt>
      <trkpt lat="47.96617" lon="7.13152">
        <ele>987.081057</ele>
        <time>2022-05-15T21:36:11.740Z</time>
      </trkpt>
      <trkpt lat="47.96664" lon="7.1297">
        <ele>976.650995</ele>
        <time>2022-05-15T21:36:39.391Z</time>
      </trkpt>
      <trkpt lat="47.96681" lon="7.12938">
        <ele>974.124567</ele>
        <time>2022-05-15T21:36:45.246Z</time>
      </trkpt>
      <trkpt lat="47.96767" lon="7.12821">
        <ele>965.115594</ele>
        <time>2022-05-15T21:37:10.568Z</time>
      </trkpt>
      <trkpt lat="47.96796" lon="7.1277">
        <ele>965.824064</ele>
        <time>2022-05-15T21:37:23.370Z</time>
      </trkpt>
      <trkpt lat="47.96829" lon="7.12786">
        <ele>966.376019</ele>
        <time>2022-05-15T21:37:38.217Z</time>
      </trkpt>
      <trkpt lat="47.96836" lon="7.12784">
        <ele>966.494181</ele>
        <time>2022-05-15T21:37:42.768Z</time>
      </trkpt>
      <trkpt lat="47.96823" lon="7.12764">
        <ele>966.793504</ele>
        <time>2022-05-15T21:37:49.720Z</time>
      </trkpt>
      <trkpt lat="47.96836" lon="7.12784">
        <ele>967.092827</ele>
        <time>2022-05-15T21:38:03.096Z</time>
      </trkpt>
      <trkpt lat="47.96917" lon="7.12889">
        <ele>971.561229</ele>
        <time>2022-05-15T21:39:17.782Z</time>
      </trkpt>
      <trkpt lat="47.9694" lon="7.12908">
        <ele>973.122976</ele>
        <time>2022-05-15T21:39:35.111Z</time>
      </trkpt>
      <trkpt lat="47.96989" lon="7.12924">
        <ele>975.999673</ele>
        <time>2022-05-15T21:40:08.008Z</time>
      </trkpt>
      <trkpt lat="47.97039" lon="7.12925">
        <ele>978.258574</ele>
        <time>2022-05-15T21:40:31.516Z</time>
      </trkpt>
      <trkpt lat="47.97089" lon="7.12915">
        <ele>978.792834</ele>
        <time>2022-05-15T21:40:47.517Z</time>
      </trkpt>
      <trkpt lat="47.97097" lon="7.12904">
        <ele>978.907662</ele>
        <time>2022-05-15T21:40:51.342Z</time>
      </trkpt>
      <trkpt lat="47.97098" lon="7.12892">
        <ele>978.991407</ele>
        <time>2022-05-15T21:40:53.903Z</time>
      </trkpt>
      <trkpt lat="47.97094" lon="7.12883">
        <ele>979.068229</ele>
        <time>2022-05-15T21:40:55.961Z</time>
      </trkpt>
      <trkpt lat="47.97024" lon="7.12825">
        <ele>979.913161</ele>
        <time>2022-05-15T21:41:21.376Z</time>
      </trkpt>
      <trkpt lat="47.97011" lon="7.12787">
        <ele>981.179052</ele>
        <time>2022-05-15T21:41:31.650Z</time>
      </trkpt>
      <trkpt lat="47.97008" lon="7.12756">
        <ele>982.46907</ele>
        <time>2022-05-15T21:41:41.987Z</time>
      </trkpt>
      <trkpt lat="47.97025" lon="7.12671">
        <ele>986.111609</ele>
        <time>2022-05-15T21:42:17.449Z</time>
      </trkpt>
      <trkpt lat="47.97066" lon="7.12544">
        <ele>992.538357</ele>
        <time>2022-05-15T21:43:29.747Z</time>
      </trkpt>
      <trkpt lat="47.97091" lon="7.12494">
        <ele>997.012495</ele>
        <time>2022-05-15T21:44:04.889Z</time>
      </trkpt>
      <trkpt lat="47.97192" lon="7.12306">
        <ele>1013.11623</ele>
        <time>2022-05-15T21:46:29.342Z</time>
      </trkpt>
      <trkpt lat="47.97225" lon="7.12252">
        <ele>1016.689882</ele>
        <time>2022-05-15T21:47:05.980Z</time>
      </trkpt>
      <trkpt lat="47.97258" lon="7.12212">
        <ele>1019.767241</ele>
        <time>2022-05-15T21:47:34.107Z</time>
      </trkpt>
      <trkpt lat="47.97259" lon="7.12196">
        <ele>1020.546157</ele>
        <time>2022-05-15T21:47:39.283Z</time>
      </trkpt>
      <trkpt lat="47.97285" lon="7.1214">
        <ele>1023.427706</ele>
        <time>2022-05-15T21:48:03.319Z</time>
      </trkpt>
      <trkpt lat="47.97293" lon="7.12105">
        <ele>1023.157907</ele>
        <time>2022-05-15T21:48:14.471Z</time>
      </trkpt>
      <trkpt lat="47.97299" lon="7.1201">
        <ele>1022.469746</ele>
        <time>2022-05-15T21:48:35.734Z</time>
      </trkpt>
      <trkpt lat="47.9728" lon="7.11967">
        <ele>1022.092108</ele>
        <time>2022-05-15T21:48:44.456Z</time>
      </trkpt>
      <trkpt lat="47.9723" lon="7.11772">
        <ele>1017.805405</ele>
        <time>2022-05-15T21:49:18.793Z</time>
      </trkpt>
      <trkpt lat="47.97195" lon="7.11685">
        <ele>1014.934633</ele>
        <time>2022-05-15T21:49:35.392Z</time>
      </trkpt>
      <trkpt lat="47.97129" lon="7.11568">
        <ele>1010.780438</ele>
        <time>2022-05-15T21:50:01.506Z</time>
      </trkpt>
      <trkpt lat="47.9709" lon="7.11465">
        <ele>1007.589661</ele>
        <time>2022-05-15T21:50:21.549Z</time>
      </trkpt>
      <trkpt lat="47.9708" lon="7.11463">
        <ele>1007.213787</ele>
        <time>2022-05-15T21:50:23.845Z</time>
      </trkpt>
      <trkpt lat="47.97048" lon="7.11488">
        <ele>1005.120974</ele>
        <time>2022-05-15T21:50:32.641Z</time>
      </trkpt>
      <trkpt lat="47.97023" lon="7.11494">
        <ele>1003.419239</ele>
        <time>2022-05-15T21:50:38.754Z</time>
      </trkpt>
      <trkpt lat="47.96858" lon="7.1151">
        <ele>990.96031</ele>
        <time>2022-05-15T21:51:16.326Z</time>
      </trkpt>
      <trkpt lat="47.96802" lon="7.11509">
        <ele>984.874954</ele>
        <time>2022-05-15T21:51:28.168Z</time>
      </trkpt>
      <trkpt lat="47.96776" lon="7.1153">
        <ele>981.643663</ele>
        <time>2022-05-15T21:51:34.397Z</time>
      </trkpt>
      <trkpt lat="47.96746" lon="7.11544">
        <ele>978.241389</ele>
        <time>2022-05-15T21:51:40.891Z</time>
      </trkpt>
      <trkpt lat="47.9673" lon="7.11544">
        <ele>976.474257</ele>
        <time>2022-05-15T21:51:44.180Z</time>
      </trkpt>
      <trkpt lat="47.96602" lon="7.11463">
        <ele>958.943981</ele>
        <time>2022-05-15T21:52:12.619Z</time>
      </trkpt>
      <trkpt lat="47.96581" lon="7.11459">
        <ele>956.170141</ele>
        <time>2022-05-15T21:52:17.123Z</time>
      </trkpt>
      <trkpt lat="47.96553" lon="7.11467">
        <ele>952.61831</ele>
        <time>2022-05-15T21:52:22.963Z</time>
      </trkpt>
      <trkpt lat="47.96499" lon="7.11441">
        <ele>948.609055</ele>
        <time>2022-05-15T21:52:35.492Z</time>
      </trkpt>
      <trkpt lat="47.96476" lon="7.11421">
        <ele>946.83148</ele>
        <time>2022-05-15T21:52:41.619Z</time>
      </trkpt>
      <trkpt lat="47.96461" lon="7.11387">
        <ele>945.012794</ele>
        <time>2022-05-15T21:52:48.043Z</time>
      </trkpt>
      <trkpt lat="47.96453" lon="7.11351">
        <ele>943.339539</ele>
        <time>2022-05-15T21:52:54.033Z</time>
      </trkpt>
      <trkpt lat="47.9645" lon="7.11268">
        <ele>939.509802</ele>
        <time>2022-05-15T21:53:08.417Z</time>
      </trkpt>
      <trkpt lat="47.96459" lon="7.11213">
        <ele>936.559037</ele>
        <time>2022-05-15T21:53:17.772Z</time>
      </trkpt>
      <trkpt lat="47.96496" lon="7.11074">
        <ele>928.819614</ele>
        <time>2022-05-15T21:53:40.181Z</time>
      </trkpt>
      <trkpt lat="47.96509" lon="7.11015">
        <ele>925.239499</ele>
        <time>2022-05-15T21:53:48.837Z</time>
      </trkpt>
      <trkpt lat="47.96518" lon="7.10947">
        <ele>919.630134</ele>
        <time>2022-05-15T21:53:58.471Z</time>
      </trkpt>
      <trkpt lat="47.96535" lon="7.10841">
        <ele>910.880786</ele>
        <time>2022-05-15T21:54:13.448Z</time>
      </trkpt>
      <trkpt lat="47.9653" lon="7.10808">
        <ele>908.148525</ele>
        <time>2022-05-15T21:54:18.129Z</time>
      </trkpt>
      <trkpt lat="47.96502" lon="7.10714">
        <ele>902.18284</ele>
        <time>2022-05-15T21:54:33.004Z</time>
      </trkpt>
      <trkpt lat="47.96506" lon="7.10627">
        <ele>898.523063</ele>
        <time>2022-05-15T21:54:41.063Z</time>
      </trkpt>
      <trkpt lat="47.96496" lon="7.10539">
        <ele>894.803589</ele>
        <time>2022-05-15T21:54:49.472Z</time>
      </trkpt>
      <trkpt lat="47.96503" lon="7.10465">
        <ele>890.723199</ele>
        <time>2022-05-15T21:54:57.871Z</time>
      </trkpt>
      <trkpt lat="47.9649" lon="7.10419">
        <ele>887.564795</ele>
        <time>2022-05-15T21:55:06.366Z</time>
      </trkpt>
      <trkpt lat="47.96472" lon="7.10385">
        <ele>884.849112</ele>
        <time>2022-05-15T21:55:13.015Z</time>
      </trkpt>
      <trkpt lat="47.96428" lon="7.10331">
        <ele>879.498517</ele>
        <time>2022-05-15T21:55:24.799Z</time>
      </trkpt>
      <trkpt lat="47.96417" lon="7.10326">
        <ele>878.396705</ele>
        <time>2022-05-15T21:55:27.109Z</time>
      </trkpt>
      <trkpt lat="47.96398" lon="7.10328">
        <ele>876.547772</ele>
        <time>2022-05-15T21:55:30.998Z</time>
      </trkpt>
      <trkpt lat="47.96341" lon="7.10356">
        <ele>865.328278</ele>
        <time>2022-05-15T21:55:42.776Z</time>
      </trkpt>
      <trkpt lat="47.96326" lon="7.10361">
        <ele>862.474964</ele>
        <time>2022-05-15T21:55:45.786Z</time>
      </trkpt>
      <trkpt lat="47.96297" lon="7.10382">
        <ele>856.302691</ele>
        <time>2022-05-15T21:55:52.210Z</time>
      </trkpt>
      <trkpt lat="47.96258" lon="7.1043">
        <ele>846.795225</ele>
        <time>2022-05-15T21:56:01.927Z</time>
      </trkpt>
      <trkpt lat="47.96245" lon="7.10462">
        <ele>842.258612</ele>
        <time>2022-05-15T21:56:06.826Z</time>
      </trkpt>
      <trkpt lat="47.96229" lon="7.10485">
        <ele>841.039145</ele>
        <time>2022-05-15T21:56:11.530Z</time>
      </trkpt>
      <trkpt lat="47.96224" lon="7.10502">
        <ele>840.350048</ele>
        <time>2022-05-15T21:56:13.955Z</time>
      </trkpt>
      <trkpt lat="47.96226" lon="7.10541">
        <ele>838.913658</ele>
        <time>2022-05-15T21:56:19.543Z</time>
      </trkpt>
      <trkpt lat="47.96216" lon="7.10552">
        <ele>838.227639</ele>
        <time>2022-05-15T21:56:21.966Z</time>
      </trkpt>
      <trkpt lat="47.96185" lon="7.10536">
        <ele>836.424566</ele>
        <time>2022-05-15T21:56:36.239Z</time>
      </trkpt>
      <trkpt lat="47.96184" lon="7.1054">
        <ele>836.272099</ele>
        <time>2022-05-15T21:56:36.844Z</time>
      </trkpt>
      <trkpt lat="47.96185" lon="7.10536">
        <ele>836.119632</ele>
        <time>2022-05-15T21:56:41.469Z</time>
      </trkpt>
      <trkpt lat="47.96169" lon="7.10407">
        <ele>834.034454</ele>
        <time>2022-05-15T21:57:22.953Z</time>
      </trkpt>
      <trkpt lat="47.96145" lon="7.10339">
        <ele>837.906795</ele>
        <time>2022-05-15T21:57:53.340Z</time>
      </trkpt>
      <trkpt lat="47.96131" lon="7.10276">
        <ele>841.324953</ele>
        <time>2022-05-15T21:58:36.046Z</time>
      </trkpt>
      <trkpt lat="47.9609" lon="7.10207">
        <ele>846.024817</ele>
        <time>2022-05-15T21:59:25.630Z</time>
      </trkpt>
      <trkpt lat="47.96051" lon="7.10235">
        <ele>847.452907</ele>
        <time>2022-05-15T21:59:51.206Z</time>
      </trkpt>
      <trkpt lat="47.95998" lon="7.10316">
        <ele>849.815408</ele>
        <time>2022-05-15T22:00:26.635Z</time>
      </trkpt>
      <trkpt lat="47.95966" lon="7.10377">
        <ele>851.439135</ele>
        <time>2022-05-15T22:00:44.555Z</time>
      </trkpt>
      <trkpt lat="47.95906" lon="7.10434">
        <ele>850.642222</ele>
        <time>2022-05-15T22:01:06.216Z</time>
      </trkpt>
      <trkpt lat="47.95846" lon="7.10507">
        <ele>849.198729</ele>
        <time>2022-05-15T22:01:26.362Z</time>
      </trkpt>
      <trkpt lat="47.95799" lon="7.1053">
        <ele>848.371483</ele>
        <time>2022-05-15T22:01:39.420Z</time>
      </trkpt>
      <trkpt lat="47.95775" lon="7.10552">
        <ele>848.178447</ele>
        <time>2022-05-15T22:01:46.854Z</time>
      </trkpt>
      <trkpt lat="47.95719" lon="7.10642">
        <ele>847.631636</ele>
        <time>2022-05-15T22:02:10.072Z</time>
      </trkpt>
      <trkpt lat="47.95679" lon="7.10691">
        <ele>847.282273</ele>
        <time>2022-05-15T22:02:26.046Z</time>
      </trkpt>
      <trkpt lat="47.956" lon="7.10738">
        <ele>852.076092</ele>
        <time>2022-05-15T22:03:10.909Z</time>
      </trkpt>
      <trkpt lat="47.9548" lon="7.10846">
        <ele>861.634676</ele>
        <time>2022-05-15T22:04:59.249Z</time>
      </trkpt>
      <trkpt lat="47.9542" lon="7.10924">
        <ele>867.598421</ele>
        <time>2022-05-15T22:05:59.135Z</time>
      </trkpt>
      <trkpt lat="47.95345" lon="7.10992">
        <ele>872.711147</ele>
        <time>2022-05-15T22:06:53.754Z</time>
      </trkpt>
      <trkpt lat="47.95281" lon="7.11072">
        <ele>873.528905</ele>
        <time>2022-05-15T22:07:27.146Z</time>
      </trkpt>
      <trkpt lat="47.95271" lon="7.11088">
        <ele>873.67289</ele>
        <time>2022-05-15T22:07:31.221Z</time>
      </trkpt>
      <trkpt lat="47.95253" lon="7.11116">
        <ele>873.926346</ele>
        <time>2022-05-15T22:07:38.466Z</time>
      </trkpt>
      <trkpt lat="47.95225" lon="7.11194">
        <ele>873.628623</ele>
        <time>2022-05-15T22:07:54.429Z</time>
      </trkpt>
      <trkpt lat="47.95187" lon="7.11255">
        <ele>872.267678</ele>
        <time>2022-05-15T22:08:09.000Z</time>
      </trkpt>
      <trkpt lat="47.95157" lon="7.11283">
        <ele>871.406435</ele>
        <time>2022-05-15T22:08:18.199Z</time>
      </trkpt>
      <trkpt lat="47.95136" lon="7.11282">
        <ele>870.887637</ele>
        <time>2022-05-15T22:08:23.836Z</time>
      </trkpt>
      <trkpt lat="47.95128" lon="7.11273">
        <ele>870.645814</ele>
        <time>2022-05-15T22:08:26.363Z</time>
      </trkpt>
      <trkpt lat="47.95115" lon="7.11249">
        <ele>870.153571</ele>
        <time>2022-05-15T22:08:31.769Z</time>
      </trkpt>
      <trkpt lat="47.95084" lon="7.1115">
        <ele>869.947118</ele>
        <time>2022-05-15T22:08:52.735Z</time>
      </trkpt>
      <trkpt lat="47.95073" lon="7.11102">
        <ele>869.986997</ele>
        <time>2022-05-15T22:09:06.602Z</time>
      </trkpt>
      <trkpt lat="47.95065" lon="7.11004">
        <ele>870.062956</ele>
        <time>2022-05-15T22:09:31.119Z</time>
      </trkpt>
      <trkpt lat="47.95068" lon="7.10984">
        <ele>870.078725</ele>
        <time>2022-05-15T22:09:35.460Z</time>
      </trkpt>
      <trkpt lat="47.95075" lon="7.10975">
        <ele>870.060968</ele>
        <time>2022-05-15T22:09:39.299Z</time>
      </trkpt>
      <trkpt lat="47.95114" lon="7.10926">
        <ele>869.838837</ele>
        <time>2022-05-15T22:09:53.166Z</time>
      </trkpt>
      <trkpt lat="47.95112" lon="7.10892">
        <ele>869.736661</ele>
        <time>2022-05-15T22:09:59.524Z</time>
      </trkpt>
      <trkpt lat="47.95096" lon="7.10861">
        <ele>869.620559</ele>
        <time>2022-05-15T22:10:04.507Z</time>
      </trkpt>
      <trkpt lat="47.95093" lon="7.10821">
        <ele>869.501974</ele>
        <time>2022-05-15T22:10:09.886Z</time>
      </trkpt>
      <trkpt lat="47.95083" lon="7.10643">
        <ele>867.222661</ele>
        <time>2022-05-15T22:10:29.339Z</time>
      </trkpt>
      <trkpt lat="47.95084" lon="7.10554">
        <ele>865.476693</ele>
        <time>2022-05-15T22:10:38.807Z</time>
      </trkpt>
      <trkpt lat="47.95093" lon="7.10449">
        <ele>862.81818</ele>
        <time>2022-05-15T22:10:49.280Z</time>
      </trkpt>
      <trkpt lat="47.95122" lon="7.10309">
        <ele>857.296557</ele>
        <time>2022-05-15T22:11:02.828Z</time>
      </trkpt>
      <trkpt lat="47.95143" lon="7.10184">
        <ele>853.202561</ele>
        <time>2022-05-15T22:11:14.413Z</time>
      </trkpt>
      <trkpt lat="47.95158" lon="7.10062">
        <ele>850.857933</ele>
        <time>2022-05-15T22:11:26.577Z</time>
      </trkpt>
      <trkpt lat="47.95153" lon="7.10041">
        <ele>850.430413</ele>
        <time>2022-05-15T22:11:28.860Z</time>
      </trkpt>
      <trkpt lat="47.95153" lon="7.10031">
        <ele>850.243127</ele>
        <time>2022-05-15T22:11:30.114Z</time>
      </trkpt>
      <trkpt lat="47.95155" lon="7.10002">
        <ele>849.69484</ele>
        <time>2022-05-15T22:11:33.835Z</time>
      </trkpt>
      <trkpt lat="47.95172" lon="7.09813">
        <ele>853.190515</ele>
        <time>2022-05-15T22:12:15.900Z</time>
      </trkpt>
      <trkpt lat="47.95153" lon="7.09721">
        <ele>856.000317</ele>
        <time>2022-05-15T22:12:47.781Z</time>
      </trkpt>
      <trkpt lat="47.95137" lon="7.09682">
        <ele>858.041461</ele>
        <time>2022-05-15T22:13:07.671Z</time>
      </trkpt>
      <trkpt lat="47.95094" lon="7.09637">
        <ele>862.8215</ele>
        <time>2022-05-15T22:13:43.243Z</time>
      </trkpt>
      <trkpt lat="47.95049" lon="7.09561">
        <ele>868.991944</ele>
        <time>2022-05-15T22:14:27.850Z</time>
      </trkpt>
      <trkpt lat="47.95029" lon="7.09514">
        <ele>872.424257</ele>
        <time>2022-05-15T22:14:53.906Z</time>
      </trkpt>
      <trkpt lat="47.95003" lon="7.09486">
        <ele>875.570395</ele>
        <time>2022-05-15T22:15:16.669Z</time>
      </trkpt>
      <trkpt lat="47.94951" lon="7.09486">
        <ele>880.656332</ele>
        <time>2022-05-15T22:15:52.886Z</time>
      </trkpt>
      <trkpt lat="47.94904" lon="7.0951">
        <ele>885.641149</ele>
        <time>2022-05-15T22:16:26.010Z</time>
      </trkpt>
      <trkpt lat="47.94878" lon="7.09515">
        <ele>888.230996</ele>
        <time>2022-05-15T22:16:44.812Z</time>
      </trkpt>
      <trkpt lat="47.94799" lon="7.09507">
        <ele>896.122274</ele>
        <time>2022-05-15T22:17:41.751Z</time>
      </trkpt>
      <trkpt lat="47.9476" lon="7.0949">
        <ele>900.24164</ele>
        <time>2022-05-15T22:18:13.614Z</time>
      </trkpt>
      <trkpt lat="47.94747" lon="7.09472">
        <ele>902.030744</ele>
        <time>2022-05-15T22:18:27.404Z</time>
      </trkpt>
      <trkpt lat="47.94729" lon="7.0945">
        <ele>904.28167</ele>
        <time>2022-05-15T22:18:42.239Z</time>
      </trkpt>
      <trkpt lat="47.94636" lon="7.09427">
        <ele>912.567075</ele>
        <time>2022-05-15T22:19:42.549Z</time>
      </trkpt>
      <trkpt lat="47.94612" lon="7.0942">
        <ele>914.343306</ele>
        <time>2022-05-15T22:19:58.058Z</time>
      </trkpt>
      <trkpt lat="47.94587" lon="7.09398">
        <ele>916.527814</ele>
        <time>2022-05-15T22:20:16.916Z</time>
      </trkpt>
      <trkpt lat="47.94568" lon="7.09343">
        <ele>919.582813</ele>
        <time>2022-05-15T22:20:37.899Z</time>
      </trkpt>
      <trkpt lat="47.94558" lon="7.09293">
        <ele>922.179323</ele>
        <time>2022-05-15T22:20:54.357Z</time>
      </trkpt>
      <trkpt lat="47.94549" lon="7.09272">
        <ele>923.373434</ele>
        <time>2022-05-15T22:21:02.162Z</time>
      </trkpt>
      <trkpt lat="47.94528" lon="7.09249">
        <ele>925.172908</ele>
        <time>2022-05-15T22:21:13.707Z</time>
      </trkpt>
      <trkpt lat="47.94494" lon="7.0922">
        <ele>927.88695</ele>
        <time>2022-05-15T22:21:34.184Z</time>
      </trkpt>
      <trkpt lat="47.9446" lon="7.09178">
        <ele>930.974807</ele>
        <time>2022-05-15T22:21:59.857Z</time>
      </trkpt>
      <trkpt lat="47.94447" lon="7.09147">
        <ele>932.706476</ele>
        <time>2022-05-15T22:22:15.808Z</time>
      </trkpt>
      <trkpt lat="47.94444" lon="7.09121">
        <ele>933.931955</ele>
        <time>2022-05-15T22:22:27.017Z</time>
      </trkpt>
      <trkpt lat="47.94449" lon="7.09081">
        <ele>935.788836</ele>
        <time>2022-05-15T22:22:44.143Z</time>
      </trkpt>
      <trkpt lat="47.94513" lon="7.08926">
        <ele>944.139085</ele>
        <time>2022-05-15T22:23:50.129Z</time>
      </trkpt>
      <trkpt lat="47.94538" lon="7.08835">
        <ele>948.392933</ele>
        <time>2022-05-15T22:24:22.518Z</time>
      </trkpt>
      <trkpt lat="47.94553" lon="7.08833">
        <ele>949.214805</ele>
        <time>2022-05-15T22:24:33.147Z</time>
      </trkpt>
      <trkpt lat="47.94611" lon="7.08669">
        <ele>956.184905</ele>
        <time>2022-05-15T22:25:46.149Z</time>
      </trkpt>
      <trkpt lat="47.94635" lon="7.08593">
        <ele>958.694643</ele>
        <time>2022-05-15T22:26:20.401Z</time>
      </trkpt>
      <trkpt lat="47.94693" lon="7.08482">
        <ele>962.368368</ele>
        <time>2022-05-15T22:27:08.703Z</time>
      </trkpt>
      <trkpt lat="47.94712" lon="7.08434">
        <ele>963.823394</ele>
        <time>2022-05-15T22:27:25.716Z</time>
      </trkpt>
      <trkpt lat="47.94762" lon="7.08255">
        <ele>968.261893</ele>
        <time>2022-05-15T22:28:20.624Z</time>
      </trkpt>
      <trkpt lat="47.94764" lon="7.08217">
        <ele>969.12038</ele>
        <time>2022-05-15T22:28:32.920Z</time>
      </trkpt>
      <trkpt lat="47.9475" lon="7.08156">
        <ele>970.932109</ele>
        <time>2022-05-15T22:28:57.116Z</time>
      </trkpt>
      <trkpt lat="47.94738" lon="7.08068">
        <ele>976.358492</ele>
        <time>2022-05-15T22:29:40.399Z</time>
      </trkpt>
      <trkpt lat="47.94744" lon="7.07972">
        <ele>982.186145</ele>
        <time>2022-05-15T22:30:33.196Z</time>
      </trkpt>
      <trkpt lat="47.94756" lon="7.07875">
        <ele>988.337442</ele>
        <time>2022-05-15T22:31:31.398Z</time>
      </trkpt>
      <trkpt lat="47.94764" lon="7.07708">
        <ele>999.853494</ele>
        <time>2022-05-15T22:33:05.707Z</time>
      </trkpt>
      <trkpt lat="47.94759" lon="7.07691">
        <ele>1001.146555</ele>
        <time>2022-05-15T22:33:15.781Z</time>
      </trkpt>
      <trkpt lat="47.94731" lon="7.07678">
        <ele>1004.129885</ele>
        <time>2022-05-15T22:33:38.620Z</time>
      </trkpt>
      <trkpt lat="47.94659" lon="7.07684">
        <ele>1011.437718</ele>
        <time>2022-05-15T22:34:35.512Z</time>
      </trkpt>
      <trkpt lat="47.94643" lon="7.07679">
        <ele>1013.145196</ele>
        <time>2022-05-15T22:34:49.531Z</time>
      </trkpt>
      <trkpt lat="47.94449" lon="7.07553">
        <ele>1032.848241</ele>
        <time>2022-05-15T22:37:48.050Z</time>
      </trkpt>
      <trkpt lat="47.94428" lon="7.07529">
        <ele>1035.135179</ele>
        <time>2022-05-15T22:38:05.735Z</time>
      </trkpt>
      <trkpt lat="47.94404" lon="7.0749">
        <ele>1038.18381</ele>
        <time>2022-05-15T22:38:27.318Z</time>
      </trkpt>
      <trkpt lat="47.94395" lon="7.07465">
        <ele>1038.986157</ele>
        <time>2022-05-15T22:38:38.441Z</time>
      </trkpt>
      <trkpt lat="47.9439" lon="7.07421">
        <ele>1039.613179</ele>
        <time>2022-05-15T22:38:53.791Z</time>
      </trkpt>
      <trkpt lat="47.94392" lon="7.07394">
        <ele>1039.997842</ele>
        <time>2022-05-15T22:39:03.033Z</time>
      </trkpt>
      <trkpt lat="47.94398" lon="7.07369">
        <ele>1040.367749</ele>
        <time>2022-05-15T22:39:10.293Z</time>
      </trkpt>
      <trkpt lat="47.94418" lon="7.07331">
        <ele>1041.053633</ele>
        <time>2022-05-15T22:39:22.710Z</time>
      </trkpt>
      <trkpt lat="47.94447" lon="7.07291">
        <ele>1041.879021</ele>
        <time>2022-05-15T22:39:36.686Z</time>
      </trkpt>
      <trkpt lat="47.9446" lon="7.07283">
        <ele>1042.168846</ele>
        <time>2022-05-15T22:39:42.533Z</time>
      </trkpt>
      <trkpt lat="47.94465" lon="7.07263">
        <ele>1042.47067</ele>
        <time>2022-05-15T22:39:46.573Z</time>
      </trkpt>
      <trkpt lat="47.94506" lon="7.07197">
        <ele>1040.796341</ele>
        <time>2022-05-15T22:40:04.258Z</time>
      </trkpt>
      <trkpt lat="47.94544" lon="7.0711">
        <ele>1038.822938</ele>
        <time>2022-05-15T22:40:22.215Z</time>
      </trkpt>
      <trkpt lat="47.946" lon="7.06914">
        <ele>1033.176714</ele>
        <time>2022-05-15T22:40:56.418Z</time>
      </trkpt>
      <trkpt lat="47.94613" lon="7.0689">
        <ele>1032.238179</ele>
        <time>2022-05-15T22:41:01.307Z</time>
      </trkpt>
      <trkpt lat="47.94668" lon="7.06751">
        <ele>1029.500737</ele>
        <time>2022-05-15T22:41:28.413Z</time>
      </trkpt>
      <trkpt lat="47.94674" lon="7.06703">
        <ele>1029.784162</ele>
        <time>2022-05-15T22:41:37.926Z</time>
      </trkpt>
      <trkpt lat="47.94631" lon="7.06621">
        <ele>1030.381471</ele>
        <time>2022-05-15T22:42:07.319Z</time>
      </trkpt>
      <trkpt lat="47.94605" lon="7.06553">
        <ele>1031.946598</ele>
        <time>2022-05-15T22:42:35.864Z</time>
      </trkpt>
      <trkpt lat="47.94583" lon="7.06387">
        <ele>1040.84215</ele>
        <time>2022-05-15T22:43:55.765Z</time>
      </trkpt>
      <trkpt lat="47.94579" lon="7.06316">
        <ele>1044.630974</ele>
        <time>2022-05-15T22:44:37.607Z</time>
      </trkpt>
      <trkpt lat="47.9458" lon="7.0611">
        <ele>1056.255875</ele>
        <time>2022-05-15T22:46:26.082Z</time>
      </trkpt>
      <trkpt lat="47.94572" lon="7.06057">
        <ele>1059.328081</ele>
        <time>2022-05-15T22:46:48.769Z</time>
      </trkpt>
      <trkpt lat="47.94546" lon="7.06001">
        <ele>1061.686588</ele>
        <time>2022-05-15T22:47:16.142Z</time>
      </trkpt>
      <trkpt lat="47.94526" lon="7.05979">
        <ele>1062.769464</ele>
        <time>2022-05-15T22:47:30.198Z</time>
      </trkpt>
      <trkpt lat="47.94498" lon="7.05965">
        <ele>1064.059196</ele>
        <time>2022-05-15T22:47:45.103Z</time>
      </trkpt>
      <trkpt lat="47.94486" lon="7.05945">
        <ele>1064.82676</ele>
        <time>2022-05-15T22:47:55.244Z</time>
      </trkpt>
      <trkpt lat="47.9447" lon="7.05936">
        <ele>1065.598611</ele>
        <time>2022-05-15T22:48:03.178Z</time>
      </trkpt>
      <trkpt lat="47.94411" lon="7.05924">
        <ele>1068.168757</ele>
        <time>2022-05-15T22:48:31.698Z</time>
      </trkpt>
      <trkpt lat="47.94328" lon="7.05918">
        <ele>1071.537549</ele>
        <time>2022-05-15T22:49:10.984Z</time>
      </trkpt>
      <trkpt lat="47.94292" lon="7.05897">
        <ele>1073.079159</ele>
        <time>2022-05-15T22:49:31.951Z</time>
      </trkpt>
      <trkpt lat="47.94267" lon="7.059">
        <ele>1074.122584</ele>
        <time>2022-05-15T22:49:46.107Z</time>
      </trkpt>
      <trkpt lat="47.94226" lon="7.05927">
        <ele>1076.479464</ele>
        <time>2022-05-15T22:50:10.010Z</time>
      </trkpt>
      <trkpt lat="47.94137" lon="7.0591">
        <ele>1083.173184</ele>
        <time>2022-05-15T22:51:08.065Z</time>
      </trkpt>
      <trkpt lat="47.94065" lon="7.0588">
        <ele>1088.799222</ele>
        <time>2022-05-15T22:52:07.161Z</time>
      </trkpt>
      <trkpt lat="47.94059" lon="7.05861">
        <ele>1090.369327</ele>
        <time>2022-05-15T22:52:17.750Z</time>
      </trkpt>
      <trkpt lat="47.94057" lon="7.05823">
        <ele>1093.139926</ele>
        <time>2022-05-15T22:52:39.358Z</time>
      </trkpt>
      <trkpt lat="47.94063" lon="7.05743">
        <ele>1099.059116</ele>
        <time>2022-05-15T22:53:25.533Z</time>
      </trkpt>
      <trkpt lat="47.94097" lon="7.05613">
        <ele>1109.294576</ele>
        <time>2022-05-15T22:54:52.657Z</time>
      </trkpt>
      <trkpt lat="47.94144" lon="7.05505">
        <ele>1118.476628</ele>
        <time>2022-05-15T22:56:04.927Z</time>
      </trkpt>
      <trkpt lat="47.94222" lon="7.05363">
        <ele>1130.881206</ele>
        <time>2022-05-15T22:57:49.048Z</time>
      </trkpt>
      <trkpt lat="47.94267" lon="7.05298">
        <ele>1136.355968</ele>
        <time>2022-05-15T22:58:37.777Z</time>
      </trkpt>
      <trkpt lat="47.94383" lon="7.0516">
        <ele>1148.951987</ele>
        <time>2022-05-15T23:00:19.205Z</time>
      </trkpt>
      <trkpt lat="47.94425" lon="7.05045">
        <ele>1156.273272</ele>
        <time>2022-05-15T23:01:19.925Z</time>
      </trkpt>
      <trkpt lat="47.94449" lon="7.04931">
        <ele>1166.064298</ele>
        <time>2022-05-15T23:02:33.859Z</time>
      </trkpt>
      <trkpt lat="47.9446" lon="7.04895">
        <ele>1169.717218</ele>
        <time>2022-05-15T23:02:59.083Z</time>
      </trkpt>
      <trkpt lat="47.94528" lon="7.04804">
        <ele>1182.238003</ele>
        <time>2022-05-15T23:04:42.839Z</time>
      </trkpt>
      <trkpt lat="47.9457" lon="7.04765">
        <ele>1187.453047</ele>
        <time>2022-05-15T23:05:34.126Z</time>
      </trkpt>
      <trkpt lat="47.94609" lon="7.04747">
        <ele>1191.687825</ele>
        <time>2022-05-15T23:06:13.668Z</time>
      </trkpt>
      <trkpt lat="47.94627" lon="7.0475">
        <ele>1193.479383</ele>
        <time>2022-05-15T23:06:32.598Z</time>
      </trkpt>
      <trkpt lat="47.94662" lon="7.04705">
        <ele>1198.217276</ele>
        <time>2022-05-15T23:07:01.591Z</time>
      </trkpt>
      <trkpt lat="47.94758" lon="7.04557">
        <ele>1204.673542</ele>
        <time>2022-05-15T23:08:07.404Z</time>
      </trkpt>
      <trkpt lat="47.94778" lon="7.04524">
        <ele>1205.623953</ele>
        <time>2022-05-15T23:08:18.133Z</time>
      </trkpt>
      <trkpt lat="47.94803" lon="7.04487">
        <ele>1206.778037</ele>
        <time>2022-05-15T23:08:33.363Z</time>
      </trkpt>
      <trkpt lat="47.9482" lon="7.0445">
        <ele>1208.435766</ele>
        <time>2022-05-15T23:08:48.138Z</time>
      </trkpt>
      <trkpt lat="47.94919" lon="7.04036">
        <ele>1226.726321</ele>
        <time>2022-05-15T23:12:03.983Z</time>
      </trkpt>
      <trkpt lat="47.94934" lon="7.03991">
        <ele>1228.86117</ele>
        <time>2022-05-15T23:12:24.540Z</time>
      </trkpt>
      <trkpt lat="47.951" lon="7.03666">
        <ele>1239.460632</ele>
        <time>2022-05-15T23:14:45.340Z</time>
      </trkpt>
      <trkpt lat="47.95147" lon="7.03555">
        <ele>1242.150682</ele>
        <time>2022-05-15T23:15:25.201Z</time>
      </trkpt>
      <trkpt lat="47.95165" lon="7.03468">
        <ele>1241.551915</ele>
        <time>2022-05-15T23:15:48.085Z</time>
      </trkpt>
      <trkpt lat="47.95171" lon="7.03446">
        <ele>1241.335249</ele>
        <time>2022-05-15T23:15:53.604Z</time>
      </trkpt>
      <trkpt lat="47.95182" lon="7.03388">
        <ele>1240.789163</ele>
        <time>2022-05-15T23:16:04.975Z</time>
      </trkpt>
      <trkpt lat="47.95186" lon="7.03363">
        <ele>1240.556539</ele>
        <time>2022-05-15T23:16:09.415Z</time>
      </trkpt>
      <trkpt lat="47.9519" lon="7.03345">
        <ele>1240.379025</ele>
        <time>2022-05-15T23:16:12.983Z</time>
      </trkpt>
      <trkpt lat="47.95264" lon="7.03299">
        <ele>1236.124531</ele>
        <time>2022-05-15T23:16:32.522Z</time>
      </trkpt>
      <trkpt lat="47.95319" lon="7.03245">
        <ele>1230.290518</ele>
        <time>2022-05-15T23:16:47.142Z</time>
      </trkpt>
      <trkpt lat="47.95341" lon="7.03217">
        <ele>1227.683037</ele>
        <time>2022-05-15T23:16:53.223Z</time>
      </trkpt>
      <trkpt lat="47.95392" lon="7.03152">
        <ele>1221.104369</ele>
        <time>2022-05-15T23:17:07.013Z</time>
      </trkpt>
      <trkpt lat="47.95471" lon="7.03074">
        <ele>1210.083772</ele>
        <time>2022-05-15T23:17:26.792Z</time>
      </trkpt>
      <trkpt lat="47.95434" lon="7.03048">
        <ele>1205.370196</ele>
        <time>2022-05-15T23:17:35.342Z</time>
      </trkpt>
      <trkpt lat="47.95424" lon="7.03033">
        <ele>1203.708676</ele>
        <time>2022-05-15T23:17:38.348Z</time>
      </trkpt>
      <trkpt lat="47.95539" lon="7.03009">
        <ele>1193.660541</ele>
        <time>2022-05-15T23:18:03.521Z</time>
      </trkpt>
      <trkpt lat="47.95587" lon="7.03012">
        <ele>1189.610096</ele>
        <time>2022-05-15T23:18:14.172Z</time>
      </trkpt>
      <trkpt lat="47.95695" lon="7.02985">
        <ele>1185.740046</ele>
        <time>2022-05-15T23:18:40.513Z</time>
      </trkpt>
      <trkpt lat="47.95701" lon="7.02989">
        <ele>1185.586763</ele>
        <time>2022-05-15T23:18:42.101Z</time>
      </trkpt>
      <trkpt lat="47.95717" lon="7.02983">
        <ele>1185.209455</ele>
        <time>2022-05-15T23:18:46.916Z</time>
      </trkpt>
      <trkpt lat="47.95745" lon="7.03">
        <ele>1184.518537</ele>
        <time>2022-05-15T23:18:57.515Z</time>
      </trkpt>
      <trkpt lat="47.9578" lon="7.03052">
        <ele>1184.02624</ele>
        <time>2022-05-15T23:19:18.445Z</time>
      </trkpt>
      <trkpt lat="47.95798" lon="7.03116">
        <ele>1185.684482</ele>
        <time>2022-05-15T23:19:40.725Z</time>
      </trkpt>
      <trkpt lat="47.95803" lon="7.03181">
        <ele>1187.252903</ele>
        <time>2022-05-15T23:20:06.321Z</time>
      </trkpt>
      <trkpt lat="47.95788" lon="7.03281">
        <ele>1189.689359</ele>
        <time>2022-05-15T23:20:42.503Z</time>
      </trkpt>
      <trkpt lat="47.95788" lon="7.03334">
        <ele>1189.754364</ele>
        <time>2022-05-15T23:20:59.225Z</time>
      </trkpt>
      <trkpt lat="47.958" lon="7.03371">
        <ele>1189.418709</ele>
        <time>2022-05-15T23:21:10.901Z</time>
      </trkpt>
      <trkpt lat="47.95806" lon="7.03377">
        <ele>1189.336476</ele>
        <time>2022-05-15T23:21:13.184Z</time>
      </trkpt>
      <trkpt lat="47.95927" lon="7.03386">
        <ele>1187.803374</ele>
        <time>2022-05-15T23:21:45.400Z</time>
      </trkpt>
      <trkpt lat="47.96223" lon="7.03355">
        <ele>1169.384252</ele>
        <time>2022-05-15T23:22:53.839Z</time>
      </trkpt>
      <trkpt lat="47.96244" lon="7.03337">
        <ele>1167.848961</ele>
        <time>2022-05-15T23:22:59.349Z</time>
      </trkpt>
      <trkpt lat="47.96318" lon="7.03226">
        <ele>1161.523985</ele>
        <time>2022-05-15T23:23:23.702Z</time>
      </trkpt>
      <trkpt lat="47.96405" lon="7.03138">
        <ele>1155.50852</ele>
        <time>2022-05-15T23:23:48.530Z</time>
      </trkpt>
      <trkpt lat="47.96466" lon="7.03093">
        <ele>1150.104795</ele>
        <time>2022-05-15T23:24:05.170Z</time>
      </trkpt>
      <trkpt lat="47.9661" lon="7.0304">
        <ele>1137.081852</ele>
        <time>2022-05-15T23:24:37.202Z</time>
      </trkpt>
      <trkpt lat="47.9662" lon="7.03032">
        <ele>1135.763365</ele>
        <time>2022-05-15T23:24:39.583Z</time>
      </trkpt>
      <trkpt lat="47.96657" lon="7.02989">
        <ele>1130.275001</ele>
        <time>2022-05-15T23:24:49.342Z</time>
      </trkpt>
      <trkpt lat="47.96687" lon="7.02933">
        <ele>1124.698628</ele>
        <time>2022-05-15T23:24:59.167Z</time>
      </trkpt>
      <trkpt lat="47.96708" lon="7.02844">
        <ele>1118.034634</ele>
        <time>2022-05-15T23:25:12.413Z</time>
      </trkpt>
      <trkpt lat="47.96721" lon="7.02817">
        <ele>1116.341667</ele>
        <time>2022-05-15T23:25:17.045Z</time>
      </trkpt>
      <trkpt lat="47.96742" lon="7.02792">
        <ele>1114.26858</ele>
        <time>2022-05-15T23:25:22.755Z</time>
      </trkpt>
      <trkpt lat="47.96786" lon="7.02766">
        <ele>1110.597165</ele>
        <time>2022-05-15T23:25:33.621Z</time>
      </trkpt>
      <trkpt lat="47.96846" lon="7.0277">
        <ele>1106.004302</ele>
        <time>2022-05-15T23:25:48.487Z</time>
      </trkpt>
      <trkpt lat="47.96992" lon="7.02823">
        <ele>1099.211241</ele>
        <time>2022-05-15T23:26:25.890Z</time>
      </trkpt>
      <trkpt lat="47.97148" lon="7.02922">
        <ele>1089.87117</ele>
        <time>2022-05-15T23:27:06.333Z</time>
      </trkpt>
      <trkpt lat="47.97192" lon="7.02934">
        <ele>1087.287516</ele>
        <time>2022-05-15T23:27:16.539Z</time>
      </trkpt>
      <trkpt lat="47.97217" lon="7.02934">
        <ele>1085.359865</ele>
        <time>2022-05-15T23:27:22.292Z</time>
      </trkpt>
      <trkpt lat="47.97265" lon="7.02907">
        <ele>1081.52353</ele>
        <time>2022-05-15T23:27:33.534Z</time>
      </trkpt>
      <trkpt lat="47.97379" lon="7.02777">
        <ele>1072.084959</ele>
        <time>2022-05-15T23:28:05.754Z</time>
      </trkpt>
      <trkpt lat="47.97379" lon="7.02777">
        <ele>1072.084959</ele>
        <time>2022-05-15T23:28:05.760Z</time>
      </trkpt>
      <trkpt lat="47.97254" lon="7.02845">
        <ele>1066.495764</ele>
        <time>2022-05-15T23:28:39.578Z</time>
      </trkpt>
      <trkpt lat="47.97222" lon="7.02854">
        <ele>1065.806061</ele>
        <time>2022-05-15T23:28:48.977Z</time>
      </trkpt>
      <trkpt lat="47.97194" lon="7.02849">
        <ele>1065.370442</ele>
        <time>2022-05-15T23:28:57.266Z</time>
      </trkpt>
      <trkpt lat="47.97181" lon="7.02843">
        <ele>1065.153395</ele>
        <time>2022-05-15T23:29:01.345Z</time>
      </trkpt>
      <trkpt lat="47.97122" lon="7.02782">
        <ele>1064.069956</ele>
        <time>2022-05-15T23:29:21.671Z</time>
      </trkpt>
      <trkpt lat="47.9705" lon="7.0273">
        <ele>1062.349661</ele>
        <time>2022-05-15T23:29:44.390Z</time>
      </trkpt>
      <trkpt lat="47.96932" lon="7.02685">
        <ele>1058.902322</ele>
        <time>2022-05-15T23:30:17.120Z</time>
      </trkpt>
      <trkpt lat="47.96854" lon="7.02644">
        <ele>1052.670163</ele>
        <time>2022-05-15T23:30:36.637Z</time>
      </trkpt>
      <trkpt lat="47.96766" lon="7.02566">
        <ele>1043.499133</ele>
        <time>2022-05-15T23:30:58.549Z</time>
      </trkpt>
      <trkpt lat="47.96712" lon="7.02545">
        <ele>1035.956445</ele>
        <time>2022-05-15T23:31:09.946Z</time>
      </trkpt>
      <trkpt lat="47.96668" lon="7.02541">
        <ele>1029.375399</ele>
        <time>2022-05-15T23:31:18.739Z</time>
      </trkpt>
      <trkpt lat="47.96609" lon="7.02566">
        <ele>1020.133905</ele>
        <time>2022-05-15T23:31:31.391Z</time>
      </trkpt>
      <trkpt lat="47.96586" lon="7.02585">
        <ele>1016.09384</ele>
        <time>2022-05-15T23:31:36.738Z</time>
      </trkpt>
      <trkpt lat="47.96548" lon="7.02639">
        <ele>1002.763827</ele>
        <time>2022-05-15T23:31:47.023Z</time>
      </trkpt>
      <trkpt lat="47.96539" lon="7.02671">
        <ele>996.625614</ele>
        <time>2022-05-15T23:31:51.525Z</time>
      </trkpt>
      <trkpt lat="47.96524" lon="7.02687">
        <ele>991.609802</ele>
        <time>2022-05-15T23:31:55.207Z</time>
      </trkpt>
      <trkpt lat="47.96508" lon="7.02632">
        <ele>981.028062</ele>
        <time>2022-05-15T23:32:03.002Z</time>
      </trkpt>
      <trkpt lat="47.96479" lon="7.02559">
        <ele>965.520536</ele>
        <time>2022-05-15T23:32:14.174Z</time>
      </trkpt>
      <trkpt lat="47.96467" lon="7.02516">
        <ele>955.249806</ele>
        <time>2022-05-15T23:32:20.243Z</time>
      </trkpt>
      <trkpt lat="47.96464" lon="7.02456">
        <ele>941.609812</ele>
        <time>2022-05-15T23:32:28.369Z</time>
      </trkpt>
      <trkpt lat="47.96463" lon="7.02361">
        <ele>920.431586</ele>
        <time>2022-05-15T23:32:40.970Z</time>
      </trkpt>
      <trkpt lat="47.96473" lon="7.02256">
        <ele>899.782313</ele>
        <time>2022-05-15T23:32:54.994Z</time>
      </trkpt>
      <trkpt lat="47.96484" lon="7.02195">
        <ele>889.911774</ele>
        <time>2022-05-15T23:33:03.158Z</time>
      </trkpt>
      <trkpt lat="47.96492" lon="7.02176">
        <ele>886.335421</ele>
        <time>2022-05-15T23:33:06.159Z</time>
      </trkpt>
      <trkpt lat="47.96552" lon="7.0208">
        <ele>865.69442</ele>
        <time>2022-05-15T23:33:23.251Z</time>
      </trkpt>
      <trkpt lat="47.96524" lon="7.02077">
        <ele>862.748401</ele>
        <time>2022-05-15T23:33:28.977Z</time>
      </trkpt>
      <trkpt lat="47.96499" lon="7.02063">
        <ele>860.307046</ele>
        <time>2022-05-15T23:33:34.503Z</time>
      </trkpt>
      <trkpt lat="47.96487" lon="7.02039">
        <ele>858.469609</ele>
        <time>2022-05-15T23:33:38.674Z</time>
      </trkpt>
      <trkpt lat="47.96487" lon="7.02039">
        <ele>858.469609</ele>
        <time>2022-05-15T23:33:38.765Z</time>
      </trkpt>
      <trkpt lat="47.96508" lon="7.01969">
        <ele>853.811663</ele>
        <time>2022-05-15T23:33:50.441Z</time>
      </trkpt>
      <trkpt lat="47.96522" lon="7.01936">
        <ele>851.476758</ele>
        <time>2022-05-15T23:33:56.381Z</time>
      </trkpt>
      <trkpt lat="47.96565" lon="7.01925">
        <ele>850.317471</ele>
        <time>2022-05-15T23:34:09.581Z</time>
      </trkpt>
      <trkpt lat="47.96585" lon="7.01902">
        <ele>852.886315</ele>
        <time>2022-05-15T23:34:26.907Z</time>
      </trkpt>
      <trkpt lat="47.96574" lon="7.01895">
        <ele>854.177391</ele>
        <time>2022-05-15T23:34:33.253Z</time>
      </trkpt>
      <trkpt lat="47.96572" lon="7.01883">
        <ele>854.975031</ele>
        <time>2022-05-15T23:34:41.562Z</time>
      </trkpt>
      <trkpt lat="47.96603" lon="7.018">
        <ele>861.425699</ele>
        <time>2022-05-15T23:35:34.294Z</time>
      </trkpt>
      <trkpt lat="47.96629" lon="7.01759">
        <ele>865.248417</ele>
        <time>2022-05-15T23:36:11.524Z</time>
      </trkpt>
      <trkpt lat="47.96622" lon="7.01737">
        <ele>866.875846</ele>
        <time>2022-05-15T23:36:34.991Z</time>
      </trkpt>
      <trkpt lat="47.96587" lon="7.01682">
        <ele>877.444133</ele>
        <time>2022-05-15T23:37:43.348Z</time>
      </trkpt>
      <trkpt lat="47.96537" lon="7.01645">
        <ele>889.315769</ele>
        <time>2022-05-15T23:39:05.653Z</time>
      </trkpt>
      <trkpt lat="47.96501" lon="7.016">
        <ele>899.338362</ele>
        <time>2022-05-15T23:40:11.927Z</time>
      </trkpt>
      <trkpt lat="47.96452" lon="7.01561">
        <ele>908.984236</ele>
        <time>2022-05-15T23:41:16.922Z</time>
      </trkpt>
      <trkpt lat="47.96431" lon="7.01622">
        <ele>915.384911</ele>
        <time>2022-05-15T23:42:04.285Z</time>
      </trkpt>
      <trkpt lat="47.96418" lon="7.01638">
        <ele>917.593791</ele>
        <time>2022-05-15T23:42:22.184Z</time>
      </trkpt>
      <trkpt lat="47.96349" lon="7.01688">
        <ele>928.125731</ele>
        <time>2022-05-15T23:43:41.035Z</time>
      </trkpt>
      <trkpt lat="47.96308" lon="7.01697">
        <ele>933.146286</ele>
        <time>2022-05-15T23:44:03.507Z</time>
      </trkpt>
      <trkpt lat="47.96295" lon="7.01693">
        <ele>934.632844</ele>
        <time>2022-05-15T23:44:10.222Z</time>
      </trkpt>
      <trkpt lat="47.9626" lon="7.01673">
        <ele>938.928662</ele>
        <time>2022-05-15T23:44:37.503Z</time>
      </trkpt>
      <trkpt lat="47.96256" lon="7.01662">
        <ele>939.911376</ele>
        <time>2022-05-15T23:44:47.140Z</time>
      </trkpt>
      <trkpt lat="47.96262" lon="7.01656">
        <ele>940.731837</ele>
        <time>2022-05-15T23:44:52.542Z</time>
      </trkpt>
      <trkpt lat="47.96303" lon="7.01662">
        <ele>945.486837</ele>
        <time>2022-05-15T23:45:32.242Z</time>
      </trkpt>
      <trkpt lat="47.96318" lon="7.01652">
        <ele>947.333825</ele>
        <time>2022-05-15T23:45:49.483Z</time>
      </trkpt>
      <trkpt lat="47.96359" lon="7.01593">
        <ele>955.124154</ele>
        <time>2022-05-15T23:46:52.335Z</time>
      </trkpt>
      <trkpt lat="47.96382" lon="7.01515">
        <ele>964.110856</ele>
        <time>2022-05-15T23:48:02.042Z</time>
      </trkpt>
      <trkpt lat="47.96465" lon="7.01295">
        <ele>985.180733</ele>
        <time>2022-05-15T23:51:01.569Z</time>
      </trkpt>
      <trkpt lat="47.96466" lon="7.01276">
        <ele>986.276036</ele>
        <time>2022-05-15T23:51:10.508Z</time>
      </trkpt>
      <trkpt lat="47.96459" lon="7.01253">
        <ele>987.734829</ele>
        <time>2022-05-15T23:51:20.854Z</time>
      </trkpt>
      <trkpt lat="47.96454" lon="7.01205">
        <ele>990.561799</ele>
        <time>2022-05-15T23:51:38.812Z</time>
      </trkpt>
      <trkpt lat="47.96473" lon="7.01136">
        <ele>994.18207</ele>
        <time>2022-05-15T23:52:01.971Z</time>
      </trkpt>
      <trkpt lat="47.96486" lon="7.01114">
        <ele>994.372184</ele>
        <time>2022-05-15T23:52:09.509Z</time>
      </trkpt>
      <trkpt lat="47.96541" lon="7.01066">
        <ele>994.98215</ele>
        <time>2022-05-15T23:52:28.819Z</time>
      </trkpt>
      <trkpt lat="47.9658" lon="7.0102">
        <ele>995.468272</ele>
        <time>2022-05-15T23:52:44.988Z</time>
      </trkpt>
      <trkpt lat="47.9664" lon="7.01001">
        <ele>996.883829</ele>
        <time>2022-05-15T23:53:07.909Z</time>
      </trkpt>
      <trkpt lat="47.96698" lon="7.01032">
        <ele>999.638386</ele>
        <time>2022-05-15T23:53:40.348Z</time>
      </trkpt>
      <trkpt lat="47.96733" lon="7.0108">
        <ele>1001.7448</ele>
        <time>2022-05-15T23:54:07.214Z</time>
      </trkpt>
      <trkpt lat="47.96754" lon="7.011">
        <ele>1002.881481</ele>
        <time>2022-05-15T23:54:21.869Z</time>
      </trkpt>
      <trkpt lat="47.96864" lon="7.01148">
        <ele>1011.874373</ele>
        <time>2022-05-15T23:55:41.372Z</time>
      </trkpt>
      <trkpt lat="47.96917" lon="7.01185">
        <ele>1016.964134</ele>
        <time>2022-05-15T23:56:27.582Z</time>
      </trkpt>
      <trkpt lat="47.96944" lon="7.01194">
        <ele>1019.298246</ele>
        <time>2022-05-15T23:56:50.780Z</time>
      </trkpt>
      <trkpt lat="47.96949" lon="7.01192">
        <ele>1019.990363</ele>
        <time>2022-05-15T23:56:54.312Z</time>
      </trkpt>
      <trkpt lat="47.96953" lon="7.01182">
        <ele>1020.973328</ele>
        <time>2022-05-15T23:57:01.650Z</time>
      </trkpt>
      <trkpt lat="47.96942" lon="7.01172">
        <ele>1022.652951</ele>
        <time>2022-05-15T23:57:15.559Z</time>
      </trkpt>
      <trkpt lat="47.96916" lon="7.01169">
        <ele>1026.072874</ele>
        <time>2022-05-15T23:57:36.862Z</time>
      </trkpt>
      <trkpt lat="47.96888" lon="7.01142">
        <ele>1030.526003</ele>
        <time>2022-05-15T23:58:08.431Z</time>
      </trkpt>
      <trkpt lat="47.9688" lon="7.0112">
        <ele>1032.766613</ele>
        <time>2022-05-15T23:58:27.350Z</time>
      </trkpt>
      <trkpt lat="47.96871" lon="7.01051">
        <ele>1038.965537</ele>
        <time>2022-05-15T23:59:15.352Z</time>
      </trkpt>
      <trkpt lat="47.96795" lon="7.0097">
        <ele>1053.483511</ele>
        <time>2022-05-16T00:00:54.543Z</time>
      </trkpt>
      <trkpt lat="47.96769" lon="7.00841">
        <ele>1068.728106</ele>
        <time>2022-05-16T00:02:37.397Z</time>
      </trkpt>
      <trkpt lat="47.96708" lon="7.00751">
        <ele>1085.618607</ele>
        <time>2022-05-16T00:04:36.300Z</time>
      </trkpt>
      <trkpt lat="47.96631" lon="7.00583">
        <ele>1113.546796</ele>
        <time>2022-05-16T00:07:53.408Z</time>
      </trkpt>
      <trkpt lat="47.96519" lon="7.00307">
        <ele>1141.722679</ele>
        <time>2022-05-16T00:11:38.268Z</time>
      </trkpt>
      <trkpt lat="47.96509" lon="7.00251">
        <ele>1143.656472</ele>
        <time>2022-05-16T00:11:57.150Z</time>
      </trkpt>
      <trkpt lat="47.96519" lon="7.00221">
        <ele>1144.769946</ele>
        <time>2022-05-16T00:12:03.441Z</time>
      </trkpt>
      <trkpt lat="47.96536" lon="7.00196">
        <ele>1145.945539</ele>
        <time>2022-05-16T00:12:14.263Z</time>
      </trkpt>
      <trkpt lat="47.96578" lon="7.00174">
        <ele>1148.154943</ele>
        <time>2022-05-16T00:12:27.637Z</time>
      </trkpt>
      <trkpt lat="47.9659" lon="7.00164">
        <ele>1148.2971</ele>
        <time>2022-05-16T00:12:35.034Z</time>
      </trkpt>
      <trkpt lat="47.9663" lon="7.00068">
        <ele>1148.978708</ele>
        <time>2022-05-16T00:12:56.044Z</time>
      </trkpt>
      <trkpt lat="47.9666" lon="7.00023">
        <ele>1149.357028</ele>
        <time>2022-05-16T00:13:11.213Z</time>
      </trkpt>
      <trkpt lat="47.96672" lon="7.00009">
        <ele>1149.490619</ele>
        <time>2022-05-16T00:13:17.141Z</time>
      </trkpt>
      <trkpt lat="47.96785" lon="6.99957">
        <ele>1155.336996</ele>
        <time>2022-05-16T00:14:21.649Z</time>
      </trkpt>
      <trkpt lat="47.9682" lon="6.9992">
        <ele>1158.164766</ele>
        <time>2022-05-16T00:14:52.656Z</time>
      </trkpt>
      <trkpt lat="47.96863" lon="6.99828">
        <ele>1164.059674</ele>
        <time>2022-05-16T00:15:49.910Z</time>
      </trkpt>
      <trkpt lat="47.96815" lon="6.9975">
        <ele>1171.600271</ele>
        <time>2022-05-16T00:16:48.650Z</time>
      </trkpt>
      <trkpt lat="47.96799" lon="6.99711">
        <ele>1174.894924</ele>
        <time>2022-05-16T00:17:18.908Z</time>
      </trkpt>
      <trkpt lat="47.968" lon="6.99567">
        <ele>1185.092154</ele>
        <time>2022-05-16T00:18:44.336Z</time>
      </trkpt>
      <trkpt lat="47.96784" lon="6.99504">
        <ele>1189.838298</ele>
        <time>2022-05-16T00:19:18.505Z</time>
      </trkpt>
      <trkpt lat="47.96774" lon="6.99457">
        <ele>1193.329277</ele>
        <time>2022-05-16T00:19:48.100Z</time>
      </trkpt>
      <trkpt lat="47.96842" lon="6.99375">
        <ele>1202.402185</ele>
        <time>2022-05-16T00:21:01.605Z</time>
      </trkpt>
      <trkpt lat="47.9685" lon="6.99337">
        <ele>1205.111642</ele>
        <time>2022-05-16T00:21:23.145Z</time>
      </trkpt>
      <trkpt lat="47.96858" lon="6.99327">
        <ele>1206.23477</ele>
        <time>2022-05-16T00:21:32.039Z</time>
      </trkpt>
      <trkpt lat="47.96865" lon="6.99302">
        <ele>1208.014319</ele>
        <time>2022-05-16T00:21:47.155Z</time>
      </trkpt>
      <trkpt lat="47.96861" lon="6.99273">
        <ele>1210.020106</ele>
        <time>2022-05-16T00:22:02.792Z</time>
      </trkpt>
      <trkpt lat="47.96864" lon="6.99245">
        <ele>1211.991052</ele>
        <time>2022-05-16T00:22:20.302Z</time>
      </trkpt>
      <trkpt lat="47.96873" lon="6.99208">
        <ele>1214.617113</ele>
        <time>2022-05-16T00:22:42.458Z</time>
      </trkpt>
      <trkpt lat="47.96898" lon="6.99167">
        <ele>1218.238481</ele>
        <time>2022-05-16T00:23:13.164Z</time>
      </trkpt>
      <trkpt lat="47.96921" lon="6.99144">
        <ele>1220.135847</ele>
        <time>2022-05-16T00:23:34.813Z</time>
      </trkpt>
      <trkpt lat="47.96983" lon="6.99119">
        <ele>1224.520232</ele>
        <time>2022-05-16T00:24:18.354Z</time>
      </trkpt>
      <trkpt lat="47.97013" lon="6.99094">
        <ele>1226.888698</ele>
        <time>2022-05-16T00:24:39.475Z</time>
      </trkpt>
      <trkpt lat="47.97091" lon="6.99067">
        <ele>1230.78153</ele>
        <time>2022-05-16T00:25:24.881Z</time>
      </trkpt>
      <trkpt lat="47.97124" lon="6.99045">
        <ele>1231.407376</ele>
        <time>2022-05-16T00:25:41.806Z</time>
      </trkpt>
      <trkpt lat="47.97169" lon="6.99038">
        <ele>1232.220321</ele>
        <time>2022-05-16T00:26:00.898Z</time>
      </trkpt>
      <trkpt lat="47.9739" lon="6.98897">
        <ele>1230.713766</ele>
        <time>2022-05-16T00:27:11.498Z</time>
      </trkpt>
      <trkpt lat="47.97449" lon="6.98824">
        <ele>1226.732953</ele>
        <time>2022-05-16T00:27:29.717Z</time>
      </trkpt>
      <trkpt lat="47.9749" lon="6.98785">
        <ele>1224.00912</ele>
        <time>2022-05-16T00:27:41.018Z</time>
      </trkpt>
      <trkpt lat="47.97527" lon="6.98739">
        <ele>1221.3073</ele>
        <time>2022-05-16T00:27:52.013Z</time>
      </trkpt>
      <trkpt lat="47.97613" lon="6.98603">
        <ele>1213.844954</ele>
        <time>2022-05-16T00:28:20.978Z</time>
      </trkpt>
      <trkpt lat="47.97646" lon="6.98572">
        <ele>1211.468061</ele>
        <time>2022-05-16T00:28:30.425Z</time>
      </trkpt>
      <trkpt lat="47.97827" lon="6.98517">
        <ele>1201.440838</ele>
        <time>2022-05-16T00:29:14.443Z</time>
      </trkpt>
      <trkpt lat="47.97856" lon="6.98522">
        <ele>1199.986957</ele>
        <time>2022-05-16T00:29:21.273Z</time>
      </trkpt>
      <trkpt lat="47.97878" lon="6.98535">
        <ele>1199.289378</ele>
        <time>2022-05-16T00:29:26.694Z</time>
      </trkpt>
      <trkpt lat="47.97877" lon="6.98555">
        <ele>1198.880823</ele>
        <time>2022-05-16T00:29:30.182Z</time>
      </trkpt>
      <trkpt lat="47.97931" lon="6.98528">
        <ele>1197.210621</ele>
        <time>2022-05-16T00:29:44.015Z</time>
      </trkpt>
      <trkpt lat="47.97975" lon="6.98497">
        <ele>1195.755477</ele>
        <time>2022-05-16T00:29:57.372Z</time>
      </trkpt>
      <trkpt lat="47.98112" lon="6.98399">
        <ele>1198.590585</ele>
        <time>2022-05-16T00:30:57.275Z</time>
      </trkpt>
      <trkpt lat="47.98241" lon="6.98357">
        <ele>1204.810151</ele>
        <time>2022-05-16T00:32:23.926Z</time>
      </trkpt>
      <trkpt lat="47.98275" lon="6.98336">
        <ele>1207.041231</ele>
        <time>2022-05-16T00:32:48.127Z</time>
      </trkpt>
      <trkpt lat="47.98309" lon="6.98335">
        <ele>1209.077492</ele>
        <time>2022-05-16T00:33:08.936Z</time>
      </trkpt>
      <trkpt lat="47.9836" lon="6.98275">
        <ele>1212.284287</ele>
        <time>2022-05-16T00:33:45.060Z</time>
      </trkpt>
      <trkpt lat="47.98378" lon="6.98254">
        <ele>1213.131485</ele>
        <time>2022-05-16T00:33:57.323Z</time>
      </trkpt>
      <trkpt lat="47.98393" lon="6.98221">
        <ele>1214.079386</ele>
        <time>2022-05-16T00:34:10.524Z</time>
      </trkpt>
      <trkpt lat="47.9841" lon="6.98205">
        <ele>1214.795885</ele>
        <time>2022-05-16T00:34:20.287Z</time>
      </trkpt>
      <trkpt lat="47.98457" lon="6.98158">
        <ele>1216.828874</ele>
        <time>2022-05-16T00:34:47.173Z</time>
      </trkpt>
      <trkpt lat="47.98515" lon="6.98065">
        <ele>1220.215452</ele>
        <time>2022-05-16T00:35:24.557Z</time>
      </trkpt>
      <trkpt lat="47.98544" lon="6.9803">
        <ele>1221.733414</ele>
        <time>2022-05-16T00:35:41.702Z</time>
      </trkpt>
      <trkpt lat="47.98639" lon="6.98011">
        <ele>1225.872663</ele>
        <time>2022-05-16T00:36:39.919Z</time>
      </trkpt>
      <trkpt lat="47.98664" lon="6.98005">
        <ele>1227.244179</ele>
        <time>2022-05-16T00:36:55.085Z</time>
      </trkpt>
      <trkpt lat="47.98675" lon="6.97996">
        <ele>1227.946372</ele>
        <time>2022-05-16T00:37:03.155Z</time>
      </trkpt>
      <trkpt lat="47.9871" lon="6.98006">
        <ele>1229.926825</ele>
        <time>2022-05-16T00:37:24.590Z</time>
      </trkpt>
      <trkpt lat="47.98722" lon="6.98008">
        <ele>1230.613826</ele>
        <time>2022-05-16T00:37:35.893Z</time>
      </trkpt>
      <trkpt lat="47.98722" lon="6.98008">
        <ele>1230.613826</ele>
        <time>2022-05-16T00:37:35.893Z</time>
      </trkpt>
      <trkpt lat="47.98745" lon="6.98009">
        <ele>1231.893213</ele>
        <time>2022-05-16T00:37:58.961Z</time>
      </trkpt>
      <trkpt lat="47.9877" lon="6.98023">
        <ele>1233.363495</ele>
        <time>2022-05-16T00:38:24.396Z</time>
      </trkpt>
      <trkpt lat="47.98837" lon="6.98044">
        <ele>1236.87919</ele>
        <time>2022-05-16T00:39:30.312Z</time>
      </trkpt>
      <trkpt lat="47.99006" lon="6.98058">
        <ele>1245.718368</ele>
        <time>2022-05-16T00:42:04.709Z</time>
      </trkpt>
      <trkpt lat="47.99137" lon="6.98088">
        <ele>1255.574357</ele>
        <time>2022-05-16T00:44:28.467Z</time>
      </trkpt>
      <trkpt lat="47.99322" lon="6.98068">
        <ele>1271.893799</ele>
        <time>2022-05-16T00:48:10.085Z</time>
      </trkpt>
      <trkpt lat="47.99371" lon="6.9805">
        <ele>1274.378365</ele>
        <time>2022-05-16T00:48:58.507Z</time>
      </trkpt>
      <trkpt lat="47.99391" lon="6.98051">
        <ele>1275.059883</ele>
        <time>2022-05-16T00:49:19.253Z</time>
      </trkpt>
      <trkpt lat="47.99394" lon="6.98052">
        <ele>1275.147067</ele>
        <time>2022-05-16T00:49:21.510Z</time>
      </trkpt>
      <trkpt lat="47.99417" lon="6.98062">
        <ele>1275.949894</ele>
        <time>2022-05-16T00:49:41.248Z</time>
      </trkpt>
      <trkpt lat="47.99426" lon="6.98057">
        <ele>1276.263279</ele>
        <time>2022-05-16T00:49:50.377Z</time>
      </trkpt>
      <trkpt lat="47.9955" lon="6.98086">
        <ele>1279.907748</ele>
        <time>2022-05-16T00:51:23.429Z</time>
      </trkpt>
      <trkpt lat="47.99581" lon="6.98081">
        <ele>1280.495928</ele>
        <time>2022-05-16T00:51:45.412Z</time>
      </trkpt>
      <trkpt lat="47.99787" lon="6.98011">
        <ele>1285.762961</ele>
        <time>2022-05-16T00:54:40.826Z</time>
      </trkpt>
      <trkpt lat="47.99935" lon="6.98029">
        <ele>1287.36</ele>
        <time>2022-05-16T00:56:52.742Z</time>
      </trkpt>
      <trkpt lat="48.00054" lon="6.97982">
        <ele>1283.974955</ele>
        <time>2022-05-16T00:57:24.725Z</time>
      </trkpt>
      <trkpt lat="48.00135" lon="6.97971">
        <ele>1271.3286</ele>
        <time>2022-05-16T00:57:41.406Z</time>
      </trkpt>
      <trkpt lat="48.00193" lon="6.97964">
        <ele>1262.262821</ele>
        <time>2022-05-16T00:58:09.683Z</time>
      </trkpt>
      <trkpt lat="48.00304" lon="6.97989">
        <ele>1241.03519</ele>
        <time>2022-05-16T00:59:03.187Z</time>
      </trkpt>
      <trkpt lat="48.00316" lon="6.97984">
        <ele>1238.41033</ele>
        <time>2022-05-16T00:59:09.402Z</time>
      </trkpt>
      <trkpt lat="48.00367" lon="6.97993">
        <ele>1228.177348</ele>
        <time>2022-05-16T00:59:34.065Z</time>
      </trkpt>
      <trkpt lat="48.00376" lon="6.9799">
        <ele>1226.288807</ele>
        <time>2022-05-16T00:59:38.763Z</time>
      </trkpt>
      <trkpt lat="48.00411" lon="6.97996">
        <ele>1220.704797</ele>
        <time>2022-05-16T00:59:46.023Z</time>
      </trkpt>
      <trkpt lat="48.00483" lon="6.98003">
        <ele>1214.351997</ele>
        <time>2022-05-16T01:00:01.083Z</time>
      </trkpt>
      <trkpt lat="48.00542" lon="6.97999">
        <ele>1209.065601</ele>
        <time>2022-05-16T01:00:14.163Z</time>
      </trkpt>
      <trkpt lat="48.00557" lon="6.98005">
        <ele>1207.701327</ele>
        <time>2022-05-16T01:00:32.166Z</time>
      </trkpt>
      <trkpt lat="48.00542" lon="6.97999">
        <ele>1206.337053</ele>
        <time>2022-05-16T01:00:39.937Z</time>
      </trkpt>
      <trkpt lat="48.00546" lon="6.97996">
        <ele>1205.971486</ele>
        <time>2022-05-16T01:00:41.116Z</time>
      </trkpt>
      <trkpt lat="48.00546" lon="6.97996">
        <ele>1205.971486</ele>
        <time>2022-05-16T01:00:41.116Z</time>
      </trkpt>
      <trkpt lat="48.00573" lon="6.97992">
        <ele>1206.534621</ele>
        <time>2022-05-16T01:00:52.388Z</time>
      </trkpt>
      <trkpt lat="48.0061" lon="6.9797">
        <ele>1207.428966</ele>
        <time>2022-05-16T01:01:05.215Z</time>
      </trkpt>
      <trkpt lat="48.00668" lon="6.97906">
        <ele>1209.028739</ele>
        <time>2022-05-16T01:01:42.717Z</time>
      </trkpt>
      <trkpt lat="48.0071" lon="6.97843">
        <ele>1211.127015</ele>
        <time>2022-05-16T01:02:16.020Z</time>
      </trkpt>
      <trkpt lat="48.00767" lon="6.97716">
        <ele>1217.854101</ele>
        <time>2022-05-16T01:03:15.632Z</time>
      </trkpt>
      <trkpt lat="48.00829" lon="6.97631">
        <ele>1224.311675</ele>
        <time>2022-05-16T01:04:20.446Z</time>
      </trkpt>
      <trkpt lat="48.00872" lon="6.97596">
        <ele>1229.272052</ele>
        <time>2022-05-16T01:05:01.052Z</time>
      </trkpt>
      <trkpt lat="48.00906" lon="6.97596">
        <ele>1232.743796</ele>
        <time>2022-05-16T01:05:30.573Z</time>
      </trkpt>
      <trkpt lat="48.00928" lon="6.97617">
        <ele>1235.443143</ele>
        <time>2022-05-16T01:05:54.623Z</time>
      </trkpt>
      <trkpt lat="48.00928" lon="6.97617">
        <ele>1235.443143</ele>
        <time>2022-05-16T01:05:54.623Z</time>
      </trkpt>
      <trkpt lat="48.0093" lon="6.97619">
        <ele>1235.721964</ele>
        <time>2022-05-16T01:05:56.743Z</time>
      </trkpt>
      <trkpt lat="48.00958" lon="6.97659">
        <ele>1239.652592</ele>
        <time>2022-05-16T01:06:29.559Z</time>
      </trkpt>
      <trkpt lat="48.00971" lon="6.9771">
        <ele>1242.253594</ele>
        <time>2022-05-16T01:06:59.907Z</time>
      </trkpt>
      <trkpt lat="48.0102" lon="6.9784">
        <ele>1248.900223</ele>
        <time>2022-05-16T01:08:12.627Z</time>
      </trkpt>
      <trkpt lat="48.0105" lon="6.97946">
        <ele>1250.994745</ele>
        <time>2022-05-16T01:08:43.644Z</time>
      </trkpt>
      <trkpt lat="48.0107" lon="6.97957">
        <ele>1250.195957</ele>
        <time>2022-05-16T01:08:50.025Z</time>
      </trkpt>
      <trkpt lat="48.01096" lon="6.97988">
        <ele>1248.942936</ele>
        <time>2022-05-16T01:08:58.975Z</time>
      </trkpt>
      <trkpt lat="48.0114" lon="6.98099">
        <ele>1245.672945</ele>
        <time>2022-05-16T01:09:19.400Z</time>
      </trkpt>
      <trkpt lat="48.01243" lon="6.98322">
        <ele>1227.108796</ele>
        <time>2022-05-16T01:09:57.768Z</time>
      </trkpt>
      <trkpt lat="48.0127" lon="6.98348">
        <ele>1223.480596</ele>
        <time>2022-05-16T01:10:04.481Z</time>
      </trkpt>
      <trkpt lat="48.01287" lon="6.98372">
        <ele>1220.816112</ele>
        <time>2022-05-16T01:10:09.282Z</time>
      </trkpt>
      <trkpt lat="48.01332" lon="6.98404">
        <ele>1214.982775</ele>
        <time>2022-05-16T01:10:19.773Z</time>
      </trkpt>
      <trkpt lat="48.01382" lon="6.98471">
        <ele>1207.309379</ele>
        <time>2022-05-16T01:10:33.579Z</time>
      </trkpt>
      <trkpt lat="48.01501" lon="6.98566">
        <ele>1195.480392</ele>
        <time>2022-05-16T01:11:03.498Z</time>
      </trkpt>
      <trkpt lat="48.01498" lon="6.9856">
        <ele>1195.082927</ele>
        <time>2022-05-16T01:11:04.551Z</time>
      </trkpt>
      <trkpt lat="48.01467" lon="6.98489">
        <ele>1190.337808</ele>
        <time>2022-05-16T01:11:17.208Z</time>
      </trkpt>
      <trkpt lat="48.01464" lon="6.98486">
        <ele>1190.124859</ele>
        <time>2022-05-16T01:11:17.700Z</time>
      </trkpt>
      <trkpt lat="48.01457" lon="6.98461">
        <ele>1189.139059</ele>
        <time>2022-05-16T01:11:21.698Z</time>
      </trkpt>
      <trkpt lat="48.01459" lon="6.98447">
        <ele>1188.633115</ele>
        <time>2022-05-16T01:11:24.105Z</time>
      </trkpt>
      <trkpt lat="48.01465" lon="6.9844">
        <ele>1188.231285</ele>
        <time>2022-05-16T01:11:25.846Z</time>
      </trkpt>
      <trkpt lat="48.0149" lon="6.98451">
        <ele>1186.818432</ele>
        <time>2022-05-16T01:11:32.040Z</time>
      </trkpt>
      <trkpt lat="48.01518" lon="6.98449">
        <ele>1185.284163</ele>
        <time>2022-05-16T01:11:38.804Z</time>
      </trkpt>
      <trkpt lat="48.01593" lon="6.98463">
        <ele>1181.232377</ele>
        <time>2022-05-16T01:11:57.325Z</time>
      </trkpt>
      <trkpt lat="48.01657" lon="6.98487">
        <ele>1179.56811</ele>
        <time>2022-05-16T01:12:13.453Z</time>
      </trkpt>
      <trkpt lat="48.01739" lon="6.98504">
        <ele>1177.922975</ele>
        <time>2022-05-16T01:12:38.665Z</time>
      </trkpt>
      <trkpt lat="48.01771" lon="6.98497">
        <ele>1177.283695</ele>
        <time>2022-05-16T01:12:48.996Z</time>
      </trkpt>
      <trkpt lat="48.01804" lon="6.98518">
        <ele>1175.809753</ele>
        <time>2022-05-16T01:12:59.417Z</time>
      </trkpt>
      <trkpt lat="48.01834" lon="6.98516">
        <ele>1174.370394</ele>
        <time>2022-05-16T01:13:07.275Z</time>
      </trkpt>
      <trkpt lat="48.01864" lon="6.98524">
        <ele>1172.924307</ele>
        <time>2022-05-16T01:13:14.411Z</time>
      </trkpt>
      <trkpt lat="48.01883" lon="6.98544">
        <ele>1171.825841</ele>
        <time>2022-05-16T01:13:18.012Z</time>
      </trkpt>
      <trkpt lat="48.01937" lon="6.98496">
        <ele>1168.813407</ele>
        <time>2022-05-16T01:13:27.023Z</time>
      </trkpt>
      <trkpt lat="48.01988" lon="6.98476">
        <ele>1164.098131</ele>
        <time>2022-05-16T01:13:34.477Z</time>
      </trkpt>
      <trkpt lat="48.01992" lon="6.98469">
        <ele>1163.446768</ele>
        <time>2022-05-16T01:13:35.350Z</time>
      </trkpt>
      <trkpt lat="48.02009" lon="6.98465">
        <ele>1161.770951</ele>
        <time>2022-05-16T01:13:37.887Z</time>
      </trkpt>
      <trkpt lat="48.02056" lon="6.98489">
        <ele>1157.018164</ele>
        <time>2022-05-16T01:13:44.534Z</time>
      </trkpt>
      <trkpt lat="48.0211" lon="6.98471">
        <ele>1151.704815</ele>
        <time>2022-05-16T01:13:51.920Z</time>
      </trkpt>
      <trkpt lat="48.02181" lon="6.98488">
        <ele>1143.720159</ele>
        <time>2022-05-16T01:14:01.576Z</time>
      </trkpt>
      <trkpt lat="48.02285" lon="6.98523">
        <ele>1131.681691</ele>
        <time>2022-05-16T01:14:15.714Z</time>
      </trkpt>
      <trkpt lat="48.02378" lon="6.98516">
        <ele>1122.941321</ele>
        <time>2022-05-16T01:14:28.200Z</time>
      </trkpt>
      <trkpt lat="48.02387" lon="6.98503">
        <ele>1121.81734</ele>
        <time>2022-05-16T01:14:29.774Z</time>
      </trkpt>
      <trkpt lat="48.02416" lon="6.98498">
        <ele>1119.150443</ele>
        <time>2022-05-16T01:14:33.835Z</time>
      </trkpt>
      <trkpt lat="48.02439" lon="6.98482">
        <ele>1116.777422</ele>
        <time>2022-05-16T01:14:37.516Z</time>
      </trkpt>
      <trkpt lat="48.02464" lon="6.98401">
        <ele>1113.88205</ele>
        <time>2022-05-16T01:14:46.428Z</time>
      </trkpt>
      <trkpt lat="48.02477" lon="6.98381">
        <ele>1113.615558</ele>
        <time>2022-05-16T01:14:49.582Z</time>
      </trkpt>
      <trkpt lat="48.02505" lon="6.9839">
        <ele>1113.200288</ele>
        <time>2022-05-16T01:14:54.094Z</time>
      </trkpt>
      <trkpt lat="48.02534" lon="6.98431">
        <ele>1112.621413</ele>
        <time>2022-05-16T01:15:04.160Z</time>
      </trkpt>
      <trkpt lat="48.02561" lon="6.98457">
        <ele>1112.163071</ele>
        <time>2022-05-16T01:15:13.512Z</time>
      </trkpt>
      <trkpt lat="48.02587" lon="6.98498">
        <ele>1111.883781</ele>
        <time>2022-05-16T01:15:24.710Z</time>
      </trkpt>
      <trkpt lat="48.02623" lon="6.9852">
        <ele>1112.382693</ele>
        <time>2022-05-16T01:15:35.681Z</time>
      </trkpt>
      <trkpt lat="48.02656" lon="6.98569">
        <ele>1112.966327</ele>
        <time>2022-05-16T01:15:51.041Z</time>
      </trkpt>
      <trkpt lat="48.02674" lon="6.98584">
        <ele>1113.238666</ele>
        <time>2022-05-16T01:15:58.060Z</time>
      </trkpt>
      <trkpt lat="48.02763" lon="6.98633">
        <ele>1113.216307</ele>
        <time>2022-05-16T01:16:19.971Z</time>
      </trkpt>
      <trkpt lat="48.02779" lon="6.98637">
        <ele>1112.783442</ele>
        <time>2022-05-16T01:16:23.057Z</time>
      </trkpt>
      <trkpt lat="48.0281" lon="6.98626">
        <ele>1111.951323</ele>
        <time>2022-05-16T01:16:28.716Z</time>
      </trkpt>
      <trkpt lat="48.02847" lon="6.98589">
        <ele>1110.785527</ele>
        <time>2022-05-16T01:16:36.348Z</time>
      </trkpt>
      <trkpt lat="48.02863" lon="6.98639">
        <ele>1109.811446</ele>
        <time>2022-05-16T01:16:45.940Z</time>
      </trkpt>
      <trkpt lat="48.02885" lon="6.98689">
        <ele>1107.29678</ele>
        <time>2022-05-16T01:16:55.423Z</time>
      </trkpt>
      <trkpt lat="48.02896" lon="6.98732">
        <ele>1104.444501</ele>
        <time>2022-05-16T01:17:01.948Z</time>
      </trkpt>
      <trkpt lat="48.02946" lon="6.98727">
        <ele>1099.732414</ele>
        <time>2022-05-16T01:17:12.323Z</time>
      </trkpt>
      <trkpt lat="48.03" lon="6.9875">
        <ele>1094.391175</ele>
        <time>2022-05-16T01:17:24.482Z</time>
      </trkpt>
      <trkpt lat="48.03023" lon="6.98744">
        <ele>1092.314511</ele>
        <time>2022-05-16T01:17:29.246Z</time>
      </trkpt>
      <trkpt lat="48.03056" lon="6.98724">
        <ele>1090.999314</ele>
        <time>2022-05-16T01:17:37.223Z</time>
      </trkpt>
      <trkpt lat="48.03071" lon="6.98682">
        <ele>1089.828316</ele>
        <time>2022-05-16T01:17:44.630Z</time>
      </trkpt>
      <trkpt lat="48.03089" lon="6.98679">
        <ele>1089.157437</ele>
        <time>2022-05-16T01:17:49.446Z</time>
      </trkpt>
      <trkpt lat="48.03132" lon="6.98648">
        <ele>1087.392639</ele>
        <time>2022-05-16T01:18:00.951Z</time>
      </trkpt>
      <trkpt lat="48.03197" lon="6.98596">
        <ele>1087.757131</ele>
        <time>2022-05-16T01:18:34.538Z</time>
      </trkpt>
      <trkpt lat="48.03255" lon="6.98525">
        <ele>1092.847486</ele>
        <time>2022-05-16T01:19:26.572Z</time>
      </trkpt>
      <trkpt lat="48.03204" lon="6.98647">
        <ele>1100.012118</ele>
        <time>2022-05-16T01:20:27.372Z</time>
      </trkpt>
      <trkpt lat="48.03151" lon="6.98802">
        <ele>1111.51044</ele>
        <time>2022-05-16T01:21:50.982Z</time>
      </trkpt>
      <trkpt lat="48.03123" lon="6.98857">
        <ele>1116.041815</ele>
        <time>2022-05-16T01:22:24.446Z</time>
      </trkpt>
      <trkpt lat="48.03118" lon="6.98874">
        <ele>1117.079375</ele>
        <time>2022-05-16T01:22:32.764Z</time>
      </trkpt>
      <trkpt lat="48.03123" lon="6.98921">
        <ele>1119.633454</ele>
        <time>2022-05-16T01:22:54.446Z</time>
      </trkpt>
      <trkpt lat="48.03111" lon="6.98947">
        <ele>1121.36092</ele>
        <time>2022-05-16T01:23:08.779Z</time>
      </trkpt>
      <trkpt lat="48.03064" lon="6.98975">
        <ele>1125.501463</ele>
        <time>2022-05-16T01:23:38.074Z</time>
      </trkpt>
      <trkpt lat="48.03025" lon="6.99023">
        <ele>1129.562954</ele>
        <time>2022-05-16T01:24:06.862Z</time>
      </trkpt>
      <trkpt lat="48.02975" lon="6.99061">
        <ele>1134.265004</ele>
        <time>2022-05-16T01:24:35.011Z</time>
      </trkpt>
      <trkpt lat="48.02962" lon="6.99086">
        <ele>1136.009525</ele>
        <time>2022-05-16T01:24:44.820Z</time>
      </trkpt>
      <trkpt lat="48.0296" lon="6.99103">
        <ele>1137.002715</ele>
        <time>2022-05-16T01:24:51.466Z</time>
      </trkpt>
      <trkpt lat="48.02964" lon="6.99143">
        <ele>1139.22377</ele>
        <time>2022-05-16T01:25:07.637Z</time>
      </trkpt>
      <trkpt lat="48.02982" lon="6.99199">
        <ele>1142.719549</ele>
        <time>2022-05-16T01:25:39.219Z</time>
      </trkpt>
      <trkpt lat="48.0299" lon="6.99246">
        <ele>1145.417869</ele>
        <time>2022-05-16T01:26:02.730Z</time>
      </trkpt>
      <trkpt lat="48.02982" lon="6.99375">
        <ele>1155.972315</ele>
        <time>2022-05-16T01:27:04.872Z</time>
      </trkpt>
      <trkpt lat="48.02979" lon="6.99386">
        <ele>1156.892547</ele>
        <time>2022-05-16T01:27:09.575Z</time>
      </trkpt>
      <trkpt lat="48.02993" lon="6.99376">
        <ele>1158.790429</ele>
        <time>2022-05-16T01:27:23.302Z</time>
      </trkpt>
      <trkpt lat="48.03025" lon="6.99298">
        <ele>1166.173246</ele>
        <time>2022-05-16T01:28:24.886Z</time>
      </trkpt>
      <trkpt lat="48.03051" lon="6.99266">
        <ele>1170.877305</ele>
        <time>2022-05-16T01:29:06.368Z</time>
      </trkpt>
      <trkpt lat="48.03064" lon="6.99286">
        <ele>1173.553356</ele>
        <time>2022-05-16T01:29:25.035Z</time>
      </trkpt>
      <trkpt lat="48.03068" lon="6.99344">
        <ele>1179.337975</ele>
        <time>2022-05-16T01:30:06.822Z</time>
      </trkpt>
      <trkpt lat="48.03073" lon="6.99366">
        <ele>1181.649782</ele>
        <time>2022-05-16T01:30:22.903Z</time>
      </trkpt>
      <trkpt lat="48.0308" lon="6.99383">
        <ele>1183.545634</ele>
        <time>2022-05-16T01:30:31.622Z</time>
      </trkpt>
      <trkpt lat="48.03095" lon="6.99402">
        <ele>1186.465517</ele>
        <time>2022-05-16T01:30:55.805Z</time>
      </trkpt>
      <trkpt lat="48.03116" lon="6.99384">
        <ele>1189.98012</ele>
        <time>2022-05-16T01:31:15.323Z</time>
      </trkpt>
      <trkpt lat="48.03129" lon="6.99386">
        <ele>1191.931054</ele>
        <time>2022-05-16T01:31:29.515Z</time>
      </trkpt>
      <trkpt lat="48.0317" lon="6.99411">
        <ele>1197.950194</ele>
        <time>2022-05-16T01:32:10.369Z</time>
      </trkpt>
      <trkpt lat="48.03229" lon="6.99429">
        <ele>1206.00509</ele>
        <time>2022-05-16T01:33:16.100Z</time>
      </trkpt>
      <trkpt lat="48.0331" lon="6.99464">
        <ele>1217.139112</ele>
        <time>2022-05-16T01:34:16.659Z</time>
      </trkpt>
      <trkpt lat="48.0334" lon="6.99497">
        <ele>1220.637473</ele>
        <time>2022-05-16T01:34:42.114Z</time>
      </trkpt>
      <trkpt lat="48.03363" lon="6.99553">
        <ele>1224.605542</ele>
        <time>2022-05-16T01:35:13.165Z</time>
      </trkpt>
      <trkpt lat="48.03409" lon="6.99775">
        <ele>1236.764735</ele>
        <time>2022-05-16T01:36:49.044Z</time>
      </trkpt>
      <trkpt lat="48.03422" lon="6.99879">
        <ele>1240.777373</ele>
        <time>2022-05-16T01:37:21.385Z</time>
      </trkpt>
      <trkpt lat="48.03424" lon="6.99945">
        <ele>1243.254714</ele>
        <time>2022-05-16T01:37:38.833Z</time>
      </trkpt>
      <trkpt lat="48.03409" lon="6.99989">
        <ele>1244.786472</ele>
        <time>2022-05-16T01:37:51.602Z</time>
      </trkpt>
      <trkpt lat="48.03408" lon="7.00006">
        <ele>1245.238429</ele>
        <time>2022-05-16T01:37:55.526Z</time>
      </trkpt>
      <trkpt lat="48.03417" lon="7.00037">
        <ele>1246.154473</ele>
        <time>2022-05-16T01:38:04.171Z</time>
      </trkpt>
      <trkpt lat="48.0342" lon="7.00069">
        <ele>1247.01942</ele>
        <time>2022-05-16T01:38:12.299Z</time>
      </trkpt>
      <trkpt lat="48.03424" lon="7.00158">
        <ele>1249.398394</ele>
        <time>2022-05-16T01:38:35.859Z</time>
      </trkpt>
      <trkpt lat="48.03422" lon="7.00211">
        <ele>1250.840266</ele>
        <time>2022-05-16T01:38:51.606Z</time>
      </trkpt>
      <trkpt lat="48.03437" lon="7.00367">
        <ele>1255.188954</ele>
        <time>2022-05-16T01:39:38.310Z</time>
      </trkpt>
      <trkpt lat="48.03438" lon="7.00435">
        <ele>1257.087272</ele>
        <time>2022-05-16T01:39:58.827Z</time>
      </trkpt>
      <trkpt lat="48.03444" lon="7.00497">
        <ele>1258.642664</ele>
        <time>2022-05-16T01:40:14.055Z</time>
      </trkpt>
      <trkpt lat="48.03474" lon="7.00591">
        <ele>1258.874643</ele>
        <time>2022-05-16T01:40:30.638Z</time>
      </trkpt>
      <trkpt lat="48.03474" lon="7.00605">
        <ele>1258.907766</ele>
        <time>2022-05-16T01:40:33.567Z</time>
      </trkpt>
      <trkpt lat="48.03501" lon="7.00656">
        <ele>1259.052851</ele>
        <time>2022-05-16T01:40:41.065Z</time>
      </trkpt>
      <trkpt lat="48.03543" lon="7.00728">
        <ele>1259.395253</ele>
        <time>2022-05-16T01:40:51.773Z</time>
      </trkpt>
      <trkpt lat="48.03554" lon="7.00747">
        <ele>1259.646147</ele>
        <time>2022-05-16T01:40:54.385Z</time>
      </trkpt>
      <trkpt lat="48.03569" lon="7.00768">
        <ele>1259.931368</ele>
        <time>2022-05-16T01:40:59.093Z</time>
      </trkpt>
      <trkpt lat="48.03587" lon="7.00783">
        <ele>1260.239205</ele>
        <time>2022-05-16T01:41:02.350Z</time>
      </trkpt>
      <trkpt lat="48.03585" lon="7.0081">
        <ele>1260.501715</ele>
        <time>2022-05-16T01:41:06.683Z</time>
      </trkpt>
      <trkpt lat="48.0359" lon="7.00828">
        <ele>1260.698492</ele>
        <time>2022-05-16T01:41:09.119Z</time>
      </trkpt>
      <trkpt lat="48.036" lon="7.00837">
        <ele>1260.856684</ele>
        <time>2022-05-16T01:41:12.053Z</time>
      </trkpt>
      <trkpt lat="48.03608" lon="7.00842">
        <ele>1260.983989</ele>
        <time>2022-05-16T01:41:14.736Z</time>
      </trkpt>
      <trkpt lat="48.03631" lon="7.00854">
        <ele>1261.33608</ele>
        <time>2022-05-16T01:41:21.596Z</time>
      </trkpt>
      <trkpt lat="48.03817" lon="7.00969">
        <ele>1272.993648</ele>
        <time>2022-05-16T01:43:09.321Z</time>
      </trkpt>
      <trkpt lat="48.03822" lon="7.0098">
        <ele>1273.557274</ele>
        <time>2022-05-16T01:43:15.693Z</time>
      </trkpt>
      <trkpt lat="48.03859" lon="7.00985">
        <ele>1276.220164</ele>
        <time>2022-05-16T01:43:42.357Z</time>
      </trkpt>
      <trkpt lat="48.0399" lon="7.01035">
        <ele>1286.134604</ele>
        <time>2022-05-16T01:45:16.285Z</time>
      </trkpt>
      <trkpt lat="48.04019" lon="7.01044">
        <ele>1287.725548</ele>
        <time>2022-05-16T01:45:35.076Z</time>
      </trkpt>
      <trkpt lat="48.04097" lon="7.01046">
        <ele>1291.09747</ele>
        <time>2022-05-16T01:46:20.084Z</time>
      </trkpt>
      <trkpt lat="48.04137" lon="7.01082">
        <ele>1293.077918</ele>
        <time>2022-05-16T01:46:44.050Z</time>
      </trkpt>
      <trkpt lat="48.04138" lon="7.01088">
        <ele>1293.252793</ele>
        <time>2022-05-16T01:46:46.300Z</time>
      </trkpt>
      <trkpt lat="48.0429" lon="7.00972">
        <ele>1295.176655</ele>
        <time>2022-05-16T01:47:51.323Z</time>
      </trkpt>
      <trkpt lat="48.04323" lon="7.01023">
        <ele>1295.120818</ele>
        <time>2022-05-16T01:48:04.331Z</time>
      </trkpt>
      <trkpt lat="48.04394" lon="7.01106">
        <ele>1291.438902</ele>
        <time>2022-05-16T01:48:27.357Z</time>
      </trkpt>
      <trkpt lat="48.04407" lon="7.01107">
        <ele>1290.923783</ele>
        <time>2022-05-16T01:48:30.458Z</time>
      </trkpt>
      <trkpt lat="48.04509" lon="7.01195">
        <ele>1285.288301</ele>
        <time>2022-05-16T01:48:58.317Z</time>
      </trkpt>
      <trkpt lat="48.04628" lon="7.01206">
        <ele>1278.194017</ele>
        <time>2022-05-16T01:49:26.305Z</time>
      </trkpt>
      <trkpt lat="48.04771" lon="7.01408">
        <ele>1265.488453</ele>
        <time>2022-05-16T01:50:11.835Z</time>
      </trkpt>
      <trkpt lat="48.04787" lon="7.0142">
        <ele>1264.077044</ele>
        <time>2022-05-16T01:50:15.733Z</time>
      </trkpt>
      <trkpt lat="48.04831" lon="7.0145">
        <ele>1260.150238</ele>
        <time>2022-05-16T01:50:26.642Z</time>
      </trkpt>
      <trkpt lat="48.04833" lon="7.01456">
        <ele>1259.777758</ele>
        <time>2022-05-16T01:50:27.631Z</time>
      </trkpt>
      <trkpt lat="48.04979" lon="7.01546">
        <ele>1247.456825</ele>
        <time>2022-05-16T01:51:02.594Z</time>
      </trkpt>
      <trkpt lat="48.04979" lon="7.01546">
        <ele>1247.456825</ele>
        <time>2022-05-16T01:51:02.594Z</time>
      </trkpt>
      <trkpt lat="48.0515" lon="7.01599">
        <ele>1234.994595</ele>
        <time>2022-05-16T01:51:42.617Z</time>
      </trkpt>
      <trkpt lat="48.05185" lon="7.01616">
        <ele>1232.492986</ele>
        <time>2022-05-16T01:51:50.863Z</time>
      </trkpt>
      <trkpt lat="48.05183" lon="7.0165">
        <ele>1230.934104</ele>
        <time>2022-05-16T01:51:53.692Z</time>
      </trkpt>
      <trkpt lat="48.05181" lon="7.01665">
        <ele>1230.24309</ele>
        <time>2022-05-16T01:51:54.979Z</time>
      </trkpt>
      <trkpt lat="48.05169" lon="7.0181">
        <ele>1224.940083</ele>
        <time>2022-05-16T01:52:07.585Z</time>
      </trkpt>
      <trkpt lat="48.05164" lon="7.01907">
        <ele>1223.069638</ele>
        <time>2022-05-16T01:52:16.608Z</time>
      </trkpt>
      <trkpt lat="48.05168" lon="7.01927">
        <ele>1222.676243</ele>
        <time>2022-05-16T01:52:18.465Z</time>
      </trkpt>
      <trkpt lat="48.05191" lon="7.01978">
        <ele>1221.485321</ele>
        <time>2022-05-16T01:52:25.244Z</time>
      </trkpt>
      <trkpt lat="48.05201" lon="7.01983">
        <ele>1221.184128</ele>
        <time>2022-05-16T01:52:29.319Z</time>
      </trkpt>
      <trkpt lat="48.05222" lon="7.02015">
        <ele>1221.168059</ele>
        <time>2022-05-16T01:52:39.972Z</time>
      </trkpt>
      <trkpt lat="48.0526" lon="7.02049">
        <ele>1222.450118</ele>
        <time>2022-05-16T01:52:59.911Z</time>
      </trkpt>
      <trkpt lat="48.05403" lon="7.02185">
        <ele>1227.944224</ele>
        <time>2022-05-16T01:54:24.432Z</time>
      </trkpt>
      <trkpt lat="48.05476" lon="7.02241">
        <ele>1231.449935</ele>
        <time>2022-05-16T01:55:10.942Z</time>
      </trkpt>
      <trkpt lat="48.05503" lon="7.02266">
        <ele>1232.80949</ele>
        <time>2022-05-16T01:55:29.436Z</time>
      </trkpt>
      <trkpt lat="48.05523" lon="7.02294">
        <ele>1233.513957</ele>
        <time>2022-05-16T01:55:44.559Z</time>
      </trkpt>
      <trkpt lat="48.05576" lon="7.02362">
        <ele>1233.408701</ele>
        <time>2022-05-16T01:56:12.599Z</time>
      </trkpt>
      <trkpt lat="48.05615" lon="7.02404">
        <ele>1233.336286</ele>
        <time>2022-05-16T01:56:26.575Z</time>
      </trkpt>
      <trkpt lat="48.05601" lon="7.02414">
        <ele>1233.312675</ele>
        <time>2022-05-16T01:56:36.359Z</time>
      </trkpt>
      <trkpt lat="48.05615" lon="7.02404">
        <ele>1233.289064</ele>
        <time>2022-05-16T01:56:46.530Z</time>
      </trkpt>
      <trkpt lat="48.05651" lon="7.02423">
        <ele>1231.822806</ele>
        <time>2022-05-16T01:56:56.402Z</time>
      </trkpt>
      <trkpt lat="48.05671" lon="7.02421">
        <ele>1230.214907</ele>
        <time>2022-05-16T01:57:01.177Z</time>
      </trkpt>
      <trkpt lat="48.05736" lon="7.02384">
        <ele>1224.568332</ele>
        <time>2022-05-16T01:57:16.543Z</time>
      </trkpt>
      <trkpt lat="48.05792" lon="7.02306">
        <ele>1218.252606</ele>
        <time>2022-05-16T01:57:32.635Z</time>
      </trkpt>
      <trkpt lat="48.05816" lon="7.02303">
        <ele>1215.530455</ele>
        <time>2022-05-16T01:57:38.055Z</time>
      </trkpt>
      <trkpt lat="48.05859" lon="7.02308">
        <ele>1210.919841</ele>
        <time>2022-05-16T01:57:47.062Z</time>
      </trkpt>
      <trkpt lat="48.05921" lon="7.02269">
        <ele>1203.504992</ele>
        <time>2022-05-16T01:58:01.515Z</time>
      </trkpt>
      <trkpt lat="48.05946" lon="7.02276">
        <ele>1200.758808</ele>
        <time>2022-05-16T01:58:06.821Z</time>
      </trkpt>
      <trkpt lat="48.05975" lon="7.02267">
        <ele>1197.596029</ele>
        <time>2022-05-16T01:58:13.049Z</time>
      </trkpt>
      <trkpt lat="48.05999" lon="7.02221">
        <ele>1193.632514</ele>
        <time>2022-05-16T01:58:21.249Z</time>
      </trkpt>
      <trkpt lat="48.06083" lon="7.02173">
        <ele>1184.421936</ele>
        <time>2022-05-16T01:58:40.659Z</time>
      </trkpt>
      <trkpt lat="48.0612" lon="7.02166">
        <ele>1180.525275</ele>
        <time>2022-05-16T01:58:48.829Z</time>
      </trkpt>
      <trkpt lat="48.06167" lon="7.02177">
        <ele>1175.309082</ele>
        <time>2022-05-16T01:58:58.692Z</time>
      </trkpt>
      <trkpt lat="48.062" lon="7.02177">
        <ele>1171.561742</ele>
        <time>2022-05-16T01:59:05.702Z</time>
      </trkpt>
      <trkpt lat="48.06265" lon="7.02206">
        <ele>1164.017181</ele>
        <time>2022-05-16T01:59:19.882Z</time>
      </trkpt>
      <trkpt lat="48.06274" lon="7.02191">
        <ele>1162.472985</ele>
        <time>2022-05-16T01:59:22.702Z</time>
      </trkpt>
      <trkpt lat="48.06292" lon="7.02202">
        <ele>1160.18092</ele>
        <time>2022-05-16T01:59:27.236Z</time>
      </trkpt>
      <trkpt lat="48.06311" lon="7.022">
        <ele>1157.598441</ele>
        <time>2022-05-16T01:59:31.046Z</time>
      </trkpt>
      <trkpt lat="48.06339" lon="7.02228">
        <ele>1152.85697</ele>
        <time>2022-05-16T01:59:36.569Z</time>
      </trkpt>
      <trkpt lat="48.0637" lon="7.02252">
        <ele>1147.960377</ele>
        <time>2022-05-16T01:59:42.091Z</time>
      </trkpt>
      <trkpt lat="48.06372" lon="7.02268">
        <ele>1146.368434</ele>
        <time>2022-05-16T01:59:43.475Z</time>
      </trkpt>
      <trkpt lat="48.06371" lon="7.02294">
        <ele>1143.926466</ele>
        <time>2022-05-16T01:59:45.571Z</time>
      </trkpt>
      <trkpt lat="48.06357" lon="7.02384">
        <ele>1135.274978</ele>
        <time>2022-05-16T01:59:52.930Z</time>
      </trkpt>
      <trkpt lat="48.06358" lon="7.02427">
        <ele>1130.887213</ele>
        <time>2022-05-16T01:59:56.396Z</time>
      </trkpt>
      <trkpt lat="48.0637" lon="7.02466">
        <ele>1126.516662</ele>
        <time>2022-05-16T01:59:59.840Z</time>
      </trkpt>
      <trkpt lat="48.06376" lon="7.02487">
        <ele>1124.199998</ele>
        <time>2022-05-16T02:00:01.552Z</time>
      </trkpt>
      <trkpt lat="48.06392" lon="7.0254">
        <ele>1118.188231</ele>
        <time>2022-05-16T02:00:05.987Z</time>
      </trkpt>
      <trkpt lat="48.0641" lon="7.02631">
        <ele>1108.448554</ele>
        <time>2022-05-16T02:00:13.216Z</time>
      </trkpt>
      <trkpt lat="48.06416" lon="7.02715">
        <ele>1100.698617</ele>
        <time>2022-05-16T02:00:19.614Z</time>
      </trkpt>
      <trkpt lat="48.06417" lon="7.02729">
        <ele>1099.375628</ele>
        <time>2022-05-16T02:00:21.135Z</time>
      </trkpt>
      <trkpt lat="48.06423" lon="7.02804">
        <ele>1092.569204</ele>
        <time>2022-05-16T02:00:28.894Z</time>
      </trkpt>
      <trkpt lat="48.06423" lon="7.02826">
        <ele>1090.588386</ele>
        <time>2022-05-16T02:00:31.303Z</time>
      </trkpt>
      <trkpt lat="48.0642" lon="7.02843">
        <ele>1088.987496</ele>
        <time>2022-05-16T02:00:33.164Z</time>
      </trkpt>
      <trkpt lat="48.06419" lon="7.0285">
        <ele>1088.328112</ele>
        <time>2022-05-16T02:00:33.904Z</time>
      </trkpt>
      <trkpt lat="48.06418" lon="7.02856">
        <ele>1087.798364</ele>
        <time>2022-05-16T02:00:34.593Z</time>
      </trkpt>
      <trkpt lat="48.06392" lon="7.02973">
        <ele>1079.232706</ele>
        <time>2022-05-16T02:00:44.516Z</time>
      </trkpt>
      <trkpt lat="48.0638" lon="7.02999">
        <ele>1077.538711</ele>
        <time>2022-05-16T02:00:47.090Z</time>
      </trkpt>
      <trkpt lat="48.06373" lon="7.03034">
        <ele>1075.547058</ele>
        <time>2022-05-16T02:00:50.125Z</time>
      </trkpt>
      <trkpt lat="48.06391" lon="7.03148">
        <ele>1069.174437</ele>
        <time>2022-05-16T02:00:59.677Z</time>
      </trkpt>
      <trkpt lat="48.06367" lon="7.0324">
        <ele>1068.361656</ele>
        <time>2022-05-16T02:01:17.740Z</time>
      </trkpt>
      <trkpt lat="48.06353" lon="7.0338">
        <ele>1067.949601</ele>
        <time>2022-05-16T02:01:35.531Z</time>
      </trkpt>
      <trkpt lat="48.06358" lon="7.03406">
        <ele>1067.868577</ele>
        <time>2022-05-16T02:01:39.344Z</time>
      </trkpt>
      <trkpt lat="48.06377" lon="7.03462">
        <ele>1068.134681</ele>
        <time>2022-05-16T02:01:48.911Z</time>
      </trkpt>
      <trkpt lat="48.06379" lon="7.03512">
        <ele>1068.429216</ele>
        <time>2022-05-16T02:01:58.152Z</time>
      </trkpt>
      <trkpt lat="48.06374" lon="7.03551">
        <ele>1068.661473</ele>
        <time>2022-05-16T02:02:05.440Z</time>
      </trkpt>
      <trkpt lat="48.06363" lon="7.03582">
        <ele>1068.866574</ele>
        <time>2022-05-16T02:02:11.479Z</time>
      </trkpt>
      <trkpt lat="48.06314" lon="7.03663">
        <ele>1069.185279</ele>
        <time>2022-05-16T02:02:28.551Z</time>
      </trkpt>
      <trkpt lat="48.06304" lon="7.03743">
        <ele>1068.06359</ele>
        <time>2022-05-16T02:02:38.049Z</time>
      </trkpt>
      <trkpt lat="48.06281" lon="7.03823">
        <ele>1066.860486</ele>
        <time>2022-05-16T02:02:47.171Z</time>
      </trkpt>
      <trkpt lat="48.06232" lon="7.03897">
        <ele>1064.642882</ele>
        <time>2022-05-16T02:02:56.968Z</time>
      </trkpt>
      <trkpt lat="48.06166" lon="7.03978">
        <ele>1057.749525</ele>
        <time>2022-05-16T02:03:07.703Z</time>
      </trkpt>
      <trkpt lat="48.061" lon="7.041">
        <ele>1049.729036</ele>
        <time>2022-05-16T02:03:20.172Z</time>
      </trkpt>
      <trkpt lat="48.06095" lon="7.04106">
        <ele>1049.351845</ele>
        <time>2022-05-16T02:03:21.147Z</time>
      </trkpt>
      <trkpt lat="48.06089" lon="7.04112">
        <ele>1048.857385</ele>
        <time>2022-05-16T02:03:22.411Z</time>
      </trkpt>
      <trkpt lat="48.06052" lon="7.04138">
        <ele>1046.306773</ele>
        <time>2022-05-16T02:03:27.441Z</time>
      </trkpt>
      <trkpt lat="48.06047" lon="7.04148">
        <ele>1045.840792</ele>
        <time>2022-05-16T02:03:28.472Z</time>
      </trkpt>
      <trkpt lat="48.06045" lon="7.04162">
        <ele>1045.20318</ele>
        <time>2022-05-16T02:03:29.874Z</time>
      </trkpt>
      <trkpt lat="48.06053" lon="7.042">
        <ele>1043.558701</ele>
        <time>2022-05-16T02:03:33.314Z</time>
      </trkpt>
      <trkpt lat="48.06077" lon="7.04285">
        <ele>1039.794432</ele>
        <time>2022-05-16T02:03:42.097Z</time>
      </trkpt>
      <trkpt lat="48.06101" lon="7.04314">
        <ele>1038.684179</ele>
        <time>2022-05-16T02:03:47.212Z</time>
      </trkpt>
      <trkpt lat="48.06193" lon="7.04329">
        <ele>1035.304468</ele>
        <time>2022-05-16T02:04:02.660Z</time>
      </trkpt>
      <trkpt lat="48.0619" lon="7.04331">
        <ele>1035.180875</ele>
        <time>2022-05-16T02:04:03.463Z</time>
      </trkpt>
      <trkpt lat="48.06237" lon="7.04355">
        <ele>1033.282025</ele>
        <time>2022-05-16T02:04:16.237Z</time>
      </trkpt>
      <trkpt lat="48.06292" lon="7.04385">
        <ele>1023.248024</ele>
        <time>2022-05-16T02:04:28.215Z</time>
      </trkpt>
      <trkpt lat="48.06312" lon="7.04408">
        <ele>1018.938366</ele>
        <time>2022-05-16T02:04:33.286Z</time>
      </trkpt>
      <trkpt lat="48.06332" lon="7.04462">
        <ele>1012.053403</ele>
        <time>2022-05-16T02:04:41.212Z</time>
      </trkpt>
      <trkpt lat="48.06333" lon="7.04524">
        <ele>1004.980376</ele>
        <time>2022-05-16T02:04:49.278Z</time>
      </trkpt>
      <trkpt lat="48.06321" lon="7.0457">
        <ele>998.955656</ele>
        <time>2022-05-16T02:04:55.746Z</time>
      </trkpt>
      <trkpt lat="48.06302" lon="7.04594">
        <ele>994.392274</ele>
        <time>2022-05-16T02:05:00.515Z</time>
      </trkpt>
      <trkpt lat="48.06226" lon="7.04628">
        <ele>979.413881</ele>
        <time>2022-05-16T02:05:15.994Z</time>
      </trkpt>
      <trkpt lat="48.0608" lon="7.04635">
        <ele>955.723866</ele>
        <time>2022-05-16T02:05:45.910Z</time>
      </trkpt>
      <trkpt lat="48.05961" lon="7.04642">
        <ele>938.115994</ele>
        <time>2022-05-16T02:06:10.007Z</time>
      </trkpt>
      <trkpt lat="48.05968" lon="7.04701">
        <ele>932.054598</ele>
        <time>2022-05-16T02:06:18.165Z</time>
      </trkpt>
      <trkpt lat="48.05999" lon="7.04748">
        <ele>925.398511</ele>
        <time>2022-05-16T02:06:27.210Z</time>
      </trkpt>
      <trkpt lat="48.0604" lon="7.04826">
        <ele>915.371739</ele>
        <time>2022-05-16T02:06:40.585Z</time>
      </trkpt>
      <trkpt lat="48.0609" lon="7.04893">
        <ele>906.743658</ele>
        <time>2022-05-16T02:06:53.853Z</time>
      </trkpt>
      <trkpt lat="48.06111" lon="7.0494">
        <ele>901.8726</ele>
        <time>2022-05-16T02:07:01.655Z</time>
      </trkpt>
      <trkpt lat="48.06095" lon="7.04981">
        <ele>897.706966</ele>
        <time>2022-05-16T02:07:08.522Z</time>
      </trkpt>
      <trkpt lat="48.06078" lon="7.05035">
        <ele>892.557285</ele>
        <time>2022-05-16T02:07:17.123Z</time>
      </trkpt>
      <trkpt lat="48.0616" lon="7.05132">
        <ele>891.168503</ele>
        <time>2022-05-16T02:07:41.417Z</time>
      </trkpt>
      <trkpt lat="48.06186" lon="7.05191">
        <ele>890.595816</ele>
        <time>2022-05-16T02:08:05.600Z</time>
      </trkpt>
      <trkpt lat="48.06204" lon="7.052">
        <ele>890.363399</ele>
        <time>2022-05-16T02:08:20.736Z</time>
      </trkpt>
      <trkpt lat="48.06234" lon="7.05198">
        <ele>891.857776</ele>
        <time>2022-05-16T02:08:43.459Z</time>
      </trkpt>
      <trkpt lat="48.06336" lon="7.0511">
        <ele>901.692136</ele>
        <time>2022-05-16T02:10:09.485Z</time>
      </trkpt>
      <trkpt lat="48.06381" lon="7.05053">
        <ele>906.588663</ele>
        <time>2022-05-16T02:10:54.483Z</time>
      </trkpt>
      <trkpt lat="48.06459" lon="7.04991">
        <ele>914.029114</ele>
        <time>2022-05-16T02:12:06.498Z</time>
      </trkpt>
      <trkpt lat="48.0656" lon="7.04859">
        <ele>922.152007</ele>
        <time>2022-05-16T02:13:35.099Z</time>
      </trkpt>
      <trkpt lat="48.06581" lon="7.04832">
        <ele>922.984944</ele>
        <time>2022-05-16T02:13:49.477Z</time>
      </trkpt>
      <trkpt lat="48.06596" lon="7.04828">
        <ele>923.445931</ele>
        <time>2022-05-16T02:13:57.204Z</time>
      </trkpt>
      <trkpt lat="48.06639" lon="7.04833">
        <ele>924.739847</ele>
        <time>2022-05-16T02:14:14.207Z</time>
      </trkpt>
      <trkpt lat="48.0666" lon="7.04822">
        <ele>925.414513</ele>
        <time>2022-05-16T02:14:22.252Z</time>
      </trkpt>
      <trkpt lat="48.06668" lon="7.04808">
        <ele>925.805318</ele>
        <time>2022-05-16T02:14:25.557Z</time>
      </trkpt>
      <trkpt lat="48.06698" lon="7.0482">
        <ele>924.701194</ele>
        <time>2022-05-16T02:14:30.058Z</time>
      </trkpt>
      <trkpt lat="48.06724" lon="7.04812">
        <ele>923.696338</ele>
        <time>2022-05-16T02:14:33.778Z</time>
      </trkpt>
      <trkpt lat="48.06816" lon="7.0471">
        <ele>919.474771</ele>
        <time>2022-05-16T02:14:49.630Z</time>
      </trkpt>
      <trkpt lat="48.06831" lon="7.04705">
        <ele>918.742533</ele>
        <time>2022-05-16T02:14:51.785Z</time>
      </trkpt>
      <trkpt lat="48.06856" lon="7.0471">
        <ele>917.287275</ele>
        <time>2022-05-16T02:14:54.992Z</time>
      </trkpt>
      <trkpt lat="48.06883" lon="7.04737">
        <ele>915.409578</ele>
        <time>2022-05-16T02:14:59.079Z</time>
      </trkpt>
      <trkpt lat="48.06904" lon="7.04782">
        <ele>913.307544</ele>
        <time>2022-05-16T02:15:03.659Z</time>
      </trkpt>
      <trkpt lat="48.06913" lon="7.04849">
        <ele>910.669969</ele>
        <time>2022-05-16T02:15:09.656Z</time>
      </trkpt>
      <trkpt lat="48.06911" lon="7.04884">
        <ele>909.297821</ele>
        <time>2022-05-16T02:15:12.669Z</time>
      </trkpt>
      <trkpt lat="48.0689" lon="7.04996">
        <ele>908.399093</ele>
        <time>2022-05-16T02:15:23.424Z</time>
      </trkpt>
      <trkpt lat="48.06895" lon="7.05013">
        <ele>908.332267</ele>
        <time>2022-05-16T02:15:26.968Z</time>
      </trkpt>
      <trkpt lat="48.06892" lon="7.05177">
        <ele>908.406914</ele>
        <time>2022-05-16T02:16:10.289Z</time>
      </trkpt>
      <trkpt lat="48.06898" lon="7.05382">
        <ele>916.157463</ele>
        <time>2022-05-16T02:17:37.364Z</time>
      </trkpt>
      <trkpt lat="48.06892" lon="7.05606">
        <ele>924.767124</ele>
        <time>2022-05-16T02:19:15.028Z</time>
      </trkpt>
      <trkpt lat="48.0691" lon="7.05679">
        <ele>927.774798</ele>
        <time>2022-05-16T02:19:42.402Z</time>
      </trkpt>
      <trkpt lat="48.06964" lon="7.05781">
        <ele>932.967769</ele>
        <time>2022-05-16T02:20:27.791Z</time>
      </trkpt>
      <trkpt lat="48.06986" lon="7.05799">
        <ele>934.48799</ele>
        <time>2022-05-16T02:20:43.566Z</time>
      </trkpt>
      <trkpt lat="48.06997" lon="7.05801">
        <ele>935.104032</ele>
        <time>2022-05-16T02:20:50.235Z</time>
      </trkpt>
      <trkpt lat="48.07003" lon="7.05789">
        <ele>935.699396</ele>
        <time>2022-05-16T02:20:56.601Z</time>
      </trkpt>
      <trkpt lat="48.07003" lon="7.05777">
        <ele>936.20473</ele>
        <time>2022-05-16T02:21:02.594Z</time>
      </trkpt>
      <trkpt lat="48.06985" lon="7.0571">
        <ele>939.081479</ele>
        <time>2022-05-16T02:21:36.591Z</time>
      </trkpt>
      <trkpt lat="48.06982" lon="7.05672">
        <ele>941.577618</ele>
        <time>2022-05-16T02:21:55.181Z</time>
      </trkpt>
      <trkpt lat="48.06987" lon="7.05632">
        <ele>944.271247</ele>
        <time>2022-05-16T02:22:15.945Z</time>
      </trkpt>
      <trkpt lat="48.07006" lon="7.05531">
        <ele>951.172926</ele>
        <time>2022-05-16T02:23:12.690Z</time>
      </trkpt>
      <trkpt lat="48.07048" lon="7.05373">
        <ele>962.917711</ele>
        <time>2022-05-16T02:24:54.329Z</time>
      </trkpt>
      <trkpt lat="48.07069" lon="7.05255">
        <ele>971.679504</ele>
        <time>2022-05-16T02:26:05.770Z</time>
      </trkpt>
      <trkpt lat="48.0714" lon="7.05024">
        <ele>988.161016</ele>
        <time>2022-05-16T02:28:19.496Z</time>
      </trkpt>
      <trkpt lat="48.07131" lon="7.04845">
        <ele>997.929943</ele>
        <time>2022-05-16T02:29:52.574Z</time>
      </trkpt>
      <trkpt lat="48.07145" lon="7.04816">
        <ele>999.692193</ele>
        <time>2022-05-16T02:30:07.867Z</time>
      </trkpt>
      <trkpt lat="48.07151" lon="7.04815">
        <ele>1000.081248</ele>
        <time>2022-05-16T02:30:10.480Z</time>
      </trkpt>
      <trkpt lat="48.07158" lon="7.04827">
        <ele>1000.84834</ele>
        <time>2022-05-16T02:30:20.204Z</time>
      </trkpt>
      <trkpt lat="48.07189" lon="7.04958">
        <ele>1006.630423</ele>
        <time>2022-05-16T02:31:13.655Z</time>
      </trkpt>
      <trkpt lat="48.07194" lon="7.05046">
        <ele>1008.292153</ele>
        <time>2022-05-16T02:31:51.551Z</time>
      </trkpt>
      <trkpt lat="48.07178" lon="7.05201">
        <ele>1011.014446</ele>
        <time>2022-05-16T02:32:29.411Z</time>
      </trkpt>
      <trkpt lat="48.0718" lon="7.05261">
        <ele>1010.110561</ele>
        <time>2022-05-16T02:32:40.653Z</time>
      </trkpt>
      <trkpt lat="48.07167" lon="7.05355">
        <ele>1008.666516</ele>
        <time>2022-05-16T02:32:57.559Z</time>
      </trkpt>
      <trkpt lat="48.07158" lon="7.05476">
        <ele>1006.810096</ele>
        <time>2022-05-16T02:33:18.541Z</time>
      </trkpt>
      <trkpt lat="48.07162" lon="7.05523">
        <ele>1006.016809</ele>
        <time>2022-05-16T02:33:26.633Z</time>
      </trkpt>
      <trkpt lat="48.07186" lon="7.05605">
        <ele>1004.51527</ele>
        <time>2022-05-16T02:33:42.191Z</time>
      </trkpt>
      <trkpt lat="48.07244" lon="7.05702">
        <ele>1002.608343</ele>
        <time>2022-05-16T02:34:05.814Z</time>
      </trkpt>
      <trkpt lat="48.07292" lon="7.05757">
        <ele>1003.159818</ele>
        <time>2022-05-16T02:34:24.374Z</time>
      </trkpt>
      <trkpt lat="48.07337" lon="7.05784">
        <ele>1003.601094</ele>
        <time>2022-05-16T02:34:41.205Z</time>
      </trkpt>
      <trkpt lat="48.07371" lon="7.05827">
        <ele>1004.003466</ele>
        <time>2022-05-16T02:34:59.315Z</time>
      </trkpt>
      <trkpt lat="48.07375" lon="7.05847">
        <ele>1004.12838</ele>
        <time>2022-05-16T02:35:05.654Z</time>
      </trkpt>
      <trkpt lat="48.07367" lon="7.05891">
        <ele>1006.062093</ele>
        <time>2022-05-16T02:35:21.888Z</time>
      </trkpt>
      <trkpt lat="48.0734" lon="7.05998">
        <ele>1011.690258</ele>
        <time>2022-05-16T02:36:11.274Z</time>
      </trkpt>
      <trkpt lat="48.07323" lon="7.06278">
        <ele>1027.278652</ele>
        <time>2022-05-16T02:38:45.680Z</time>
      </trkpt>
      <trkpt lat="48.07428" lon="7.06122">
        <ele>1037.398432</ele>
        <time>2022-05-16T02:40:09.481Z</time>
      </trkpt>
      <trkpt lat="48.07512" lon="7.05987">
        <ele>1043.527807</ele>
        <time>2022-05-16T02:40:52.703Z</time>
      </trkpt>
      <trkpt lat="48.07563" lon="7.05866">
        <ele>1048.312705</ele>
        <time>2022-05-16T02:41:32.554Z</time>
      </trkpt>
      <trkpt lat="48.07578" lon="7.05859">
        <ele>1049.102695</ele>
        <time>2022-05-16T02:41:39.172Z</time>
      </trkpt>
      <trkpt lat="48.07583" lon="7.05869">
        <ele>1049.522486</ele>
        <time>2022-05-16T02:41:45.427Z</time>
      </trkpt>
      <trkpt lat="48.07567" lon="7.05907">
        <ele>1050.986781</ele>
        <time>2022-05-16T02:41:59.587Z</time>
      </trkpt>
      <trkpt lat="48.07547" lon="7.06086">
        <ele>1059.030777</ele>
        <time>2022-05-16T02:43:15.021Z</time>
      </trkpt>
      <trkpt lat="48.07548" lon="7.06197">
        <ele>1063.604067</ele>
        <time>2022-05-16T02:43:50.870Z</time>
      </trkpt>
      <trkpt lat="48.07535" lon="7.06245">
        <ele>1063.553215</ele>
        <time>2022-05-16T02:44:03.735Z</time>
      </trkpt>
      <trkpt lat="48.07524" lon="7.06271">
        <ele>1063.523446</ele>
        <time>2022-05-16T02:44:09.775Z</time>
      </trkpt>
      <trkpt lat="48.07526" lon="7.06281">
        <ele>1063.513444</ele>
        <time>2022-05-16T02:44:12.348Z</time>
      </trkpt>
      <trkpt lat="48.07476" lon="7.06385">
        <ele>1063.388276</ele>
        <time>2022-05-16T02:44:37.001Z</time>
      </trkpt>
      <trkpt lat="48.07467" lon="7.06493">
        <ele>1060.559264</ele>
        <time>2022-05-16T02:44:54.155Z</time>
      </trkpt>
      <trkpt lat="48.07473" lon="7.06725">
        <ele>1051.540602</ele>
        <time>2022-05-16T02:45:29.940Z</time>
      </trkpt>
      <trkpt lat="48.07459" lon="7.06893">
        <ele>1045.843808</ele>
        <time>2022-05-16T02:45:56.584Z</time>
      </trkpt>
      <trkpt lat="48.07476" lon="7.07044">
        <ele>1043.560039</ele>
        <time>2022-05-16T02:46:23.663Z</time>
      </trkpt>
      <trkpt lat="48.07495" lon="7.07128">
        <ele>1043.486641</ele>
        <time>2022-05-16T02:46:42.005Z</time>
      </trkpt>
      <trkpt lat="48.07571" lon="7.07232">
        <ele>1045.038311</ele>
        <time>2022-05-16T02:47:27.096Z</time>
      </trkpt>
      <trkpt lat="48.07602" lon="7.07263">
        <ele>1046.566122</ele>
        <time>2022-05-16T02:47:46.939Z</time>
      </trkpt>
      <trkpt lat="48.07632" lon="7.07269">
        <ele>1047.809771</ele>
        <time>2022-05-16T02:48:04.680Z</time>
      </trkpt>
      <trkpt lat="48.07659" lon="7.0726">
        <ele>1048.926131</ele>
        <time>2022-05-16T02:48:20.494Z</time>
      </trkpt>
      <trkpt lat="48.07677" lon="7.07244">
        <ele>1049.769839</ele>
        <time>2022-05-16T02:48:32.006Z</time>
      </trkpt>
      <trkpt lat="48.07737" lon="7.07167">
        <ele>1051.709862</ele>
        <time>2022-05-16T02:49:15.725Z</time>
      </trkpt>
      <trkpt lat="48.078" lon="7.07105">
        <ele>1053.016684</ele>
        <time>2022-05-16T02:49:46.834Z</time>
      </trkpt>
      <trkpt lat="48.07866" lon="7.07011">
        <ele>1052.824259</ele>
        <time>2022-05-16T02:50:12.399Z</time>
      </trkpt>
      <trkpt lat="48.07906" lon="7.06966">
        <ele>1051.617643</ele>
        <time>2022-05-16T02:50:25.566Z</time>
      </trkpt>
      <trkpt lat="48.07953" lon="7.06942">
        <ele>1050.402895</ele>
        <time>2022-05-16T02:50:38.494Z</time>
      </trkpt>
      <trkpt lat="48.07997" lon="7.06904">
        <ele>1049.355482</ele>
        <time>2022-05-16T02:50:51.919Z</time>
      </trkpt>
      <trkpt lat="48.08043" lon="7.06824">
        <ele>1048.707552</ele>
        <time>2022-05-16T02:51:10.533Z</time>
      </trkpt>
      <trkpt lat="48.08079" lon="7.0673">
        <ele>1048.039475</ele>
        <time>2022-05-16T02:51:35.536Z</time>
      </trkpt>
      <trkpt lat="48.08091" lon="7.06711">
        <ele>1047.879812</ele>
        <time>2022-05-16T02:51:41.594Z</time>
      </trkpt>
      <trkpt lat="48.08104" lon="7.06632">
        <ele>1047.014494</ele>
        <time>2022-05-16T02:51:56.456Z</time>
      </trkpt>
      <trkpt lat="48.08159" lon="7.0646">
        <ele>1044.871157</ele>
        <time>2022-05-16T02:52:18.117Z</time>
      </trkpt>
      <trkpt lat="48.08182" lon="7.06361">
        <ele>1038.893418</ele>
        <time>2022-05-16T02:52:27.352Z</time>
      </trkpt>
      <trkpt lat="48.08222" lon="7.06263">
        <ele>1031.970885</ele>
        <time>2022-05-16T02:52:36.854Z</time>
      </trkpt>
      <trkpt lat="48.08249" lon="7.06227">
        <ele>1028.735184</ele>
        <time>2022-05-16T02:52:41.429Z</time>
      </trkpt>
      <trkpt lat="48.08267" lon="7.06237">
        <ele>1028.212649</ele>
        <time>2022-05-16T02:52:45.701Z</time>
      </trkpt>
      <trkpt lat="48.08303" lon="7.06266">
        <ele>1027.38122</ele>
        <time>2022-05-16T02:52:54.990Z</time>
      </trkpt>
      <trkpt lat="48.08325" lon="7.06268">
        <ele>1026.923943</ele>
        <time>2022-05-16T02:53:00.256Z</time>
      </trkpt>
      <trkpt lat="48.08365" lon="7.06231">
        <ele>1025.960775</ele>
        <time>2022-05-16T02:53:17.400Z</time>
      </trkpt>
      <trkpt lat="48.08411" lon="7.06198">
        <ele>1024.914914</ele>
        <time>2022-05-16T02:53:38.920Z</time>
      </trkpt>
      <trkpt lat="48.08497" lon="7.06155">
        <ele>1029.650735</ele>
        <time>2022-05-16T02:54:40.113Z</time>
      </trkpt>
      <trkpt lat="48.08538" lon="7.06196">
        <ele>1032.295942</ele>
        <time>2022-05-16T02:55:05.351Z</time>
      </trkpt>
      <trkpt lat="48.08557" lon="7.06237">
        <ele>1034.017967</ele>
        <time>2022-05-16T02:55:26.633Z</time>
      </trkpt>
      <trkpt lat="48.0857" lon="7.06355">
        <ele>1039.241874</ele>
        <time>2022-05-16T02:56:12.031Z</time>
      </trkpt>
      <trkpt lat="48.0858" lon="7.06404">
        <ele>1041.467395</ele>
        <time>2022-05-16T02:56:32.699Z</time>
      </trkpt>
      <trkpt lat="48.08587" lon="7.06415">
        <ele>1042.152405</ele>
        <time>2022-05-16T02:56:42.231Z</time>
      </trkpt>
      <trkpt lat="48.08616" lon="7.06392">
        <ele>1044.323411</ele>
        <time>2022-05-16T02:56:59.778Z</time>
      </trkpt>
      <trkpt lat="48.08668" lon="7.06323">
        <ele>1049.5781</ele>
        <time>2022-05-16T02:57:41.678Z</time>
      </trkpt>
      <trkpt lat="48.08667" lon="7.06314">
        <ele>1050.087563</ele>
        <time>2022-05-16T02:57:48.771Z</time>
      </trkpt>
      <trkpt lat="48.08684" lon="7.06307">
        <ele>1051.50395</ele>
        <time>2022-05-16T02:57:59.315Z</time>
      </trkpt>
      <trkpt lat="48.08688" lon="7.06311">
        <ele>1051.889045</ele>
        <time>2022-05-16T02:58:02.497Z</time>
      </trkpt>
      <trkpt lat="48.08693" lon="7.06327">
        <ele>1052.87785</ele>
        <time>2022-05-16T02:58:13.852Z</time>
      </trkpt>
      <trkpt lat="48.08708" lon="7.0637">
        <ele>1055.572853</ele>
        <time>2022-05-16T02:58:40.336Z</time>
      </trkpt>
      <trkpt lat="48.08711" lon="7.06423">
        <ele>1058.552846</ele>
        <time>2022-05-16T02:59:07.087Z</time>
      </trkpt>
      <trkpt lat="48.0872" lon="7.06458">
        <ele>1060.595491</ele>
        <time>2022-05-16T02:59:22.997Z</time>
      </trkpt>
      <trkpt lat="48.08724" lon="7.0647">
        <ele>1061.351111</ele>
        <time>2022-05-16T02:59:29.498Z</time>
      </trkpt>
      <trkpt lat="48.0875" lon="7.06549">
        <ele>1064.071656</ele>
        <time>2022-05-16T03:00:01.269Z</time>
      </trkpt>
      <trkpt lat="48.08793" lon="7.06593">
        <ele>1066.433801</ele>
        <time>2022-05-16T03:00:27.388Z</time>
      </trkpt>
      <trkpt lat="48.08787" lon="7.06605">
        <ele>1066.901603</ele>
        <time>2022-05-16T03:00:30.832Z</time>
      </trkpt>
      <trkpt lat="48.08762" lon="7.06623">
        <ele>1068.16543</ele>
        <time>2022-05-16T03:00:46.521Z</time>
      </trkpt>
      <trkpt lat="48.08746" lon="7.06657">
        <ele>1069.450714</ele>
        <time>2022-05-16T03:00:59.584Z</time>
      </trkpt>
      <trkpt lat="48.0875" lon="7.0668">
        <ele>1070.716673</ele>
        <time>2022-05-16T03:01:07.607Z</time>
      </trkpt>
      <trkpt lat="48.08766" lon="7.06704">
        <ele>1072.72575</ele>
        <time>2022-05-16T03:01:21.544Z</time>
      </trkpt>
      <trkpt lat="48.08769" lon="7.06664">
        <ele>1075.192479</ele>
        <time>2022-05-16T03:01:39.622Z</time>
      </trkpt>
      <trkpt lat="48.08791" lon="7.06647">
        <ele>1077.485623</ele>
        <time>2022-05-16T03:01:56.727Z</time>
      </trkpt>
      <trkpt lat="48.08852" lon="7.0667">
        <ele>1083.189612</ele>
        <time>2022-05-16T03:02:49.380Z</time>
      </trkpt>
      <trkpt lat="48.08935" lon="7.06682">
        <ele>1093.080312</ele>
        <time>2022-05-16T03:04:15.988Z</time>
      </trkpt>
      <trkpt lat="48.09004" lon="7.06678">
        <ele>1102.578833</ele>
        <time>2022-05-16T03:05:27.911Z</time>
      </trkpt>
      <trkpt lat="48.09022" lon="7.06669">
        <ele>1105.108489</ele>
        <time>2022-05-16T03:05:48.650Z</time>
      </trkpt>
      <trkpt lat="48.09052" lon="7.06671">
        <ele>1109.158208</ele>
        <time>2022-05-16T03:06:19.077Z</time>
      </trkpt>
      <trkpt lat="48.09108" lon="7.06616">
        <ele>1115.199526</ele>
        <time>2022-05-16T03:07:16.842Z</time>
      </trkpt>
      <trkpt lat="48.09191" lon="7.06587">
        <ele>1122.184926</ele>
        <time>2022-05-16T03:08:12.111Z</time>
      </trkpt>
      <trkpt lat="48.09201" lon="7.06574">
        <ele>1123.297001</ele>
        <time>2022-05-16T03:08:19.537Z</time>
      </trkpt>
      <trkpt lat="48.09214" lon="7.06499">
        <ele>1127.494393</ele>
        <time>2022-05-16T03:08:48.781Z</time>
      </trkpt>
      <trkpt lat="48.09211" lon="7.0649">
        <ele>1128.022244</ele>
        <time>2022-05-16T03:08:53.995Z</time>
      </trkpt>
      <trkpt lat="48.09202" lon="7.06485">
        <ele>1128.835033</ele>
        <time>2022-05-16T03:09:01.239Z</time>
      </trkpt>
      <trkpt lat="48.09171" lon="7.06476">
        <ele>1131.335539</ele>
        <time>2022-05-16T03:09:25.933Z</time>
      </trkpt>
      <trkpt lat="48.09169" lon="7.06462">
        <ele>1132.138056</ele>
        <time>2022-05-16T03:09:34.267Z</time>
      </trkpt>
      <trkpt lat="48.09175" lon="7.06456">
        <ele>1132.648383</ele>
        <time>2022-05-16T03:09:39.568Z</time>
      </trkpt>
      <trkpt lat="48.09223" lon="7.06447">
        <ele>1136.602219</ele>
        <time>2022-05-16T03:10:15.305Z</time>
      </trkpt>
      <trkpt lat="48.09241" lon="7.06454">
        <ele>1138.054644</ele>
        <time>2022-05-16T03:10:29.283Z</time>
      </trkpt>
      <trkpt lat="48.0925" lon="7.06467">
        <ele>1139.063608</ele>
        <time>2022-05-16T03:10:37.388Z</time>
      </trkpt>
      <trkpt lat="48.09267" lon="7.06524">
        <ele>1142.073171</ele>
        <time>2022-05-16T03:11:08.772Z</time>
      </trkpt>
      <trkpt lat="48.0927" lon="7.06556">
        <ele>1143.622475</ele>
        <time>2022-05-16T03:11:26.289Z</time>
      </trkpt>
      <trkpt lat="48.09259" lon="7.06589">
        <ele>1145.319173</ele>
        <time>2022-05-16T03:11:43.637Z</time>
      </trkpt>
      <trkpt lat="48.09226" lon="7.06644">
        <ele>1148.829532</ele>
        <time>2022-05-16T03:12:20.018Z</time>
      </trkpt>
      <trkpt lat="48.09187" lon="7.06678">
        <ele>1151.974413</ele>
        <time>2022-05-16T03:12:49.973Z</time>
      </trkpt>
      <trkpt lat="48.09179" lon="7.06697">
        <ele>1152.152833</ele>
        <time>2022-05-16T03:12:57.344Z</time>
      </trkpt>
      <trkpt lat="48.09176" lon="7.06792">
        <ele>1151.239794</ele>
        <time>2022-05-16T03:13:15.623Z</time>
      </trkpt>
      <trkpt lat="48.09179" lon="7.06802">
        <ele>1151.131331</ele>
        <time>2022-05-16T03:13:18.665Z</time>
      </trkpt>
      <trkpt lat="48.0918" lon="7.0681">
        <ele>1151.054863</ele>
        <time>2022-05-16T03:13:19.986Z</time>
      </trkpt>
      <trkpt lat="48.09181" lon="7.06825">
        <ele>1150.915602</ele>
        <time>2022-05-16T03:13:22.490Z</time>
      </trkpt>
      <trkpt lat="48.09183" lon="7.0684">
        <ele>1150.76477</ele>
        <time>2022-05-16T03:13:25.115Z</time>
      </trkpt>
      <trkpt lat="48.09193" lon="7.06876">
        <ele>1150.392527</ele>
        <time>2022-05-16T03:13:32.031Z</time>
      </trkpt>
      <trkpt lat="48.09195" lon="7.06882">
        <ele>1150.319305</ele>
        <time>2022-05-16T03:13:33.266Z</time>
      </trkpt>
      <trkpt lat="48.09212" lon="7.06911">
        <ele>1149.955534</ele>
        <time>2022-05-16T03:13:39.823Z</time>
      </trkpt>
      <trkpt lat="48.09222" lon="7.06916">
        <ele>1149.808934</ele>
        <time>2022-05-16T03:13:42.300Z</time>
      </trkpt>
      <trkpt lat="48.09272" lon="7.06908">
        <ele>1146.266744</ele>
        <time>2022-05-16T03:13:54.727Z</time>
      </trkpt>
      <trkpt lat="48.09298" lon="7.06921">
        <ele>1144.132163</ele>
        <time>2022-05-16T03:14:00.754Z</time>
      </trkpt>
      <trkpt lat="48.09345" lon="7.06932">
        <ele>1140.392953</ele>
        <time>2022-05-16T03:14:11.124Z</time>
      </trkpt>
      <trkpt lat="48.09367" lon="7.0697">
        <ele>1137.766873</ele>
        <time>2022-05-16T03:14:18.420Z</time>
      </trkpt>
      <trkpt lat="48.09398" lon="7.07">
        <ele>1134.760408</ele>
        <time>2022-05-16T03:14:26.572Z</time>
      </trkpt>
      <trkpt lat="48.09411" lon="7.07064">
        <ele>1130.9851</ele>
        <time>2022-05-16T03:14:36.128Z</time>
      </trkpt>
      <trkpt lat="48.09447" lon="7.07172">
        <ele>1124.14498</ele>
        <time>2022-05-16T03:14:53.741Z</time>
      </trkpt>
      <trkpt lat="48.09513" lon="7.07296">
        <ele>1118.001471</ele>
        <time>2022-05-16T03:15:18.110Z</time>
      </trkpt>
      <trkpt lat="48.09535" lon="7.07366">
        <ele>1116.002671</ele>
        <time>2022-05-16T03:15:31.556Z</time>
      </trkpt>
      <trkpt lat="48.0955" lon="7.07438">
        <ele>1114.048949</ele>
        <time>2022-05-16T03:15:45.718Z</time>
      </trkpt>
      <trkpt lat="48.09591" lon="7.07525">
        <ele>1110.307577</ele>
        <time>2022-05-16T03:16:05.900Z</time>
      </trkpt>
      <trkpt lat="48.09638" lon="7.0758">
        <ele>1106.941584</ele>
        <time>2022-05-16T03:16:19.357Z</time>
      </trkpt>
      <trkpt lat="48.09672" lon="7.07601">
        <ele>1104.84399</ele>
        <time>2022-05-16T03:16:27.771Z</time>
      </trkpt>
      <trkpt lat="48.0961" lon="7.07587">
        <ele>1098.251978</ele>
        <time>2022-05-16T03:16:42.063Z</time>
      </trkpt>
      <trkpt lat="48.09605" lon="7.0759">
        <ele>1097.405516</ele>
        <time>2022-05-16T03:16:43.213Z</time>
      </trkpt>
      <trkpt lat="48.09604" lon="7.07601">
        <ele>1096.293891</ele>
        <time>2022-05-16T03:16:44.988Z</time>
      </trkpt>
      <trkpt lat="48.09607" lon="7.07632">
        <ele>1093.230735</ele>
        <time>2022-05-16T03:16:49.667Z</time>
      </trkpt>
      <trkpt lat="48.09674" lon="7.07719">
        <ele>1080.336388</ele>
        <time>2022-05-16T03:17:07.208Z</time>
      </trkpt>
      <trkpt lat="48.09684" lon="7.07743">
        <ele>1077.550271</ele>
        <time>2022-05-16T03:17:10.955Z</time>
      </trkpt>
      <trkpt lat="48.09693" lon="7.07797">
        <ele>1071.156778</ele>
        <time>2022-05-16T03:17:18.134Z</time>
      </trkpt>
      <trkpt lat="48.09719" lon="7.07883">
        <ele>1060.054637</ele>
        <time>2022-05-16T03:17:30.757Z</time>
      </trkpt>
      <trkpt lat="48.09716" lon="7.07891">
        <ele>1059.063704</ele>
        <time>2022-05-16T03:17:31.883Z</time>
      </trkpt>
      <trkpt lat="48.09713" lon="7.07904">
        <ele>1057.377881</ele>
        <time>2022-05-16T03:17:33.901Z</time>
      </trkpt>
      <trkpt lat="48.09701" lon="7.07907">
        <ele>1055.252146</ele>
        <time>2022-05-16T03:17:36.341Z</time>
      </trkpt>
      <trkpt lat="48.09669" lon="7.07891">
        <ele>1049.332122</ele>
        <time>2022-05-16T03:17:43.103Z</time>
      </trkpt>
      <trkpt lat="48.0966" lon="7.07892">
        <ele>1047.711597</ele>
        <time>2022-05-16T03:17:44.942Z</time>
      </trkpt>
      <trkpt lat="48.09689" lon="7.07937">
        <ele>1042.078783</ele>
        <time>2022-05-16T03:17:53.194Z</time>
      </trkpt>
      <trkpt lat="48.0971" lon="7.0798">
        <ele>1037.890293</ele>
        <time>2022-05-16T03:18:00.428Z</time>
      </trkpt>
      <trkpt lat="48.09733" lon="7.08061">
        <ele>1030.999593</ele>
        <time>2022-05-16T03:18:13.101Z</time>
      </trkpt>
      <trkpt lat="48.09742" lon="7.08078">
        <ele>1029.258495</ele>
        <time>2022-05-16T03:18:16.315Z</time>
      </trkpt>
      <trkpt lat="48.09751" lon="7.08082">
        <ele>1028.131702</ele>
        <time>2022-05-16T03:18:18.427Z</time>
      </trkpt>
      <trkpt lat="48.09968" lon="7.08147">
        <ele>1007.380372</ele>
        <time>2022-05-16T03:19:06.932Z</time>
      </trkpt>
      <trkpt lat="48.09987" lon="7.08159">
        <ele>1005.20325</ele>
        <time>2022-05-16T03:19:11.459Z</time>
      </trkpt>
      <trkpt lat="48.09998" lon="7.08183">
        <ele>1003.222025</ele>
        <time>2022-05-16T03:19:15.553Z</time>
      </trkpt>
      <trkpt lat="48.10009" lon="7.08241">
        <ele>999.141095</ele>
        <time>2022-05-16T03:19:23.926Z</time>
      </trkpt>
      <trkpt lat="48.10014" lon="7.08269">
        <ele>997.109172</ele>
        <time>2022-05-16T03:19:28.125Z</time>
      </trkpt>
      <trkpt lat="48.10011" lon="7.08312">
        <ele>994.167606</ele>
        <time>2022-05-16T03:19:34.217Z</time>
      </trkpt>
      <trkpt lat="48.09971" lon="7.08447">
        <ele>986.263266</ele>
        <time>2022-05-16T03:19:55.528Z</time>
      </trkpt>
      <trkpt lat="48.09959" lon="7.08526">
        <ele>982.873145</ele>
        <time>2022-05-16T03:20:08.255Z</time>
      </trkpt>
      <trkpt lat="48.09955" lon="7.08584">
        <ele>980.421096</ele>
        <time>2022-05-16T03:20:17.788Z</time>
      </trkpt>
      <trkpt lat="48.09947" lon="7.08627">
        <ele>978.527253</ele>
        <time>2022-05-16T03:20:25.421Z</time>
      </trkpt>
      <trkpt lat="48.09937" lon="7.08646">
        <ele>977.796574</ele>
        <time>2022-05-16T03:20:29.656Z</time>
      </trkpt>
      <trkpt lat="48.09897" lon="7.08683">
        <ele>975.71973</ele>
        <time>2022-05-16T03:20:41.709Z</time>
      </trkpt>
      <trkpt lat="48.0987" lon="7.08696">
        <ele>974.453891</ele>
        <time>2022-05-16T03:20:48.644Z</time>
      </trkpt>
      <trkpt lat="48.09786" lon="7.08712">
        <ele>970.674411</ele>
        <time>2022-05-16T03:21:09.005Z</time>
      </trkpt>
      <trkpt lat="48.09759" lon="7.08724">
        <ele>969.355408</ele>
        <time>2022-05-16T03:21:15.988Z</time>
      </trkpt>
      <trkpt lat="48.09753" lon="7.08715">
        <ele>968.964075</ele>
        <time>2022-05-16T03:21:17.710Z</time>
      </trkpt>
      <trkpt lat="48.09733" lon="7.08747">
        <ele>967.544328</ele>
        <time>2022-05-16T03:21:24.897Z</time>
      </trkpt>
      <trkpt lat="48.09706" lon="7.08824">
        <ele>964.741407</ele>
        <time>2022-05-16T03:21:38.534Z</time>
      </trkpt>
      <trkpt lat="48.09651" lon="7.0892">
        <ele>961.679777</ele>
        <time>2022-05-16T03:21:59.226Z</time>
      </trkpt>
      <trkpt lat="48.09641" lon="7.08955">
        <ele>961.54903</ele>
        <time>2022-05-16T03:22:06.917Z</time>
      </trkpt>
      <trkpt lat="48.09605" lon="7.09014">
        <ele>961.276563</ele>
        <time>2022-05-16T03:22:23.669Z</time>
      </trkpt>
      <trkpt lat="48.09574" lon="7.09097">
        <ele>960.948263</ele>
        <time>2022-05-16T03:22:46.651Z</time>
      </trkpt>
      <trkpt lat="48.09566" lon="7.09133">
        <ele>960.955224</ele>
        <time>2022-05-16T03:22:56.505Z</time>
      </trkpt>
      <trkpt lat="48.09566" lon="7.09187">
        <ele>961.199807</ele>
        <time>2022-05-16T03:23:11.138Z</time>
      </trkpt>
      <trkpt lat="48.09551" lon="7.09246">
        <ele>961.484654</ele>
        <time>2022-05-16T03:23:28.178Z</time>
      </trkpt>
      <trkpt lat="48.09533" lon="7.09371">
        <ele>962.063086</ele>
        <time>2022-05-16T03:23:58.881Z</time>
      </trkpt>
      <trkpt lat="48.09503" lon="7.09453">
        <ele>960.183277</ele>
        <time>2022-05-16T03:24:15.214Z</time>
      </trkpt>
      <trkpt lat="48.09499" lon="7.0948">
        <ele>959.544052</ele>
        <time>2022-05-16T03:24:20.149Z</time>
      </trkpt>
      <trkpt lat="48.09496" lon="7.09575">
        <ele>957.41798</ele>
        <time>2022-05-16T03:24:35.877Z</time>
      </trkpt>
      <trkpt lat="48.09505" lon="7.09618">
        <ele>956.424746</ele>
        <time>2022-05-16T03:24:42.948Z</time>
      </trkpt>
      <trkpt lat="48.09593" lon="7.09869">
        <ele>949.407021</ele>
        <time>2022-05-16T03:25:29.870Z</time>
      </trkpt>
      <trkpt lat="48.09611" lon="7.09929">
        <ele>949.818208</ele>
        <time>2022-05-16T03:25:43.566Z</time>
      </trkpt>
      <trkpt lat="48.09634" lon="7.10011">
        <ele>950.428385</ele>
        <time>2022-05-16T03:26:06.269Z</time>
      </trkpt>
      <trkpt lat="48.09697" lon="7.10157">
        <ele>952.585452</ele>
        <time>2022-05-16T03:26:58.828Z</time>
      </trkpt>
      <trkpt lat="48.09723" lon="7.10205">
        <ele>954.000312</ele>
        <time>2022-05-16T03:27:18.532Z</time>
      </trkpt>
      <trkpt lat="48.09742" lon="7.10274">
        <ele>955.750072</ele>
        <time>2022-05-16T03:27:43.992Z</time>
      </trkpt>
      <trkpt lat="48.09739" lon="7.10321">
        <ele>956.85152</ele>
        <time>2022-05-16T03:28:02.887Z</time>
      </trkpt>
      <trkpt lat="48.09749" lon="7.10367">
        <ele>957.717611</ele>
        <time>2022-05-16T03:28:19.111Z</time>
      </trkpt>
      <trkpt lat="48.09751" lon="7.104">
        <ele>958.097375</ele>
        <time>2022-05-16T03:28:28.886Z</time>
      </trkpt>
      <trkpt lat="48.09736" lon="7.10457">
        <ele>958.776001</ele>
        <time>2022-05-16T03:28:45.271Z</time>
      </trkpt>
      <trkpt lat="48.09732" lon="7.10543">
        <ele>959.736872</ele>
        <time>2022-05-16T03:29:08.494Z</time>
      </trkpt>
      <trkpt lat="48.09693" lon="7.10527">
        <ele>960.411959</ele>
        <time>2022-05-16T03:29:21.613Z</time>
      </trkpt>
      <trkpt lat="48.09647" lon="7.10526">
        <ele>960.058529</ele>
        <time>2022-05-16T03:29:35.842Z</time>
      </trkpt>
      <trkpt lat="48.09633" lon="7.10534">
        <ele>959.899199</ele>
        <time>2022-05-16T03:29:41.417Z</time>
      </trkpt>
      <trkpt lat="48.09537" lon="7.10629">
        <ele>958.67383</ele>
        <time>2022-05-16T03:30:12.394Z</time>
      </trkpt>
      <trkpt lat="48.09322" lon="7.10823">
        <ele>958.263339</ele>
        <time>2022-05-16T03:31:35.348Z</time>
      </trkpt>
      <trkpt lat="48.09241" lon="7.10921">
        <ele>957.795847</ele>
        <time>2022-05-16T03:32:07.815Z</time>
      </trkpt>
      <trkpt lat="48.09172" lon="7.10982">
        <ele>955.600129</ele>
        <time>2022-05-16T03:32:28.992Z</time>
      </trkpt>
      <trkpt lat="48.09128" lon="7.11034">
        <ele>953.796184</ele>
        <time>2022-05-16T03:32:43.236Z</time>
      </trkpt>
      <trkpt lat="48.09109" lon="7.11089">
        <ele>952.478266</ele>
        <time>2022-05-16T03:32:53.399Z</time>
      </trkpt>
      <trkpt lat="48.09101" lon="7.11153">
        <ele>950.108347</ele>
        <time>2022-05-16T03:33:04.253Z</time>
      </trkpt>
      <trkpt lat="48.09103" lon="7.1119">
        <ele>948.472126</ele>
        <time>2022-05-16T03:33:10.380Z</time>
      </trkpt>
      <trkpt lat="48.09092" lon="7.11219">
        <ele>946.959279</ele>
        <time>2022-05-16T03:33:15.780Z</time>
      </trkpt>
      <trkpt lat="48.09087" lon="7.11233">
        <ele>946.269392</ele>
        <time>2022-05-16T03:33:18.389Z</time>
      </trkpt>
      <trkpt lat="48.09094" lon="7.11274">
        <ele>944.397579</ele>
        <time>2022-05-16T03:33:24.905Z</time>
      </trkpt>
      <trkpt lat="48.09091" lon="7.11318">
        <ele>942.427411</ele>
        <time>2022-05-16T03:33:31.567Z</time>
      </trkpt>
      <trkpt lat="48.0908" lon="7.1141">
        <ele>936.161435</ele>
        <time>2022-05-16T03:33:45.055Z</time>
      </trkpt>
      <trkpt lat="48.09065" lon="7.11477">
        <ele>929.204394</ele>
        <time>2022-05-16T03:33:54.674Z</time>
      </trkpt>
      <trkpt lat="48.08934" lon="7.11543">
        <ele>909.64759</ele>
        <time>2022-05-16T03:34:22.158Z</time>
      </trkpt>
      <trkpt lat="48.08915" lon="7.11549">
        <ele>907.197669</ele>
        <time>2022-05-16T03:34:26.196Z</time>
      </trkpt>
      <trkpt lat="48.08887" lon="7.11544">
        <ele>903.886902</ele>
        <time>2022-05-16T03:34:31.803Z</time>
      </trkpt>
      <trkpt lat="48.0885" lon="7.11559">
        <ele>899.187787</ele>
        <time>2022-05-16T03:34:39.965Z</time>
      </trkpt>
      <trkpt lat="48.08812" lon="7.11586">
        <ele>894.144489</ele>
        <time>2022-05-16T03:34:48.999Z</time>
      </trkpt>
      <trkpt lat="48.08802" lon="7.11585">
        <ele>892.9427</ele>
        <time>2022-05-16T03:34:50.714Z</time>
      </trkpt>
      <trkpt lat="48.08801" lon="7.11588">
        <ele>892.646635</ele>
        <time>2022-05-16T03:34:51.137Z</time>
      </trkpt>
      <trkpt lat="48.08797" lon="7.11587">
        <ele>892.134206</ele>
        <time>2022-05-16T03:34:52.081Z</time>
      </trkpt>
      <trkpt lat="48.08788" lon="7.11601">
        <ele>891.303703</ele>
        <time>2022-05-16T03:34:53.777Z</time>
      </trkpt>
      <trkpt lat="48.08792" lon="7.11619">
        <ele>890.853219</ele>
        <time>2022-05-16T03:34:55.430Z</time>
      </trkpt>
      <trkpt lat="48.08808" lon="7.11671">
        <ele>889.510492</ele>
        <time>2022-05-16T03:35:00.664Z</time>
      </trkpt>
      <trkpt lat="48.08811" lon="7.1168">
        <ele>889.275846</ele>
        <time>2022-05-16T03:35:01.564Z</time>
      </trkpt>
      <trkpt lat="48.08814" lon="7.11689">
        <ele>889.034496</ele>
        <time>2022-05-16T03:35:02.546Z</time>
      </trkpt>
      <trkpt lat="48.08819" lon="7.11697">
        <ele>888.776281</ele>
        <time>2022-05-16T03:35:03.612Z</time>
      </trkpt>
      <trkpt lat="48.08824" lon="7.11703">
        <ele>888.551754</ele>
        <time>2022-05-16T03:35:04.527Z</time>
      </trkpt>
      <trkpt lat="48.08829" lon="7.11708">
        <ele>888.333228</ele>
        <time>2022-05-16T03:35:05.415Z</time>
      </trkpt>
      <trkpt lat="48.08845" lon="7.11718">
        <ele>887.731317</ele>
        <time>2022-05-16T03:35:07.967Z</time>
      </trkpt>
      <trkpt lat="48.08855" lon="7.11724">
        <ele>887.355065</ele>
        <time>2022-05-16T03:35:09.673Z</time>
      </trkpt>
      <trkpt lat="48.08872" lon="7.11735">
        <ele>886.675309</ele>
        <time>2022-05-16T03:35:12.572Z</time>
      </trkpt>
      <trkpt lat="48.08928" lon="7.11771">
        <ele>885.540662</ele>
        <time>2022-05-16T03:35:22.747Z</time>
      </trkpt>
      <trkpt lat="48.08901" lon="7.11824">
        <ele>886.093397</ele>
        <time>2022-05-16T03:35:30.450Z</time>
      </trkpt>
      <trkpt lat="48.08847" lon="7.11866">
        <ele>886.857659</ele>
        <time>2022-05-16T03:35:48.821Z</time>
      </trkpt>
      <trkpt lat="48.08802" lon="7.1193">
        <ele>887.784752</ele>
        <time>2022-05-16T03:36:12.131Z</time>
      </trkpt>
      <trkpt lat="48.08761" lon="7.12008">
        <ele>889.86657</ele>
        <time>2022-05-16T03:36:38.590Z</time>
      </trkpt>
      <trkpt lat="48.0875" lon="7.12056">
        <ele>890.917924</ele>
        <time>2022-05-16T03:36:51.223Z</time>
      </trkpt>
      <trkpt lat="48.0875" lon="7.12097">
        <ele>891.768738</ele>
        <time>2022-05-16T03:37:01.024Z</time>
      </trkpt>
      <trkpt lat="48.0876" lon="7.122">
        <ele>893.274021</ele>
        <time>2022-05-16T03:37:24.240Z</time>
      </trkpt>
      <trkpt lat="48.08752" lon="7.12385">
        <ele>893.990273</ele>
        <time>2022-05-16T03:37:50.220Z</time>
      </trkpt>
      <trkpt lat="48.08734" lon="7.12477">
        <ele>894.230663</ele>
        <time>2022-05-16T03:38:02.685Z</time>
      </trkpt>
      <trkpt lat="48.08706" lon="7.12554">
        <ele>894.348025</ele>
        <time>2022-05-16T03:38:13.508Z</time>
      </trkpt>
      <trkpt lat="48.08696" lon="7.12594">
        <ele>894.40445</ele>
        <time>2022-05-16T03:38:18.566Z</time>
      </trkpt>
      <trkpt lat="48.08604" lon="7.12774">
        <ele>898.2177</ele>
        <time>2022-05-16T03:39:19.752Z</time>
      </trkpt>
      <trkpt lat="48.08565" lon="7.12747">
        <ele>899.936186</ele>
        <time>2022-05-16T03:39:44.150Z</time>
      </trkpt>
      <trkpt lat="48.08519" lon="7.12743">
        <ele>901.821146</ele>
        <time>2022-05-16T03:40:14.047Z</time>
      </trkpt>
      <trkpt lat="48.08352" lon="7.12709">
        <ele>915.397644</ele>
        <time>2022-05-16T03:42:20.486Z</time>
      </trkpt>
      <trkpt lat="48.08265" lon="7.12651">
        <ele>921.803365</ele>
        <time>2022-05-16T03:43:24.113Z</time>
      </trkpt>
      <trkpt lat="48.08133" lon="7.12604">
        <ele>930.504999</ele>
        <time>2022-05-16T03:44:46.481Z</time>
      </trkpt>
      <trkpt lat="48.0813" lon="7.12595">
        <ele>930.947864</ele>
        <time>2022-05-16T03:44:52.617Z</time>
      </trkpt>
      <trkpt lat="48.0808" lon="7.1259">
        <ele>934.005617</ele>
        <time>2022-05-16T03:45:16.849Z</time>
      </trkpt>
      <trkpt lat="48.08062" lon="7.126">
        <ele>935.180458</ele>
        <time>2022-05-16T03:45:28.240Z</time>
      </trkpt>
      <trkpt lat="48.08059" lon="7.12564">
        <ele>936.682874</ele>
        <time>2022-05-16T03:45:43.143Z</time>
      </trkpt>
      <trkpt lat="48.08031" lon="7.12522">
        <ele>939.005564</ele>
        <time>2022-05-16T03:46:08.072Z</time>
      </trkpt>
      <trkpt lat="48.08001" lon="7.12573">
        <ele>939.914543</ele>
        <time>2022-05-16T03:46:34.683Z</time>
      </trkpt>
      <trkpt lat="48.07967" lon="7.12601">
        <ele>940.685076</ele>
        <time>2022-05-16T03:46:50.604Z</time>
      </trkpt>
      <trkpt lat="48.07946" lon="7.12622">
        <ele>941.192619</ele>
        <time>2022-05-16T03:46:58.580Z</time>
      </trkpt>
      <trkpt lat="48.07928" lon="7.12619">
        <ele>941.54841</ele>
        <time>2022-05-16T03:47:05.416Z</time>
      </trkpt>
      <trkpt lat="48.07898" lon="7.12632">
        <ele>942.182295</ele>
        <time>2022-05-16T03:47:16.943Z</time>
      </trkpt>
      <trkpt lat="48.07881" lon="7.1266">
        <ele>942.284758</ele>
        <time>2022-05-16T03:47:24.967Z</time>
      </trkpt>
      <trkpt lat="48.07866" lon="7.12703">
        <ele>940.864835</ele>
        <time>2022-05-16T03:47:34.382Z</time>
      </trkpt>
      <trkpt lat="48.07852" lon="7.1275">
        <ele>939.379861</ele>
        <time>2022-05-16T03:47:43.055Z</time>
      </trkpt>
      <trkpt lat="48.07854" lon="7.12808">
        <ele>937.682269</ele>
        <time>2022-05-16T03:47:52.343Z</time>
      </trkpt>
      <trkpt lat="48.07849" lon="7.12814">
        <ele>937.409676</ele>
        <time>2022-05-16T03:47:53.474Z</time>
      </trkpt>
      <trkpt lat="48.07824" lon="7.12843">
        <ele>936.029119</ele>
        <time>2022-05-16T03:48:00.885Z</time>
      </trkpt>
      <trkpt lat="48.07808" lon="7.12841">
        <ele>935.318164</ele>
        <time>2022-05-16T03:48:04.535Z</time>
      </trkpt>
      <trkpt lat="48.078" lon="7.12867">
        <ele>934.15012</ele>
        <time>2022-05-16T03:48:07.991Z</time>
      </trkpt>
      <trkpt lat="48.0773" lon="7.12852">
        <ele>927.286614</ele>
        <time>2022-05-16T03:48:23.902Z</time>
      </trkpt>
      <trkpt lat="48.07701" lon="7.12833">
        <ele>924.134501</ele>
        <time>2022-05-16T03:48:30.784Z</time>
      </trkpt>
      <trkpt lat="48.07605" lon="7.12797">
        <ele>913.677412</ele>
        <time>2022-05-16T03:48:51.319Z</time>
      </trkpt>
      <trkpt lat="48.07576" lon="7.12779">
        <ele>909.562534</ele>
        <time>2022-05-16T03:48:57.879Z</time>
      </trkpt>
      <trkpt lat="48.07446" lon="7.12736">
        <ele>892.491616</ele>
        <time>2022-05-16T03:49:25.120Z</time>
      </trkpt>
      <trkpt lat="48.07407" lon="7.12734">
        <ele>888.070794</ele>
        <time>2022-05-16T03:49:33.274Z</time>
      </trkpt>
      <trkpt lat="48.07235" lon="7.12753">
        <ele>869.300284</ele>
        <time>2022-05-16T03:50:10.111Z</time>
      </trkpt>
      <trkpt lat="48.07158" lon="7.12722">
        <ele>861.483577</ele>
        <time>2022-05-16T03:50:27.238Z</time>
      </trkpt>
      <trkpt lat="48.07101" lon="7.12715">
        <ele>855.944306</ele>
        <time>2022-05-16T03:50:39.676Z</time>
      </trkpt>
      <trkpt lat="48.07084" lon="7.12702">
        <ele>854.160251</ele>
        <time>2022-05-16T03:50:43.867Z</time>
      </trkpt>
      <trkpt lat="48.0702" lon="7.1269">
        <ele>848.211542</ele>
        <time>2022-05-16T03:50:58.083Z</time>
      </trkpt>
      <trkpt lat="48.06983" lon="7.12675">
        <ele>844.76718</ele>
        <time>2022-05-16T03:51:06.246Z</time>
      </trkpt>
      <trkpt lat="48.06925" lon="7.12614">
        <ele>838.2888</ele>
        <time>2022-05-16T03:51:21.666Z</time>
      </trkpt>
      <trkpt lat="48.06886" lon="7.12565">
        <ele>833.566062</ele>
        <time>2022-05-16T03:51:32.866Z</time>
      </trkpt>
      <trkpt lat="48.06845" lon="7.12535">
        <ele>829.425687</ele>
        <time>2022-05-16T03:51:42.455Z</time>
      </trkpt>
      <trkpt lat="48.06831" lon="7.12542">
        <ele>828.056958</ele>
        <time>2022-05-16T03:51:45.703Z</time>
      </trkpt>
      <trkpt lat="48.06819" lon="7.12567">
        <ele>826.174268</ele>
        <time>2022-05-16T03:51:50.112Z</time>
      </trkpt>
      <trkpt lat="48.06804" lon="7.12583">
        <ele>824.420042</ele>
        <time>2022-05-16T03:51:54.417Z</time>
      </trkpt>
      <trkpt lat="48.06745" lon="7.12609">
        <ele>821.115762</ele>
        <time>2022-05-16T03:52:08.069Z</time>
      </trkpt>
      <trkpt lat="48.06723" lon="7.12614">
        <ele>820.193719</ele>
        <time>2022-05-16T03:52:13.158Z</time>
      </trkpt>
      <trkpt lat="48.06741" lon="7.1268">
        <ele>818.224996</ele>
        <time>2022-05-16T03:52:19.640Z</time>
      </trkpt>
      <trkpt lat="48.06747" lon="7.12728">
        <ele>816.859413</ele>
        <time>2022-05-16T03:52:24.550Z</time>
      </trkpt>
      <trkpt lat="48.06732" lon="7.12738">
        <ele>816.193028</ele>
        <time>2022-05-16T03:52:28.745Z</time>
      </trkpt>
      <trkpt lat="48.06732" lon="7.12738">
        <ele>816.193028</ele>
        <time>2022-05-16T03:52:28.745Z</time>
      </trkpt>
      <trkpt lat="48.06727" lon="7.12808">
        <ele>816.385508</ele>
        <time>2022-05-16T03:52:46.990Z</time>
      </trkpt>
      <trkpt lat="48.06711" lon="7.12844">
        <ele>817.161865</ele>
        <time>2022-05-16T03:53:01.574Z</time>
      </trkpt>
      <trkpt lat="48.06697" lon="7.12938">
        <ele>818.933948</ele>
        <time>2022-05-16T03:53:34.549Z</time>
      </trkpt>
      <trkpt lat="48.06686" lon="7.13054">
        <ele>820.601857</ele>
        <time>2022-05-16T03:54:13.462Z</time>
      </trkpt>
      <trkpt lat="48.06692" lon="7.13112">
        <ele>820.891189</ele>
        <time>2022-05-16T03:54:29.960Z</time>
      </trkpt>
      <trkpt lat="48.06691" lon="7.1317">
        <ele>821.172193</ele>
        <time>2022-05-16T03:54:42.819Z</time>
      </trkpt>
      <trkpt lat="48.06676" lon="7.13231">
        <ele>821.488815</ele>
        <time>2022-05-16T03:54:55.675Z</time>
      </trkpt>
      <trkpt lat="48.06682" lon="7.13261">
        <ele>821.643388</ele>
        <time>2022-05-16T03:55:02.336Z</time>
      </trkpt>
      <trkpt lat="48.06683" lon="7.13319">
        <ele>821.107638</ele>
        <time>2022-05-16T03:55:13.968Z</time>
      </trkpt>
      <trkpt lat="48.06682" lon="7.13335">
        <ele>820.829951</ele>
        <time>2022-05-16T03:55:16.930Z</time>
      </trkpt>
      <trkpt lat="48.06692" lon="7.13377">
        <ele>820.04553</ele>
        <time>2022-05-16T03:55:25.060Z</time>
      </trkpt>
      <trkpt lat="48.06717" lon="7.13452">
        <ele>818.561974</ele>
        <time>2022-05-16T03:55:39.404Z</time>
      </trkpt>
      <trkpt lat="48.06719" lon="7.1346">
        <ele>818.398809</ele>
        <time>2022-05-16T03:55:40.939Z</time>
      </trkpt>
      <trkpt lat="48.06727" lon="7.13468">
        <ele>818.149243</ele>
        <time>2022-05-16T03:55:43.429Z</time>
      </trkpt>
      <trkpt lat="48.06731" lon="7.13472">
        <ele>818.020796</ele>
        <time>2022-05-16T03:55:44.660Z</time>
      </trkpt>
      <trkpt lat="48.06716" lon="7.13547">
        <ele>816.555818</ele>
        <time>2022-05-16T03:55:57.723Z</time>
      </trkpt>
      <trkpt lat="48.06716" lon="7.1364">
        <ele>814.49266</ele>
        <time>2022-05-16T03:56:13.415Z</time>
      </trkpt>
      <trkpt lat="48.06703" lon="7.13679">
        <ele>813.510694</ele>
        <time>2022-05-16T03:56:20.997Z</time>
      </trkpt>
      <trkpt lat="48.06686" lon="7.13717">
        <ele>812.492011</ele>
        <time>2022-05-16T03:56:28.856Z</time>
      </trkpt>
      <trkpt lat="48.06632" lon="7.13766">
        <ele>810.476032</ele>
        <time>2022-05-16T03:56:45.434Z</time>
      </trkpt>
      <trkpt lat="48.06624" lon="7.13786">
        <ele>810.036527</ele>
        <time>2022-05-16T03:56:49.108Z</time>
      </trkpt>
      <trkpt lat="48.06642" lon="7.13856">
        <ele>808.586269</ele>
        <time>2022-05-16T03:57:03.317Z</time>
      </trkpt>
      <trkpt lat="48.06648" lon="7.13916">
        <ele>807.417397</ele>
        <time>2022-05-16T03:57:14.361Z</time>
      </trkpt>
      <trkpt lat="48.06645" lon="7.13957">
        <ele>806.638255</ele>
        <time>2022-05-16T03:57:21.364Z</time>
      </trkpt>
      <trkpt lat="48.06635" lon="7.14011">
        <ele>804.996218</ele>
        <time>2022-05-16T03:57:31.113Z</time>
      </trkpt>
      <trkpt lat="48.06615" lon="7.14065">
        <ele>801.5583</ele>
        <time>2022-05-16T03:57:41.435Z</time>
      </trkpt>
      <trkpt lat="48.06587" lon="7.14181">
        <ele>794.657258</ele>
        <time>2022-05-16T03:57:59.332Z</time>
      </trkpt>
      <trkpt lat="48.06561" lon="7.14243">
        <ele>790.393434</ele>
        <time>2022-05-16T03:58:09.603Z</time>
      </trkpt>
      <trkpt lat="48.0655" lon="7.14373">
        <ele>779.235892</ele>
        <time>2022-05-16T03:58:27.704Z</time>
      </trkpt>
      <trkpt lat="48.06543" lon="7.144">
        <ele>776.726789</ele>
        <time>2022-05-16T03:58:31.739Z</time>
      </trkpt>
      <trkpt lat="48.06522" lon="7.14452">
        <ele>771.636069</ele>
        <time>2022-05-16T03:58:39.895Z</time>
      </trkpt>
      <trkpt lat="48.06507" lon="7.1447">
        <ele>769.071122</ele>
        <time>2022-05-16T03:58:43.994Z</time>
      </trkpt>
      <trkpt lat="48.06485" lon="7.14477">
        <ele>766.863021</ele>
        <time>2022-05-16T03:58:48.472Z</time>
      </trkpt>
      <trkpt lat="48.06404" lon="7.1447">
        <ele>760.450893</ele>
        <time>2022-05-16T03:59:05.994Z</time>
      </trkpt>
      <trkpt lat="48.06326" lon="7.14474">
        <ele>754.314365</ele>
        <time>2022-05-16T03:59:24.953Z</time>
      </trkpt>
      <trkpt lat="48.06248" lon="7.14501">
        <ele>749.036314</ele>
        <time>2022-05-16T03:59:45.194Z</time>
      </trkpt>
      <trkpt lat="48.06247" lon="7.14514">
        <ele>748.452321</ele>
        <time>2022-05-16T03:59:47.410Z</time>
      </trkpt>
      <trkpt lat="48.06231" lon="7.14552">
        <ele>746.539094</ele>
        <time>2022-05-16T03:59:54.438Z</time>
      </trkpt>
      <trkpt lat="48.06228" lon="7.146">
        <ele>744.506242</ele>
        <time>2022-05-16T04:00:01.663Z</time>
      </trkpt>
      <trkpt lat="48.06217" lon="7.14646">
        <ele>742.390836</ele>
        <time>2022-05-16T04:00:08.998Z</time>
      </trkpt>
      <trkpt lat="48.06138" lon="7.14867">
        <ele>723.491034</ele>
        <time>2022-05-16T04:00:43.825Z</time>
      </trkpt>
      <trkpt lat="48.06097" lon="7.14941">
        <ele>717.567593</ele>
        <time>2022-05-16T04:00:57.458Z</time>
      </trkpt>
      <trkpt lat="48.06074" lon="7.14954">
        <ele>715.570053</ele>
        <time>2022-05-16T04:01:02.673Z</time>
      </trkpt>
      <trkpt lat="48.06023" lon="7.14946">
        <ele>711.328439</ele>
        <time>2022-05-16T04:01:14.154Z</time>
      </trkpt>
      <trkpt lat="48.06" lon="7.14953">
        <ele>709.378143</ele>
        <time>2022-05-16T04:01:19.712Z</time>
      </trkpt>
      <trkpt lat="48.05951" lon="7.1499">
        <ele>704.803743</ele>
        <time>2022-05-16T04:01:33.240Z</time>
      </trkpt>
      <trkpt lat="48.05911" lon="7.15011">
        <ele>701.409603</ele>
        <time>2022-05-16T04:01:42.739Z</time>
      </trkpt>
      <trkpt lat="48.05854" lon="7.15062">
        <ele>696.07984</ele>
        <time>2022-05-16T04:01:57.030Z</time>
      </trkpt>
      <trkpt lat="48.05822" lon="7.15108">
        <ele>692.480452</ele>
        <time>2022-05-16T04:02:06.917Z</time>
      </trkpt>
      <trkpt lat="48.05808" lon="7.1512">
        <ele>691.007335</ele>
        <time>2022-05-16T04:02:10.411Z</time>
      </trkpt>
      <trkpt lat="48.05797" lon="7.15133">
        <ele>689.787574</ele>
        <time>2022-05-16T04:02:13.444Z</time>
      </trkpt>
      <trkpt lat="48.05761" lon="7.15152">
        <ele>686.246033</ele>
        <time>2022-05-16T04:02:22.044Z</time>
      </trkpt>
      <trkpt lat="48.05739" lon="7.15152">
        <ele>684.206925</ele>
        <time>2022-05-16T04:02:26.820Z</time>
      </trkpt>
      <trkpt lat="48.05718" lon="7.15143">
        <ele>682.175395</ele>
        <time>2022-05-16T04:02:31.556Z</time>
      </trkpt>
      <trkpt lat="48.05687" lon="7.15116">
        <ele>678.865245</ele>
        <time>2022-05-16T04:02:39.222Z</time>
      </trkpt>
      <trkpt lat="48.05661" lon="7.15085">
        <ele>675.866222</ele>
        <time>2022-05-16T04:02:46.096Z</time>
      </trkpt>
      <trkpt lat="48.05643" lon="7.15052">
        <ele>673.524074</ele>
        <time>2022-05-16T04:02:52.464Z</time>
      </trkpt>
      <trkpt lat="48.05635" lon="7.15022">
        <ele>671.812243</ele>
        <time>2022-05-16T04:02:57.487Z</time>
      </trkpt>
      <trkpt lat="48.05619" lon="7.15029">
        <ele>670.483504</ele>
        <time>2022-05-16T04:03:01.199Z</time>
      </trkpt>
      <trkpt lat="48.05605" lon="7.15072">
        <ele>667.95834</ele>
        <time>2022-05-16T04:03:08.544Z</time>
      </trkpt>
      <trkpt lat="48.05599" lon="7.15105">
        <ele>666.127137</ele>
        <time>2022-05-16T04:03:13.754Z</time>
      </trkpt>
      <trkpt lat="48.05601" lon="7.15124">
        <ele>665.09609</ele>
        <time>2022-05-16T04:03:16.633Z</time>
      </trkpt>
      <trkpt lat="48.05612" lon="7.15145">
        <ele>663.713571</ele>
        <time>2022-05-16T04:03:20.413Z</time>
      </trkpt>
      <trkpt lat="48.0564" lon="7.15158">
        <ele>661.361961</ele>
        <time>2022-05-16T04:03:26.990Z</time>
      </trkpt>
      <trkpt lat="48.05657" lon="7.15178">
        <ele>659.384659</ele>
        <time>2022-05-16T04:03:31.923Z</time>
      </trkpt>
      <trkpt lat="48.05663" lon="7.15195">
        <ele>658.222383</ele>
        <time>2022-05-16T04:03:34.646Z</time>
      </trkpt>
      <trkpt lat="48.05675" lon="7.15245">
        <ele>654.990209</ele>
        <time>2022-05-16T04:03:43.167Z</time>
      </trkpt>
      <trkpt lat="48.05697" lon="7.15404">
        <ele>645.075406</ele>
        <time>2022-05-16T04:04:06.447Z</time>
      </trkpt>
      <trkpt lat="48.05712" lon="7.15446">
        <ele>641.421739</ele>
        <time>2022-05-16T04:04:13.194Z</time>
      </trkpt>
      <trkpt lat="48.05702" lon="7.15442">
        <ele>640.249452</ele>
        <time>2022-05-16T04:04:15.233Z</time>
      </trkpt>
      <trkpt lat="48.05677" lon="7.15405">
        <ele>636.094447</ele>
        <time>2022-05-16T04:04:22.750Z</time>
      </trkpt>
      <trkpt lat="48.05651" lon="7.15363">
        <ele>631.623526</ele>
        <time>2022-05-16T04:04:30.715Z</time>
      </trkpt>
      <trkpt lat="48.05638" lon="7.1533">
        <ele>628.611421</ele>
        <time>2022-05-16T04:04:36.217Z</time>
      </trkpt>
      <trkpt lat="48.05629" lon="7.15326">
        <ele>627.47055</ele>
        <time>2022-05-16T04:04:38.186Z</time>
      </trkpt>
      <trkpt lat="48.05614" lon="7.15396">
        <ele>621.341058</ele>
        <time>2022-05-16T04:04:48.403Z</time>
      </trkpt>
      <trkpt lat="48.05592" lon="7.15453">
        <ele>615.269721</ele>
        <time>2022-05-16T04:04:57.480Z</time>
      </trkpt>
      <trkpt lat="48.05577" lon="7.15465">
        <ele>613.009951</ele>
        <time>2022-05-16T04:05:00.849Z</time>
      </trkpt>
      <trkpt lat="48.05565" lon="7.1546">
        <ele>611.205758</ele>
        <time>2022-05-16T04:05:03.646Z</time>
      </trkpt>
      <trkpt lat="48.05537" lon="7.15415">
        <ele>605.581505</ele>
        <time>2022-05-16T04:05:11.936Z</time>
      </trkpt>
      <trkpt lat="48.05522" lon="7.15556">
        <ele>593.809627</ele>
        <time>2022-05-16T04:05:31.306Z</time>
      </trkpt>
      <trkpt lat="48.05496" lon="7.15618">
        <ele>588.412002</ele>
        <time>2022-05-16T04:05:41.653Z</time>
      </trkpt>
      <trkpt lat="48.05491" lon="7.15667">
        <ele>584.783482</ele>
        <time>2022-05-16T04:05:48.776Z</time>
      </trkpt>
      <trkpt lat="48.05499" lon="7.15718">
        <ele>580.926391</ele>
        <time>2022-05-16T04:05:56.487Z</time>
      </trkpt>
      <trkpt lat="48.05533" lon="7.15784">
        <ele>576.345708</ele>
        <time>2022-05-16T04:06:08.951Z</time>
      </trkpt>
      <trkpt lat="48.05527" lon="7.15829">
        <ele>574.158214</ele>
        <time>2022-05-16T04:06:15.911Z</time>
      </trkpt>
      <trkpt lat="48.05468" lon="7.15882">
        <ele>569.140618</ele>
        <time>2022-05-16T04:06:32.437Z</time>
      </trkpt>
      <trkpt lat="48.05422" lon="7.15906">
        <ele>565.235632</ele>
        <time>2022-05-16T04:06:43.207Z</time>
      </trkpt>
      <trkpt lat="48.05383" lon="7.15937">
        <ele>559.821815</ele>
        <time>2022-05-16T04:06:52.616Z</time>
      </trkpt>
      <trkpt lat="48.05344" lon="7.15978">
        <ele>554.102505</ele>
        <time>2022-05-16T04:07:02.416Z</time>
      </trkpt>
      <trkpt lat="48.05333" lon="7.16">
        <ele>551.858293</ele>
        <time>2022-05-16T04:07:06.228Z</time>
      </trkpt>
      <trkpt lat="48.05318" lon="7.16043">
        <ele>548.038149</ele>
        <time>2022-05-16T04:07:12.652Z</time>
      </trkpt>
      <trkpt lat="48.05302" lon="7.16159">
        <ele>538.85431</ele>
        <time>2022-05-16T04:07:29.267Z</time>
      </trkpt>
      <trkpt lat="48.05275" lon="7.16252">
        <ele>531.267838</ele>
        <time>2022-05-16T04:07:43.926Z</time>
      </trkpt>
      <trkpt lat="48.05258" lon="7.1637">
        <ele>521.69683</ele>
        <time>2022-05-16T04:08:00.894Z</time>
      </trkpt>
      <trkpt lat="48.05263" lon="7.16413">
        <ele>517.560078</ele>
        <time>2022-05-16T04:08:06.946Z</time>
      </trkpt>
      <trkpt lat="48.05263" lon="7.16427">
        <ele>516.216243</ele>
        <time>2022-05-16T04:08:08.944Z</time>
      </trkpt>
      <trkpt lat="48.05258" lon="7.16433">
        <ele>515.371649</ele>
        <time>2022-05-16T04:08:10.155Z</time>
      </trkpt>
      <trkpt lat="48.05125" lon="7.16615">
        <ele>488.697579</ele>
        <time>2022-05-16T04:08:46.677Z</time>
      </trkpt>
      <trkpt lat="48.05051" lon="7.16615">
        <ele>476.720216</ele>
        <time>2022-05-16T04:09:01.604Z</time>
      </trkpt>
      <trkpt lat="48.05028" lon="7.16608">
        <ele>473.021488</ele>
        <time>2022-05-16T04:09:06.119Z</time>
      </trkpt>
      <trkpt lat="48.04984" lon="7.16558">
        <ele>464.953662</ele>
        <time>2022-05-16T04:09:17.320Z</time>
      </trkpt>
      <trkpt lat="48.04973" lon="7.16558">
        <ele>463.462849</ele>
        <time>2022-05-16T04:09:19.514Z</time>
      </trkpt>
      <trkpt lat="48.04963" lon="7.16572">
        <ele>461.619334</ele>
        <time>2022-05-16T04:09:22.375Z</time>
      </trkpt>
      <trkpt lat="48.04938" lon="7.16559">
        <ele>457.988141</ele>
        <time>2022-05-16T04:09:27.770Z</time>
      </trkpt>
      <trkpt lat="48.04932" lon="7.16564">
        <ele>457.104793</ele>
        <time>2022-05-16T04:09:29.253Z</time>
      </trkpt>
      <trkpt lat="48.04921" lon="7.16602">
        <ele>453.324267</ele>
        <time>2022-05-16T04:09:34.973Z</time>
      </trkpt>
      <trkpt lat="48.04924" lon="7.16715">
        <ele>443.469771</ele>
        <time>2022-05-16T04:09:50.749Z</time>
      </trkpt>
      <trkpt lat="48.0492" lon="7.16732">
        <ele>442.180193</ele>
        <time>2022-05-16T04:09:53.237Z</time>
      </trkpt>
      <trkpt lat="48.0491" lon="7.16746">
        <ele>440.642527</ele>
        <time>2022-05-16T04:09:56.100Z</time>
      </trkpt>
      <trkpt lat="48.04881" lon="7.16749">
        <ele>437.462774</ele>
        <time>2022-05-16T04:10:02.185Z</time>
      </trkpt>
      <trkpt lat="48.04871" lon="7.16758">
        <ele>436.163867</ele>
        <time>2022-05-16T04:10:04.780Z</time>
      </trkpt>
      <trkpt lat="48.04869" lon="7.16772">
        <ele>435.110292</ele>
        <time>2022-05-16T04:10:06.774Z</time>
      </trkpt>
      <trkpt lat="48.0489" lon="7.16872">
        <ele>427.427943</ele>
        <time>2022-05-16T04:10:22.106Z</time>
      </trkpt>
      <trkpt lat="48.04907" lon="7.16954">
        <ele>419.643051</ele>
        <time>2022-05-16T04:10:34.212Z</time>
      </trkpt>
      <trkpt lat="48.0491" lon="7.17017">
        <ele>413.524101</ele>
        <time>2022-05-16T04:10:42.805Z</time>
      </trkpt>
      <trkpt lat="48.04923" lon="7.17092">
        <ele>406.139849</ele>
        <time>2022-05-16T04:10:53.244Z</time>
      </trkpt>
      <trkpt lat="48.04922" lon="7.17123">
        <ele>403.140495</ele>
        <time>2022-05-16T04:10:57.472Z</time>
      </trkpt>
      <trkpt lat="48.04916" lon="7.17142">
        <ele>401.1371</ele>
        <time>2022-05-16T04:11:00.217Z</time>
      </trkpt>
      <trkpt lat="48.04898" lon="7.17184">
        <ele>395.577114</ele>
        <time>2022-05-16T04:11:04.176Z</time>
      </trkpt>
      <trkpt lat="48.04886" lon="7.17202">
        <ele>392.626622</ele>
        <time>2022-05-16T04:11:06.196Z</time>
      </trkpt>
      <trkpt lat="48.04839" lon="7.17229">
        <ele>383.834039</ele>
        <time>2022-05-16T04:11:12.172Z</time>
      </trkpt>
      <trkpt lat="48.04802" lon="7.17274">
        <ele>375.484892</ele>
        <time>2022-05-16T04:11:17.836Z</time>
      </trkpt>
      <trkpt lat="48.04729" lon="7.17382">
        <ele>360.731797</ele>
        <time>2022-05-16T04:11:38.598Z</time>
      </trkpt>
      <trkpt lat="48.04719" lon="7.17395">
        <ele>359.172132</ele>
        <time>2022-05-16T04:11:41.128Z</time>
      </trkpt>
      <trkpt lat="48.04689" lon="7.17437">
        <ele>353.939244</ele>
        <time>2022-05-16T04:11:49.826Z</time>
      </trkpt>
      <trkpt lat="48.04675" lon="7.17466">
        <ele>351.032669</ele>
        <time>2022-05-16T04:11:54.730Z</time>
      </trkpt>
      <trkpt lat="48.04673" lon="7.17464">
        <ele>350.805533</ele>
        <time>2022-05-16T04:11:54.960Z</time>
      </trkpt>
      <trkpt lat="48.04651" lon="7.17486">
        <ele>347.5286</ele>
        <time>2022-05-16T04:11:58.333Z</time>
      </trkpt>
      <trkpt lat="48.04642" lon="7.17527">
        <ele>345.363467</ele>
        <time>2022-05-16T04:12:02.199Z</time>
      </trkpt>
      <trkpt lat="48.0464" lon="7.17531">
        <ele>345.219335</ele>
        <time>2022-05-16T04:12:02.614Z</time>
      </trkpt>
      <trkpt lat="48.04631" lon="7.17531">
        <ele>344.786844</ele>
        <time>2022-05-16T04:12:03.859Z</time>
      </trkpt>
      <trkpt lat="48.04577" lon="7.1754">
        <ele>342.210855</ele>
        <time>2022-05-16T04:12:11.743Z</time>
      </trkpt>
      <trkpt lat="48.04549" lon="7.17538">
        <ele>340.888665</ele>
        <time>2022-05-16T04:12:15.886Z</time>
      </trkpt>
      <trkpt lat="48.04462" lon="7.1752">
        <ele>337.456253</ele>
        <time>2022-05-16T04:12:29.536Z</time>
      </trkpt>
      <trkpt lat="48.04452" lon="7.17588">
        <ele>336.701792</ele>
        <time>2022-05-16T04:12:37.168Z</time>
      </trkpt>
      <trkpt lat="48.04451" lon="7.1769">
        <ele>335.598887</ele>
        <time>2022-05-16T04:12:49.183Z</time>
      </trkpt>
      <trkpt lat="48.04452" lon="7.17695">
        <ele>335.536294</ele>
        <time>2022-05-16T04:12:49.862Z</time>
      </trkpt>
      <trkpt lat="48.04477" lon="7.17883">
        <ele>334.042212</ele>
        <time>2022-05-16T04:13:12.770Z</time>
      </trkpt>
      <trkpt lat="48.04484" lon="7.18005">
        <ele>333.248314</ele>
        <time>2022-05-16T04:13:27.670Z</time>
      </trkpt>
      <trkpt lat="48.04487" lon="7.18009">
        <ele>333.208413</ele>
        <time>2022-05-16T04:13:28.417Z</time>
      </trkpt>
      <trkpt lat="48.04514" lon="7.17996">
        <ele>332.88283</ele>
        <time>2022-05-16T04:13:33.400Z</time>
      </trkpt>
      <trkpt lat="48.04524" lon="7.17998">
        <ele>332.751178</ele>
        <time>2022-05-16T04:13:35.339Z</time>
      </trkpt>
      <trkpt lat="48.04519" lon="7.18041">
        <ele>332.389828</ele>
        <time>2022-05-16T04:13:40.541Z</time>
      </trkpt>
      <trkpt lat="48.04533" lon="7.18127">
        <ele>331.669527</ele>
        <time>2022-05-16T04:13:50.883Z</time>
      </trkpt>
      <trkpt lat="48.04535" lon="7.1818">
        <ele>331.23602</ele>
        <time>2022-05-16T04:13:57.030Z</time>
      </trkpt>
      <trkpt lat="48.04561" lon="7.18296">
        <ele>330.130887</ele>
        <time>2022-05-16T04:14:11.122Z</time>
      </trkpt>
      <trkpt lat="48.04576" lon="7.18337">
        <ele>329.695402</ele>
        <time>2022-05-16T04:14:16.477Z</time>
      </trkpt>
      <trkpt lat="48.04601" lon="7.18358">
        <ele>329.2955</ele>
        <time>2022-05-16T04:14:21.361Z</time>
      </trkpt>
      <trkpt lat="48.04623" lon="7.18386">
        <ele>328.888506</ele>
        <time>2022-05-16T04:14:26.350Z</time>
      </trkpt>
      <trkpt lat="48.04673" lon="7.18497">
        <ele>327.651408</ele>
        <time>2022-05-16T04:14:41.905Z</time>
      </trkpt>
      <trkpt lat="48.04695" lon="7.18618">
        <ele>326.493848</ele>
        <time>2022-05-16T04:14:56.481Z</time>
      </trkpt>
      <trkpt lat="48.04686" lon="7.18623">
        <ele>326.355842</ele>
        <time>2022-05-16T04:14:58.189Z</time>
      </trkpt>
      <trkpt lat="48.04628" lon="7.18652">
        <ele>325.434185</ele>
        <time>2022-05-16T04:15:08.542Z</time>
      </trkpt>
      <trkpt lat="48.04689" lon="7.18985">
        <ele>321.892889</ele>
        <time>2022-05-16T04:15:47.554Z</time>
      </trkpt>
      <trkpt lat="48.04677" lon="7.19103">
        <ele>320.831335</ele>
        <time>2022-05-16T04:16:01.627Z</time>
      </trkpt>
      <trkpt lat="48.04692" lon="7.1914">
        <ele>320.5348</ele>
        <time>2022-05-16T04:16:06.814Z</time>
      </trkpt>
      <trkpt lat="48.04726" lon="7.19271">
        <ele>319.971249</ele>
        <time>2022-05-16T04:16:24.309Z</time>
      </trkpt>
      <trkpt lat="48.04754" lon="7.19354">
        <ele>319.601265</ele>
        <time>2022-05-16T04:16:35.969Z</time>
      </trkpt>
      <trkpt lat="48.04739" lon="7.19364">
        <ele>319.521645</ele>
        <time>2022-05-16T04:16:39.186Z</time>
      </trkpt>
      <trkpt lat="48.04598" lon="7.19457">
        <ele>319.198421</ele>
        <time>2022-05-16T04:17:09.182Z</time>
      </trkpt>
      <trkpt lat="48.04589" lon="7.19463">
        <ele>319.177866</ele>
        <time>2022-05-16T04:17:11.145Z</time>
      </trkpt>
      <trkpt lat="48.04586" lon="7.19465">
        <ele>319.17094</ele>
        <time>2022-05-16T04:17:11.826Z</time>
      </trkpt>
      <trkpt lat="48.04582" lon="7.19468">
        <ele>319.161295</ele>
        <time>2022-05-16T04:17:12.799Z</time>
      </trkpt>
      <trkpt lat="48.04474" lon="7.19538">
        <ele>318.891994</ele>
        <time>2022-05-16T04:17:37.144Z</time>
      </trkpt>
      <trkpt lat="48.04452" lon="7.19554">
        <ele>318.835897</ele>
        <time>2022-05-16T04:17:41.828Z</time>
      </trkpt>
      <trkpt lat="48.0445" lon="7.19562">
        <ele>318.823988</ele>
        <time>2022-05-16T04:17:43.035Z</time>
      </trkpt>
      <trkpt lat="48.04518" lon="7.19704">
        <ele>317.527957</ele>
        <time>2022-05-16T04:18:04.157Z</time>
      </trkpt>
      <trkpt lat="48.04592" lon="7.20039">
        <ele>313.399754</ele>
        <time>2022-05-16T04:18:42.833Z</time>
      </trkpt>
      <trkpt lat="48.04608" lon="7.20191">
        <ele>311.779079</ele>
        <time>2022-05-16T04:19:00.393Z</time>
      </trkpt>
      <trkpt lat="48.04651" lon="7.20359">
        <ele>310.183725</ele>
        <time>2022-05-16T04:19:21.479Z</time>
      </trkpt>
      <trkpt lat="48.0466" lon="7.20388">
        <ele>309.964065</ele>
        <time>2022-05-16T04:19:25.113Z</time>
      </trkpt>
      <trkpt lat="48.04717" lon="7.206">
        <ele>308.365845</ele>
        <time>2022-05-16T04:19:52.188Z</time>
      </trkpt>
      <trkpt lat="48.04736" lon="7.20733">
        <ele>308.010462</ele>
        <time>2022-05-16T04:20:09.638Z</time>
      </trkpt>
      <trkpt lat="48.0476" lon="7.20797">
        <ele>307.837697</ele>
        <time>2022-05-16T04:20:19.353Z</time>
      </trkpt>
      <trkpt lat="48.04774" lon="7.2082">
        <ele>307.764961</ele>
        <time>2022-05-16T04:20:23.403Z</time>
      </trkpt>
      <trkpt lat="48.04768" lon="7.20825">
        <ele>307.741339</ele>
        <time>2022-05-16T04:20:24.674Z</time>
      </trkpt>
      <trkpt lat="48.04742" lon="7.20846">
        <ele>307.713489</ele>
        <time>2022-05-16T04:20:30.104Z</time>
      </trkpt>
      <trkpt lat="48.04678" lon="7.20917">
        <ele>307.932882</ele>
        <time>2022-05-16T04:20:45.213Z</time>
      </trkpt>
      <trkpt lat="48.04669" lon="7.20929">
        <ele>307.967375</ele>
        <time>2022-05-16T04:20:48.082Z</time>
      </trkpt>
      <trkpt lat="48.04635" lon="7.20973">
        <ele>308.09224</ele>
        <time>2022-05-16T04:20:58.507Z</time>
      </trkpt>
      <trkpt lat="48.0463" lon="7.20984">
        <ele>308.117441</ele>
        <time>2022-05-16T04:21:01.017Z</time>
      </trkpt>
      <trkpt lat="48.04582" lon="7.20897">
        <ele>309.698174</ele>
        <time>2022-05-16T04:21:22.376Z</time>
      </trkpt>
      <trkpt lat="48.04575" lon="7.20852">
        <ele>310.584933</ele>
        <time>2022-05-16T04:21:34.588Z</time>
      </trkpt>
      <trkpt lat="48.04539" lon="7.20789">
        <ele>312.184336</ele>
        <time>2022-05-16T04:21:59.980Z</time>
      </trkpt>
      <trkpt lat="48.04507" lon="7.20719">
        <ele>314.470405</ele>
        <time>2022-05-16T04:22:35.394Z</time>
      </trkpt>
      <trkpt lat="48.04494" lon="7.207">
        <ele>315.728915</ele>
        <time>2022-05-16T04:22:47.155Z</time>
      </trkpt>
      <trkpt lat="48.04492" lon="7.20686">
        <ele>316.385591</ele>
        <time>2022-05-16T04:22:54.320Z</time>
      </trkpt>
      <trkpt lat="48.04446" lon="7.20632">
        <ele>320.411843</ele>
        <time>2022-05-16T04:23:26.451Z</time>
      </trkpt>
      <trkpt lat="48.04432" lon="7.20613">
        <ele>321.718714</ele>
        <time>2022-05-16T04:23:37.433Z</time>
      </trkpt>
      <trkpt lat="48.04418" lon="7.20595">
        <ele>323.010282</ele>
        <time>2022-05-16T04:23:47.497Z</time>
      </trkpt>
      <trkpt lat="48.04369" lon="7.20526">
        <ele>327.070398</ele>
        <time>2022-05-16T04:24:25.108Z</time>
      </trkpt>
      <trkpt lat="48.04339" lon="7.20487">
        <ele>329.022796</ele>
        <time>2022-05-16T04:24:46.243Z</time>
      </trkpt>
      <trkpt lat="48.04251" lon="7.20408">
        <ele>334.012691</ele>
        <time>2022-05-16T04:25:27.969Z</time>
      </trkpt>
      <trkpt lat="48.0416" lon="7.20365">
        <ele>335.483422</ele>
        <time>2022-05-16T04:25:51.675Z</time>
      </trkpt>
      <trkpt lat="48.04076" lon="7.20339">
        <ele>336.450204</ele>
        <time>2022-05-16T04:26:10.833Z</time>
      </trkpt>
      <trkpt lat="48.04015" lon="7.20335">
        <ele>336.78401</ele>
        <time>2022-05-16T04:26:23.710Z</time>
      </trkpt>
      <trkpt lat="48.0399" lon="7.20334">
        <ele>336.896044</ele>
        <time>2022-05-16T04:26:28.610Z</time>
      </trkpt>
      <trkpt lat="48.039" lon="7.20333">
        <ele>337.297624</ele>
        <time>2022-05-16T04:26:47.858Z</time>
      </trkpt>
      <trkpt lat="48.03895" lon="7.20332">
        <ele>337.318156</ele>
        <time>2022-05-16T04:26:48.902Z</time>
      </trkpt>
      <trkpt lat="48.03838" lon="7.2033">
        <ele>337.351278</ele>
        <time>2022-05-16T04:27:02.034Z</time>
      </trkpt>
      <trkpt lat="48.03833" lon="7.2033">
        <ele>337.351278</ele>
        <time>2022-05-16T04:27:03.311Z</time>
      </trkpt>
      <trkpt lat="48.03827" lon="7.2033">
        <ele>337.351278</ele>
        <time>2022-05-16T04:27:04.583Z</time>
      </trkpt>
      <trkpt lat="48.03798" lon="7.20327">
        <ele>337.351278</ele>
        <time>2022-05-16T04:27:11.426Z</time>
      </trkpt>
      <trkpt lat="48.03787" lon="7.20326">
        <ele>337.351278</ele>
        <time>2022-05-16T04:27:13.971Z</time>
      </trkpt>
    </trkseg>
  </trk>
</gpx>